<?xml version="1.0" encoding="UTF-8" standalone="no" ?>
<gpx xmlns="http://www.topografix.com/GPX/1/1" xmlns:xsi="http://www.w3.org/2001/XMLSchema-instance" xsi:schemaLocation="http://www.topografix.com/GPX/1/1 http://www.topografix.com/GPX/1/1/gpx.xsd" version="1.1" creator="VisuGPX - https://www.visugpx.com">
  <metadata>
    <name>Rousset Nève Aiglette</name>
    <desc><![CDATA[File with points/tracks from Locus Map/3.26.2]]></desc>
  </metadata>
  <trk>
    <name><![CDATA[F26150 Rousset Nève Aiglette MJC LT]]></name>
    <trkseg>
      <trkpt lat="44.83799" lon="5.39779">
        <ele>1260.97</ele>
        <time>2017-10-17T08:00:30.000Z</time>
      </trkpt>
      <trkpt lat="44.838" lon="5.39782">
        <ele>1261.85</ele>
        <time>2017-10-17T08:00:40.000Z</time>
      </trkpt>
      <trkpt lat="44.83797" lon="5.39777">
        <ele>1259.37</ele>
        <time>2017-10-17T08:00:50.000Z</time>
      </trkpt>
      <trkpt lat="44.83795" lon="5.39773">
        <ele>1257.16</ele>
        <time>2017-10-17T08:01:00.000Z</time>
      </trkpt>
      <trkpt lat="44.83793" lon="5.39772">
        <ele>1255.81</ele>
        <time>2017-10-17T08:03:14.000Z</time>
      </trkpt>
      <trkpt lat="44.83796" lon="5.39773">
        <ele>1257.66</ele>
        <time>2017-10-17T08:03:24.000Z</time>
      </trkpt>
      <trkpt lat="44.83798" lon="5.39772">
        <ele>1258.39</ele>
        <time>2017-10-17T08:03:34.000Z</time>
      </trkpt>
      <trkpt lat="44.83794" lon="5.3977">
        <ele>1255.94</ele>
        <time>2017-10-17T08:03:44.000Z</time>
      </trkpt>
      <trkpt lat="44.83798" lon="5.39772">
        <ele>1258.72</ele>
        <time>2017-10-17T08:06:35.000Z</time>
      </trkpt>
      <trkpt lat="44.8381" lon="5.39774">
        <ele>1266.72</ele>
        <time>2017-10-17T08:06:45.000Z</time>
      </trkpt>
      <trkpt lat="44.83821" lon="5.39782">
        <ele>1275.69</ele>
        <time>2017-10-17T08:06:55.000Z</time>
      </trkpt>
      <trkpt lat="44.838" lon="5.39777">
        <ele>1261.15</ele>
        <time>2017-10-17T08:07:05.000Z</time>
      </trkpt>
      <trkpt lat="44.83805" lon="5.39781">
        <ele>1265.16</ele>
        <time>2017-10-17T08:07:15.000Z</time>
      </trkpt>
      <trkpt lat="44.83803" lon="5.39779">
        <ele>1262.96</ele>
        <time>2017-10-17T08:07:25.000Z</time>
      </trkpt>
      <trkpt lat="44.83802" lon="5.39778">
        <ele>1262.34</ele>
        <time>2017-10-17T08:08:34.000Z</time>
      </trkpt>
      <trkpt lat="44.83805" lon="5.39771">
        <ele>1262.51</ele>
        <time>2017-10-17T08:09:16.000Z</time>
      </trkpt>
      <trkpt lat="44.83815" lon="5.39737">
        <ele>1261.02</ele>
        <time>2017-10-17T08:09:26.000Z</time>
      </trkpt>
      <trkpt lat="44.83815" lon="5.39718">
        <ele>1257.35</ele>
        <time>2017-10-17T08:09:36.000Z</time>
      </trkpt>
      <trkpt lat="44.83816" lon="5.39696">
        <ele>1254.16</ele>
        <time>2017-10-17T08:09:46.000Z</time>
      </trkpt>
      <trkpt lat="44.83819" lon="5.39688">
        <ele>1254.75</ele>
        <time>2017-10-17T08:09:56.000Z</time>
      </trkpt>
      <trkpt lat="44.83818" lon="5.39675">
        <ele>1251.31</ele>
        <time>2017-10-17T08:10:06.000Z</time>
      </trkpt>
      <trkpt lat="44.8382" lon="5.39663">
        <ele>1250.73</ele>
        <time>2017-10-17T08:10:16.000Z</time>
      </trkpt>
      <trkpt lat="44.83825" lon="5.39656">
        <ele>1252.47</ele>
        <time>2017-10-17T08:10:26.000Z</time>
      </trkpt>
      <trkpt lat="44.8383" lon="5.39645">
        <ele>1253.28</ele>
        <time>2017-10-17T08:10:36.000Z</time>
      </trkpt>
      <trkpt lat="44.83832" lon="5.39635">
        <ele>1252.61</ele>
        <time>2017-10-17T08:10:46.000Z</time>
      </trkpt>
      <trkpt lat="44.83834" lon="5.39628">
        <ele>1252.17</ele>
        <time>2017-10-17T08:10:56.000Z</time>
      </trkpt>
      <trkpt lat="44.83832" lon="5.39627">
        <ele>1250.75</ele>
        <time>2017-10-17T08:11:06.000Z</time>
      </trkpt>
      <trkpt lat="44.83832" lon="5.39625">
        <ele>1250.33</ele>
        <time>2017-10-17T08:11:16.000Z</time>
      </trkpt>
      <trkpt lat="44.83836" lon="5.39622">
        <ele>1252.19</ele>
        <time>2017-10-17T08:12:32.000Z</time>
      </trkpt>
      <trkpt lat="44.83847" lon="5.39588">
        <ele>1250.98</ele>
        <time>2017-10-17T08:12:42.000Z</time>
      </trkpt>
      <trkpt lat="44.83844" lon="5.39537">
        <ele>1236.64</ele>
        <time>2017-10-17T08:12:52.000Z</time>
      </trkpt>
      <trkpt lat="44.83858" lon="5.39554">
        <ele>1248.35</ele>
        <time>2017-10-17T08:13:02.000Z</time>
      </trkpt>
      <trkpt lat="44.83865" lon="5.39553">
        <ele>1251.78</ele>
        <time>2017-10-17T08:13:12.000Z</time>
      </trkpt>
      <trkpt lat="44.83865" lon="5.39556">
        <ele>1252.62</ele>
        <time>2017-10-17T08:13:22.000Z</time>
      </trkpt>
      <trkpt lat="44.83867" lon="5.39557">
        <ele>1254.18</ele>
        <time>2017-10-17T08:13:32.000Z</time>
      </trkpt>
      <trkpt lat="44.83864" lon="5.39565">
        <ele>1255.03</ele>
        <time>2017-10-17T08:13:42.000Z</time>
      </trkpt>
      <trkpt lat="44.83856" lon="5.39561">
        <ele>1249.5</ele>
        <time>2017-10-17T08:13:52.000Z</time>
      </trkpt>
      <trkpt lat="44.83861" lon="5.39576">
        <ele>1255.92</ele>
        <time>2017-10-17T08:14:02.000Z</time>
      </trkpt>
      <trkpt lat="44.83861" lon="5.39575">
        <ele>1255.71</ele>
        <time>2017-10-17T08:14:12.000Z</time>
      </trkpt>
      <trkpt lat="44.83862" lon="5.39576">
        <ele>1256.41</ele>
        <time>2017-10-17T08:14:22.000Z</time>
      </trkpt>
      <trkpt lat="44.83861" lon="5.39579">
        <ele>1256.86</ele>
        <time>2017-10-17T08:14:47.000Z</time>
      </trkpt>
      <trkpt lat="44.83851" lon="5.39592">
        <ele>1254.49</ele>
        <time>2017-10-17T08:14:57.000Z</time>
      </trkpt>
      <trkpt lat="44.83846" lon="5.39606">
        <ele>1254.52</ele>
        <time>2017-10-17T08:15:07.000Z</time>
      </trkpt>
      <trkpt lat="44.83846" lon="5.39605">
        <ele>1254.23</ele>
        <time>2017-10-17T08:15:18.000Z</time>
      </trkpt>
      <trkpt lat="44.83847" lon="5.39607">
        <ele>1255.37</ele>
        <time>2017-10-17T08:15:29.000Z</time>
      </trkpt>
      <trkpt lat="44.83849" lon="5.39615">
        <ele>1258.39</ele>
        <time>2017-10-17T08:15:39.000Z</time>
      </trkpt>
      <trkpt lat="44.83848" lon="5.39623">
        <ele>1259.11</ele>
        <time>2017-10-17T08:16:24.000Z</time>
      </trkpt>
      <trkpt lat="44.83854" lon="5.39686">
        <ele>1274.56</ele>
        <time>2017-10-17T08:16:34.000Z</time>
      </trkpt>
      <trkpt lat="44.83854" lon="5.39702">
        <ele>1277.72</ele>
        <time>2017-10-17T08:16:44.000Z</time>
      </trkpt>
      <trkpt lat="44.83849" lon="5.397">
        <ele>1274.52</ele>
        <time>2017-10-17T08:16:54.000Z</time>
      </trkpt>
      <trkpt lat="44.8385" lon="5.39703">
        <ele>1275.42</ele>
        <time>2017-10-17T08:17:05.000Z</time>
      </trkpt>
      <trkpt lat="44.83851" lon="5.39706">
        <ele>1276.31</ele>
        <time>2017-10-17T08:17:15.000Z</time>
      </trkpt>
      <trkpt lat="44.83851" lon="5.39707">
        <ele>1276.86</ele>
        <time>2017-10-17T08:17:46.000Z</time>
      </trkpt>
      <trkpt lat="44.83852" lon="5.39712">
        <ele>1278.01</ele>
        <time>2017-10-17T08:17:57.000Z</time>
      </trkpt>
      <trkpt lat="44.83861" lon="5.3973">
        <ele>1286.6</ele>
        <time>2017-10-17T08:18:07.000Z</time>
      </trkpt>
      <trkpt lat="44.8387" lon="5.39735">
        <ele>1292.83</ele>
        <time>2017-10-17T08:18:17.000Z</time>
      </trkpt>
      <trkpt lat="44.83868" lon="5.39741">
        <ele>1292.98</ele>
        <time>2017-10-17T08:18:27.000Z</time>
      </trkpt>
      <trkpt lat="44.83862" lon="5.39751">
        <ele>1291.97</ele>
        <time>2017-10-17T08:18:37.000Z</time>
      </trkpt>
      <trkpt lat="44.83862" lon="5.39752">
        <ele>1291.94</ele>
        <time>2017-10-17T08:18:59.000Z</time>
      </trkpt>
      <trkpt lat="44.83861" lon="5.39753">
        <ele>1291.84</ele>
        <time>2017-10-17T08:19:15.000Z</time>
      </trkpt>
      <trkpt lat="44.83861" lon="5.39754">
        <ele>1291.77</ele>
        <time>2017-10-17T08:19:26.000Z</time>
      </trkpt>
      <trkpt lat="44.8386" lon="5.39755">
        <ele>1291.65</ele>
        <time>2017-10-17T08:19:45.000Z</time>
      </trkpt>
      <trkpt lat="44.83859" lon="5.39756">
        <ele>1291.55</ele>
        <time>2017-10-17T08:20:00.000Z</time>
      </trkpt>
      <trkpt lat="44.83859" lon="5.39757">
        <ele>1291.44</ele>
        <time>2017-10-17T08:20:10.000Z</time>
      </trkpt>
      <trkpt lat="44.83858" lon="5.39758">
        <ele>1291.34</ele>
        <time>2017-10-17T08:20:23.000Z</time>
      </trkpt>
      <trkpt lat="44.83858" lon="5.39759">
        <ele>1291.23</ele>
        <time>2017-10-17T08:20:43.000Z</time>
      </trkpt>
      <trkpt lat="44.83854" lon="5.39761">
        <ele>1289.62</ele>
        <time>2017-10-17T08:20:55.000Z</time>
      </trkpt>
      <trkpt lat="44.83844" lon="5.39765">
        <ele>1284.63</ele>
        <time>2017-10-17T08:21:05.000Z</time>
      </trkpt>
      <trkpt lat="44.83839" lon="5.39779">
        <ele>1284.93</ele>
        <time>2017-10-17T08:21:15.000Z</time>
      </trkpt>
      <trkpt lat="44.83832" lon="5.39789">
        <ele>1283.95</ele>
        <time>2017-10-17T08:21:25.000Z</time>
      </trkpt>
      <trkpt lat="44.83826" lon="5.39793">
        <ele>1281.27</ele>
        <time>2017-10-17T08:21:35.000Z</time>
      </trkpt>
      <trkpt lat="44.83818" lon="5.39805">
        <ele>1279.53</ele>
        <time>2017-10-17T08:21:45.000Z</time>
      </trkpt>
      <trkpt lat="44.83812" lon="5.39821">
        <ele>1280.99</ele>
        <time>2017-10-17T08:21:55.000Z</time>
      </trkpt>
      <trkpt lat="44.83806" lon="5.39833">
        <ele>1281.77</ele>
        <time>2017-10-17T08:22:05.000Z</time>
      </trkpt>
      <trkpt lat="44.83802" lon="5.39854">
        <ele>1288.28</ele>
        <time>2017-10-17T08:22:15.000Z</time>
      </trkpt>
      <trkpt lat="44.83794" lon="5.39875">
        <ele>1295.13</ele>
        <time>2017-10-17T08:22:25.000Z</time>
      </trkpt>
      <trkpt lat="44.8378" lon="5.39894">
        <ele>1299.15</ele>
        <time>2017-10-17T08:22:35.000Z</time>
      </trkpt>
      <trkpt lat="44.83767" lon="5.39901">
        <ele>1295.62</ele>
        <time>2017-10-17T08:22:45.000Z</time>
      </trkpt>
      <trkpt lat="44.83764" lon="5.39911">
        <ele>1300.17</ele>
        <time>2017-10-17T08:22:55.000Z</time>
      </trkpt>
      <trkpt lat="44.83764" lon="5.3992">
        <ele>1305.09</ele>
        <time>2017-10-17T08:23:05.000Z</time>
      </trkpt>
      <trkpt lat="44.83762" lon="5.39932">
        <ele>1310.83</ele>
        <time>2017-10-17T08:23:15.000Z</time>
      </trkpt>
      <trkpt lat="44.83761" lon="5.39936">
        <ele>1312.44</ele>
        <time>2017-10-17T08:23:25.000Z</time>
      </trkpt>
      <trkpt lat="44.83761" lon="5.39938">
        <ele>1313.53</ele>
        <time>2017-10-17T08:23:35.000Z</time>
      </trkpt>
      <trkpt lat="44.8376" lon="5.39939">
        <ele>1313.56</ele>
        <time>2017-10-17T08:24:46.000Z</time>
      </trkpt>
      <trkpt lat="44.83746" lon="5.39953">
        <ele>1313.1</ele>
        <time>2017-10-17T08:24:56.000Z</time>
      </trkpt>
      <trkpt lat="44.83734" lon="5.39958">
        <ele>1308.64</ele>
        <time>2017-10-17T08:25:06.000Z</time>
      </trkpt>
      <trkpt lat="44.83739" lon="5.39989">
        <ele>1329.06</ele>
        <time>2017-10-17T08:25:16.000Z</time>
      </trkpt>
      <trkpt lat="44.8373" lon="5.40002">
        <ele>1329.43</ele>
        <time>2017-10-17T08:25:26.000Z</time>
      </trkpt>
      <trkpt lat="44.8374" lon="5.40003">
        <ele>1335.09</ele>
        <time>2017-10-17T08:25:36.000Z</time>
      </trkpt>
      <trkpt lat="44.83721" lon="5.40012">
        <ele>1327.89</ele>
        <time>2017-10-17T08:25:46.000Z</time>
      </trkpt>
      <trkpt lat="44.83719" lon="5.40019">
        <ele>1329.3</ele>
        <time>2017-10-17T08:25:56.000Z</time>
      </trkpt>
      <trkpt lat="44.83717" lon="5.40029">
        <ele>1331.37</ele>
        <time>2017-10-17T08:26:06.000Z</time>
      </trkpt>
      <trkpt lat="44.83712" lon="5.40036">
        <ele>1330.88</ele>
        <time>2017-10-17T08:26:16.000Z</time>
      </trkpt>
      <trkpt lat="44.83715" lon="5.4004">
        <ele>1333.5</ele>
        <time>2017-10-17T08:26:26.000Z</time>
      </trkpt>
      <trkpt lat="44.8371" lon="5.40051">
        <ele>1334.17</ele>
        <time>2017-10-17T08:26:36.000Z</time>
      </trkpt>
      <trkpt lat="44.83725" lon="5.40048">
        <ele>1340.26</ele>
        <time>2017-10-17T08:26:46.000Z</time>
      </trkpt>
      <trkpt lat="44.83724" lon="5.40046">
        <ele>1339.28</ele>
        <time>2017-10-17T08:26:56.000Z</time>
      </trkpt>
      <trkpt lat="44.83726" lon="5.40046">
        <ele>1340.01</ele>
        <time>2017-10-17T08:27:06.000Z</time>
      </trkpt>
      <trkpt lat="44.83724" lon="5.40045">
        <ele>1339.34</ele>
        <time>2017-10-17T08:27:16.000Z</time>
      </trkpt>
      <trkpt lat="44.8372" lon="5.40045">
        <ele>1337.31</ele>
        <time>2017-10-17T08:27:26.000Z</time>
      </trkpt>
      <trkpt lat="44.83721" lon="5.40045">
        <ele>1337.74</ele>
        <time>2017-10-17T08:28:13.000Z</time>
      </trkpt>
      <trkpt lat="44.83722" lon="5.40045">
        <ele>1338.16</ele>
        <time>2017-10-17T08:29:34.000Z</time>
      </trkpt>
      <trkpt lat="44.83724" lon="5.40048">
        <ele>1339.91</ele>
        <time>2017-10-17T08:30:19.000Z</time>
      </trkpt>
      <trkpt lat="44.83739" lon="5.40063">
        <ele>1349.02</ele>
        <time>2017-10-17T08:30:29.000Z</time>
      </trkpt>
      <trkpt lat="44.83743" lon="5.40061">
        <ele>1350.29</ele>
        <time>2017-10-17T08:30:39.000Z</time>
      </trkpt>
      <trkpt lat="44.83749" lon="5.40067">
        <ele>1353.77</ele>
        <time>2017-10-17T08:30:49.000Z</time>
      </trkpt>
      <trkpt lat="44.83754" lon="5.40066">
        <ele>1355.76</ele>
        <time>2017-10-17T08:30:59.000Z</time>
      </trkpt>
      <trkpt lat="44.83758" lon="5.40064">
        <ele>1356.9</ele>
        <time>2017-10-17T08:31:09.000Z</time>
      </trkpt>
      <trkpt lat="44.83758" lon="5.40063">
        <ele>1356.78</ele>
        <time>2017-10-17T08:31:20.000Z</time>
      </trkpt>
      <trkpt lat="44.83757" lon="5.40067">
        <ele>1356.83</ele>
        <time>2017-10-17T08:32:11.000Z</time>
      </trkpt>
      <trkpt lat="44.83753" lon="5.40085">
        <ele>1358.45</ele>
        <time>2017-10-17T08:32:21.000Z</time>
      </trkpt>
      <trkpt lat="44.83752" lon="5.40107">
        <ele>1362.4</ele>
        <time>2017-10-17T08:32:31.000Z</time>
      </trkpt>
      <trkpt lat="44.83744" lon="5.40115">
        <ele>1361.24</ele>
        <time>2017-10-17T08:32:41.000Z</time>
      </trkpt>
      <trkpt lat="44.8374" lon="5.40131">
        <ele>1363.06</ele>
        <time>2017-10-17T08:32:51.000Z</time>
      </trkpt>
      <trkpt lat="44.83735" lon="5.40138">
        <ele>1362.78</ele>
        <time>2017-10-17T08:33:01.000Z</time>
      </trkpt>
      <trkpt lat="44.83728" lon="5.40142">
        <ele>1361.73</ele>
        <time>2017-10-17T08:33:11.000Z</time>
      </trkpt>
      <trkpt lat="44.83725" lon="5.40146">
        <ele>1361.92</ele>
        <time>2017-10-17T08:33:21.000Z</time>
      </trkpt>
      <trkpt lat="44.83725" lon="5.40148">
        <ele>1362.16</ele>
        <time>2017-10-17T08:33:59.000Z</time>
      </trkpt>
      <trkpt lat="44.83726" lon="5.4015">
        <ele>1362.79</ele>
        <time>2017-10-17T08:34:09.000Z</time>
      </trkpt>
      <trkpt lat="44.83726" lon="5.40153">
        <ele>1363.24</ele>
        <time>2017-10-17T08:34:19.000Z</time>
      </trkpt>
      <trkpt lat="44.83734" lon="5.40166">
        <ele>1366.45</ele>
        <time>2017-10-17T08:34:29.000Z</time>
      </trkpt>
      <trkpt lat="44.83737" lon="5.40169">
        <ele>1367.35</ele>
        <time>2017-10-17T08:34:39.000Z</time>
      </trkpt>
      <trkpt lat="44.83744" lon="5.40171">
        <ele>1368.76</ele>
        <time>2017-10-17T08:34:49.000Z</time>
      </trkpt>
      <trkpt lat="44.83749" lon="5.40174">
        <ele>1369.97</ele>
        <time>2017-10-17T08:34:59.000Z</time>
      </trkpt>
      <trkpt lat="44.83753" lon="5.40189">
        <ele>1370.5</ele>
        <time>2017-10-17T08:35:09.000Z</time>
      </trkpt>
      <trkpt lat="44.8375" lon="5.40186">
        <ele>1370</ele>
        <time>2017-10-17T08:35:19.000Z</time>
      </trkpt>
      <trkpt lat="44.83752" lon="5.4019">
        <ele>1370.3</ele>
        <time>2017-10-17T08:35:29.000Z</time>
      </trkpt>
      <trkpt lat="44.83752" lon="5.40191">
        <ele>1370.18</ele>
        <time>2017-10-17T08:35:39.000Z</time>
      </trkpt>
      <trkpt lat="44.83753" lon="5.40191">
        <ele>1370.36</ele>
        <time>2017-10-17T08:35:49.000Z</time>
      </trkpt>
      <trkpt lat="44.83754" lon="5.4019">
        <ele>1370.66</ele>
        <time>2017-10-17T08:38:10.000Z</time>
      </trkpt>
      <trkpt lat="44.83765" lon="5.40185">
        <ele>1373.28</ele>
        <time>2017-10-17T08:38:20.000Z</time>
      </trkpt>
      <trkpt lat="44.83778" lon="5.40177">
        <ele>1377.49</ele>
        <time>2017-10-17T08:38:30.000Z</time>
      </trkpt>
      <trkpt lat="44.83783" lon="5.40172">
        <ele>1379.49</ele>
        <time>2017-10-17T08:38:40.000Z</time>
      </trkpt>
      <trkpt lat="44.83784" lon="5.40175">
        <ele>1379.5</ele>
        <time>2017-10-17T08:38:50.000Z</time>
      </trkpt>
      <trkpt lat="44.83785" lon="5.40172">
        <ele>1380.06</ele>
        <time>2017-10-17T08:39:10.000Z</time>
      </trkpt>
      <trkpt lat="44.83796" lon="5.40164">
        <ele>1383.97</ele>
        <time>2017-10-17T08:39:20.000Z</time>
      </trkpt>
      <trkpt lat="44.83801" lon="5.40158">
        <ele>1385.75</ele>
        <time>2017-10-17T08:39:30.000Z</time>
      </trkpt>
      <trkpt lat="44.83808" lon="5.40152">
        <ele>1388.12</ele>
        <time>2017-10-17T08:39:40.000Z</time>
      </trkpt>
      <trkpt lat="44.83813" lon="5.40144">
        <ele>1389.62</ele>
        <time>2017-10-17T08:39:50.000Z</time>
      </trkpt>
      <trkpt lat="44.83823" lon="5.40148">
        <ele>1393.08</ele>
        <time>2017-10-17T08:40:00.000Z</time>
      </trkpt>
      <trkpt lat="44.83821" lon="5.40139">
        <ele>1392.06</ele>
        <time>2017-10-17T08:40:10.000Z</time>
      </trkpt>
      <trkpt lat="44.83825" lon="5.40133">
        <ele>1392.94</ele>
        <time>2017-10-17T08:40:20.000Z</time>
      </trkpt>
      <trkpt lat="44.83826" lon="5.40134">
        <ele>1393.22</ele>
        <time>2017-10-17T08:40:35.000Z</time>
      </trkpt>
      <trkpt lat="44.83829" lon="5.40133">
        <ele>1394.39</ele>
        <time>2017-10-17T08:41:32.000Z</time>
      </trkpt>
      <trkpt lat="44.83846" lon="5.40127">
        <ele>1399.58</ele>
        <time>2017-10-17T08:41:42.000Z</time>
      </trkpt>
      <trkpt lat="44.83849" lon="5.40124">
        <ele>1400.63</ele>
        <time>2017-10-17T08:41:52.000Z</time>
      </trkpt>
      <trkpt lat="44.83851" lon="5.40124">
        <ele>1401.21</ele>
        <time>2017-10-17T08:42:02.000Z</time>
      </trkpt>
      <trkpt lat="44.83852" lon="5.40122">
        <ele>1401.16</ele>
        <time>2017-10-17T08:42:44.000Z</time>
      </trkpt>
      <trkpt lat="44.83891" lon="5.40097">
        <ele>1414.58</ele>
        <time>2017-10-17T08:42:54.000Z</time>
      </trkpt>
      <trkpt lat="44.83908" lon="5.40099">
        <ele>1421.03</ele>
        <time>2017-10-17T08:43:04.000Z</time>
      </trkpt>
      <trkpt lat="44.83912" lon="5.40087">
        <ele>1422.32</ele>
        <time>2017-10-17T08:43:14.000Z</time>
      </trkpt>
      <trkpt lat="44.8391" lon="5.40085">
        <ele>1421.64</ele>
        <time>2017-10-17T08:43:24.000Z</time>
      </trkpt>
      <trkpt lat="44.83909" lon="5.40084">
        <ele>1421.25</ele>
        <time>2017-10-17T08:43:44.000Z</time>
      </trkpt>
      <trkpt lat="44.83909" lon="5.40083">
        <ele>1420.95</ele>
        <time>2017-10-17T08:43:54.000Z</time>
      </trkpt>
      <trkpt lat="44.83909" lon="5.40082">
        <ele>1421.02</ele>
        <time>2017-10-17T08:46:19.000Z</time>
      </trkpt>
      <trkpt lat="44.83909" lon="5.4008">
        <ele>1420.98</ele>
        <time>2017-10-17T08:47:08.000Z</time>
      </trkpt>
      <trkpt lat="44.83909" lon="5.40079">
        <ele>1420.87</ele>
        <time>2017-10-17T08:47:42.000Z</time>
      </trkpt>
      <trkpt lat="44.83907" lon="5.40074">
        <ele>1420.05</ele>
        <time>2017-10-17T08:48:02.000Z</time>
      </trkpt>
      <trkpt lat="44.8394" lon="5.40046">
        <ele>1430.83</ele>
        <time>2017-10-17T08:48:12.000Z</time>
      </trkpt>
      <trkpt lat="44.84008" lon="5.39973">
        <ele>1446.36</ele>
        <time>2017-10-17T08:48:22.000Z</time>
      </trkpt>
      <trkpt lat="44.84013" lon="5.39973">
        <ele>1447.85</ele>
        <time>2017-10-17T08:48:32.000Z</time>
      </trkpt>
      <trkpt lat="44.84016" lon="5.3998">
        <ele>1447.84</ele>
        <time>2017-10-17T08:48:42.000Z</time>
      </trkpt>
      <trkpt lat="44.84021" lon="5.39988">
        <ele>1448.27</ele>
        <time>2017-10-17T08:48:52.000Z</time>
      </trkpt>
      <trkpt lat="44.84024" lon="5.39988">
        <ele>1449</ele>
        <time>2017-10-17T08:49:02.000Z</time>
      </trkpt>
      <trkpt lat="44.84027" lon="5.39986">
        <ele>1449.86</ele>
        <time>2017-10-17T08:49:12.000Z</time>
      </trkpt>
      <trkpt lat="44.84034" lon="5.39989">
        <ele>1450.93</ele>
        <time>2017-10-17T08:49:22.000Z</time>
      </trkpt>
      <trkpt lat="44.84038" lon="5.39989">
        <ele>1451.71</ele>
        <time>2017-10-17T08:49:32.000Z</time>
      </trkpt>
      <trkpt lat="44.84041" lon="5.39986">
        <ele>1452.58</ele>
        <time>2017-10-17T08:49:42.000Z</time>
      </trkpt>
      <trkpt lat="44.84038" lon="5.39997">
        <ele>1451.02</ele>
        <time>2017-10-17T08:49:52.000Z</time>
      </trkpt>
      <trkpt lat="44.84035" lon="5.39995">
        <ele>1450.63</ele>
        <time>2017-10-17T08:50:02.000Z</time>
      </trkpt>
      <trkpt lat="44.84037" lon="5.39994">
        <ele>1451.06</ele>
        <time>2017-10-17T08:50:12.000Z</time>
      </trkpt>
      <trkpt lat="44.84037" lon="5.39992">
        <ele>1451.2</ele>
        <time>2017-10-17T08:50:41.000Z</time>
      </trkpt>
      <trkpt lat="44.84035" lon="5.39992">
        <ele>1450.92</ele>
        <time>2017-10-17T08:54:25.000Z</time>
      </trkpt>
      <trkpt lat="44.84036" lon="5.39989">
        <ele>1451.48</ele>
        <time>2017-10-17T08:54:35.000Z</time>
      </trkpt>
      <trkpt lat="44.84034" lon="5.3998">
        <ele>1452.15</ele>
        <time>2017-10-17T08:54:45.000Z</time>
      </trkpt>
      <trkpt lat="44.84034" lon="5.39981">
        <ele>1451.83</ele>
        <time>2017-10-17T08:54:55.000Z</time>
      </trkpt>
      <trkpt lat="44.84035" lon="5.39983">
        <ele>1451.88</ele>
        <time>2017-10-17T08:55:10.000Z</time>
      </trkpt>
      <trkpt lat="44.84036" lon="5.39984">
        <ele>1451.96</ele>
        <time>2017-10-17T08:55:20.000Z</time>
      </trkpt>
      <trkpt lat="44.84038" lon="5.39983">
        <ele>1452.38</ele>
        <time>2017-10-17T08:56:41.000Z</time>
      </trkpt>
      <trkpt lat="44.84037" lon="5.39988">
        <ele>1451.7</ele>
        <time>2017-10-17T08:56:51.000Z</time>
      </trkpt>
      <trkpt lat="44.84037" lon="5.39987">
        <ele>1451.91</ele>
        <time>2017-10-17T08:57:22.000Z</time>
      </trkpt>
      <trkpt lat="44.84038" lon="5.39986">
        <ele>1452.14</ele>
        <time>2017-10-17T08:57:34.000Z</time>
      </trkpt>
      <trkpt lat="44.84037" lon="5.39985">
        <ele>1452.16</ele>
        <time>2017-10-17T08:58:46.000Z</time>
      </trkpt>
      <trkpt lat="44.84039" lon="5.39983">
        <ele>1452.61</ele>
        <time>2017-10-17T08:58:56.000Z</time>
      </trkpt>
      <trkpt lat="44.84048" lon="5.39981">
        <ele>1454.73</ele>
        <time>2017-10-17T08:59:06.000Z</time>
      </trkpt>
      <trkpt lat="44.84059" lon="5.3998">
        <ele>1456.66</ele>
        <time>2017-10-17T08:59:16.000Z</time>
      </trkpt>
      <trkpt lat="44.84064" lon="5.39972">
        <ele>1458.91</ele>
        <time>2017-10-17T08:59:26.000Z</time>
      </trkpt>
      <trkpt lat="44.8407" lon="5.39967">
        <ele>1460.68</ele>
        <time>2017-10-17T08:59:36.000Z</time>
      </trkpt>
      <trkpt lat="44.84076" lon="5.39965">
        <ele>1461.79</ele>
        <time>2017-10-17T08:59:46.000Z</time>
      </trkpt>
      <trkpt lat="44.84081" lon="5.39963">
        <ele>1462.43</ele>
        <time>2017-10-17T08:59:56.000Z</time>
      </trkpt>
      <trkpt lat="44.84086" lon="5.39953">
        <ele>1464.85</ele>
        <time>2017-10-17T09:00:06.000Z</time>
      </trkpt>
      <trkpt lat="44.84092" lon="5.3995">
        <ele>1465.58</ele>
        <time>2017-10-17T09:00:16.000Z</time>
      </trkpt>
      <trkpt lat="44.84096" lon="5.39936">
        <ele>1468.05</ele>
        <time>2017-10-17T09:00:26.000Z</time>
      </trkpt>
      <trkpt lat="44.84096" lon="5.39942">
        <ele>1466.85</ele>
        <time>2017-10-17T09:00:36.000Z</time>
      </trkpt>
      <trkpt lat="44.841" lon="5.39939">
        <ele>1467.29</ele>
        <time>2017-10-17T09:00:46.000Z</time>
      </trkpt>
      <trkpt lat="44.84104" lon="5.39936">
        <ele>1467.34</ele>
        <time>2017-10-17T09:00:56.000Z</time>
      </trkpt>
      <trkpt lat="44.84105" lon="5.3992">
        <ele>1469.65</ele>
        <time>2017-10-17T09:01:06.000Z</time>
      </trkpt>
      <trkpt lat="44.84108" lon="5.39927">
        <ele>1468.42</ele>
        <time>2017-10-17T09:01:16.000Z</time>
      </trkpt>
      <trkpt lat="44.84111" lon="5.39922">
        <ele>1468.71</ele>
        <time>2017-10-17T09:01:26.000Z</time>
      </trkpt>
      <trkpt lat="44.84115" lon="5.39912">
        <ele>1469.45</ele>
        <time>2017-10-17T09:01:36.000Z</time>
      </trkpt>
      <trkpt lat="44.84116" lon="5.39911">
        <ele>1469.49</ele>
        <time>2017-10-17T09:01:46.000Z</time>
      </trkpt>
      <trkpt lat="44.84117" lon="5.39909">
        <ele>1469.7</ele>
        <time>2017-10-17T09:01:57.000Z</time>
      </trkpt>
      <trkpt lat="44.84123" lon="5.39898">
        <ele>1470.96</ele>
        <time>2017-10-17T09:02:07.000Z</time>
      </trkpt>
      <trkpt lat="44.84133" lon="5.39893">
        <ele>1470.76</ele>
        <time>2017-10-17T09:02:17.000Z</time>
      </trkpt>
      <trkpt lat="44.84129" lon="5.399">
        <ele>1469.54</ele>
        <time>2017-10-17T09:02:27.000Z</time>
      </trkpt>
      <trkpt lat="44.8413" lon="5.39903">
        <ele>1469.02</ele>
        <time>2017-10-17T09:02:37.000Z</time>
      </trkpt>
      <trkpt lat="44.84136" lon="5.39902">
        <ele>1468.3</ele>
        <time>2017-10-17T09:02:47.000Z</time>
      </trkpt>
      <trkpt lat="44.84138" lon="5.39895">
        <ele>1469.53</ele>
        <time>2017-10-17T09:02:57.000Z</time>
      </trkpt>
      <trkpt lat="44.84145" lon="5.39887">
        <ele>1471</ele>
        <time>2017-10-17T09:03:07.000Z</time>
      </trkpt>
      <trkpt lat="44.8415" lon="5.39889">
        <ele>1469.95</ele>
        <time>2017-10-17T09:03:17.000Z</time>
      </trkpt>
      <trkpt lat="44.84153" lon="5.39883">
        <ele>1471.65</ele>
        <time>2017-10-17T09:03:27.000Z</time>
      </trkpt>
      <trkpt lat="44.84155" lon="5.39883">
        <ele>1471.44</ele>
        <time>2017-10-17T09:03:37.000Z</time>
      </trkpt>
      <trkpt lat="44.84158" lon="5.39881">
        <ele>1471.98</ele>
        <time>2017-10-17T09:04:17.000Z</time>
      </trkpt>
      <trkpt lat="44.84171" lon="5.39865">
        <ele>1477.38</ele>
        <time>2017-10-17T09:04:27.000Z</time>
      </trkpt>
      <trkpt lat="44.84178" lon="5.39856">
        <ele>1480.87</ele>
        <time>2017-10-17T09:04:37.000Z</time>
      </trkpt>
      <trkpt lat="44.84185" lon="5.3985">
        <ele>1483.36</ele>
        <time>2017-10-17T09:04:47.000Z</time>
      </trkpt>
      <trkpt lat="44.84191" lon="5.39851">
        <ele>1484.01</ele>
        <time>2017-10-17T09:04:57.000Z</time>
      </trkpt>
      <trkpt lat="44.84197" lon="5.39843">
        <ele>1487.06</ele>
        <time>2017-10-17T09:05:07.000Z</time>
      </trkpt>
      <trkpt lat="44.84197" lon="5.39837">
        <ele>1488.36</ele>
        <time>2017-10-17T09:05:17.000Z</time>
      </trkpt>
      <trkpt lat="44.84202" lon="5.39839">
        <ele>1488.82</ele>
        <time>2017-10-17T09:05:27.000Z</time>
      </trkpt>
      <trkpt lat="44.84207" lon="5.39828">
        <ele>1491.64</ele>
        <time>2017-10-17T09:05:37.000Z</time>
      </trkpt>
      <trkpt lat="44.84214" lon="5.39832">
        <ele>1492.29</ele>
        <time>2017-10-17T09:05:47.000Z</time>
      </trkpt>
      <trkpt lat="44.84219" lon="5.39816">
        <ele>1496.4</ele>
        <time>2017-10-17T09:05:57.000Z</time>
      </trkpt>
      <trkpt lat="44.84223" lon="5.39824">
        <ele>1495.56</ele>
        <time>2017-10-17T09:06:07.000Z</time>
      </trkpt>
      <trkpt lat="44.84222" lon="5.39826">
        <ele>1494.89</ele>
        <time>2017-10-17T09:06:17.000Z</time>
      </trkpt>
      <trkpt lat="44.84223" lon="5.39824">
        <ele>1495.45</ele>
        <time>2017-10-17T09:06:27.000Z</time>
      </trkpt>
      <trkpt lat="44.84225" lon="5.39824">
        <ele>1495.91</ele>
        <time>2017-10-17T09:07:41.000Z</time>
      </trkpt>
      <trkpt lat="44.84237" lon="5.39817">
        <ele>1499.64</ele>
        <time>2017-10-17T09:07:51.000Z</time>
      </trkpt>
      <trkpt lat="44.84246" lon="5.39813">
        <ele>1502.14</ele>
        <time>2017-10-17T09:08:01.000Z</time>
      </trkpt>
      <trkpt lat="44.84252" lon="5.39813">
        <ele>1503.09</ele>
        <time>2017-10-17T09:08:11.000Z</time>
      </trkpt>
      <trkpt lat="44.84262" lon="5.3981">
        <ele>1505.03</ele>
        <time>2017-10-17T09:08:21.000Z</time>
      </trkpt>
      <trkpt lat="44.84268" lon="5.39804">
        <ele>1507.42</ele>
        <time>2017-10-17T09:08:31.000Z</time>
      </trkpt>
      <trkpt lat="44.84272" lon="5.398">
        <ele>1509.04</ele>
        <time>2017-10-17T09:08:41.000Z</time>
      </trkpt>
      <trkpt lat="44.84277" lon="5.39797">
        <ele>1510.25</ele>
        <time>2017-10-17T09:08:51.000Z</time>
      </trkpt>
      <trkpt lat="44.84281" lon="5.39797">
        <ele>1510.58</ele>
        <time>2017-10-17T09:09:01.000Z</time>
      </trkpt>
      <trkpt lat="44.8428" lon="5.39798">
        <ele>1509.95</ele>
        <time>2017-10-17T09:09:11.000Z</time>
      </trkpt>
      <trkpt lat="44.84281" lon="5.39797">
        <ele>1510.51</ele>
        <time>2017-10-17T09:09:39.000Z</time>
      </trkpt>
      <trkpt lat="44.8429" lon="5.39787">
        <ele>1514.07</ele>
        <time>2017-10-17T09:09:49.000Z</time>
      </trkpt>
      <trkpt lat="44.84297" lon="5.39781">
        <ele>1516.16</ele>
        <time>2017-10-17T09:09:59.000Z</time>
      </trkpt>
      <trkpt lat="44.84306" lon="5.39771">
        <ele>1519.2</ele>
        <time>2017-10-17T09:10:09.000Z</time>
      </trkpt>
      <trkpt lat="44.84312" lon="5.39768">
        <ele>1520.25</ele>
        <time>2017-10-17T09:10:19.000Z</time>
      </trkpt>
      <trkpt lat="44.84318" lon="5.39768">
        <ele>1520.6</ele>
        <time>2017-10-17T09:10:29.000Z</time>
      </trkpt>
      <trkpt lat="44.84321" lon="5.39763">
        <ele>1522.23</ele>
        <time>2017-10-17T09:10:39.000Z</time>
      </trkpt>
      <trkpt lat="44.84324" lon="5.39764">
        <ele>1522.15</ele>
        <time>2017-10-17T09:10:49.000Z</time>
      </trkpt>
      <trkpt lat="44.84328" lon="5.39761">
        <ele>1523.32</ele>
        <time>2017-10-17T09:10:59.000Z</time>
      </trkpt>
      <trkpt lat="44.84338" lon="5.39749">
        <ele>1527.83</ele>
        <time>2017-10-17T09:11:09.000Z</time>
      </trkpt>
      <trkpt lat="44.84341" lon="5.39751">
        <ele>1527.72</ele>
        <time>2017-10-17T09:11:20.000Z</time>
      </trkpt>
      <trkpt lat="44.84343" lon="5.39755">
        <ele>1526.56</ele>
        <time>2017-10-17T09:11:30.000Z</time>
      </trkpt>
      <trkpt lat="44.84353" lon="5.39751">
        <ele>1528.86</ele>
        <time>2017-10-17T09:11:40.000Z</time>
      </trkpt>
      <trkpt lat="44.84348" lon="5.39754">
        <ele>1527.38</ele>
        <time>2017-10-17T09:11:50.000Z</time>
      </trkpt>
      <trkpt lat="44.84352" lon="5.39747">
        <ele>1530.19</ele>
        <time>2017-10-17T09:12:00.000Z</time>
      </trkpt>
      <trkpt lat="44.84359" lon="5.39741">
        <ele>1533.12</ele>
        <time>2017-10-17T09:12:10.000Z</time>
      </trkpt>
      <trkpt lat="44.84361" lon="5.39742">
        <ele>1533</ele>
        <time>2017-10-17T09:12:20.000Z</time>
      </trkpt>
      <trkpt lat="44.84362" lon="5.39744">
        <ele>1532.36</ele>
        <time>2017-10-17T09:12:30.000Z</time>
      </trkpt>
      <trkpt lat="44.84358" lon="5.39778">
        <ele>1520.28</ele>
        <time>2017-10-17T09:12:40.000Z</time>
      </trkpt>
      <trkpt lat="44.84358" lon="5.39759">
        <ele>1526.64</ele>
        <time>2017-10-17T09:12:50.000Z</time>
      </trkpt>
      <trkpt lat="44.84362" lon="5.39756">
        <ele>1528.26</ele>
        <time>2017-10-17T09:13:00.000Z</time>
      </trkpt>
      <trkpt lat="44.84361" lon="5.39754">
        <ele>1528.68</ele>
        <time>2017-10-17T09:13:10.000Z</time>
      </trkpt>
      <trkpt lat="44.84363" lon="5.39753">
        <ele>1529.26</ele>
        <time>2017-10-17T09:14:20.000Z</time>
      </trkpt>
      <trkpt lat="44.84373" lon="5.39729">
        <ele>1539.87</ele>
        <time>2017-10-17T09:14:30.000Z</time>
      </trkpt>
      <trkpt lat="44.84377" lon="5.39736">
        <ele>1537.17</ele>
        <time>2017-10-17T09:14:40.000Z</time>
      </trkpt>
      <trkpt lat="44.84378" lon="5.39734">
        <ele>1537.96</ele>
        <time>2017-10-17T09:14:50.000Z</time>
      </trkpt>
      <trkpt lat="44.84379" lon="5.39732">
        <ele>1538.91</ele>
        <time>2017-10-17T09:16:09.000Z</time>
      </trkpt>
      <trkpt lat="44.84389" lon="5.39716">
        <ele>1547.43</ele>
        <time>2017-10-17T09:16:19.000Z</time>
      </trkpt>
      <trkpt lat="44.84395" lon="5.39711">
        <ele>1550.6</ele>
        <time>2017-10-17T09:16:29.000Z</time>
      </trkpt>
      <trkpt lat="44.84401" lon="5.39702">
        <ele>1555.26</ele>
        <time>2017-10-17T09:16:41.000Z</time>
      </trkpt>
      <trkpt lat="44.84411" lon="5.39699">
        <ele>1557.69</ele>
        <time>2017-10-17T09:16:51.000Z</time>
      </trkpt>
      <trkpt lat="44.84413" lon="5.39695">
        <ele>1559.7</ele>
        <time>2017-10-17T09:17:01.000Z</time>
      </trkpt>
      <trkpt lat="44.84418" lon="5.39688">
        <ele>1563.14</ele>
        <time>2017-10-17T09:17:11.000Z</time>
      </trkpt>
      <trkpt lat="44.84422" lon="5.39686">
        <ele>1564.65</ele>
        <time>2017-10-17T09:17:21.000Z</time>
      </trkpt>
      <trkpt lat="44.84422" lon="5.39688">
        <ele>1563.67</ele>
        <time>2017-10-17T09:17:31.000Z</time>
      </trkpt>
      <trkpt lat="44.84423" lon="5.39689">
        <ele>1563.4</ele>
        <time>2017-10-17T09:17:41.000Z</time>
      </trkpt>
      <trkpt lat="44.84425" lon="5.39687">
        <ele>1564.07</ele>
        <time>2017-10-17T09:18:40.000Z</time>
      </trkpt>
      <trkpt lat="44.84441" lon="5.39664">
        <ele>1572.98</ele>
        <time>2017-10-17T09:18:50.000Z</time>
      </trkpt>
      <trkpt lat="44.84455" lon="5.39655">
        <ele>1575.67</ele>
        <time>2017-10-17T09:19:00.000Z</time>
      </trkpt>
      <trkpt lat="44.84462" lon="5.39646">
        <ele>1578.5</ele>
        <time>2017-10-17T09:19:10.000Z</time>
      </trkpt>
      <trkpt lat="44.8447" lon="5.39642">
        <ele>1579.71</ele>
        <time>2017-10-17T09:19:20.000Z</time>
      </trkpt>
      <trkpt lat="44.84475" lon="5.39634">
        <ele>1582.44</ele>
        <time>2017-10-17T09:19:30.000Z</time>
      </trkpt>
      <trkpt lat="44.84473" lon="5.39635">
        <ele>1582.18</ele>
        <time>2017-10-17T09:19:40.000Z</time>
      </trkpt>
      <trkpt lat="44.84471" lon="5.39636">
        <ele>1581.88</ele>
        <time>2017-10-17T09:19:50.000Z</time>
      </trkpt>
      <trkpt lat="44.84472" lon="5.39636">
        <ele>1581.97</ele>
        <time>2017-10-17T09:20:33.000Z</time>
      </trkpt>
      <trkpt lat="44.84491" lon="5.39629">
        <ele>1584.13</ele>
        <time>2017-10-17T09:20:43.000Z</time>
      </trkpt>
      <trkpt lat="44.84495" lon="5.39627">
        <ele>1584.97</ele>
        <time>2017-10-17T09:20:53.000Z</time>
      </trkpt>
      <trkpt lat="44.84497" lon="5.39624">
        <ele>1585.96</ele>
        <time>2017-10-17T09:21:03.000Z</time>
      </trkpt>
      <trkpt lat="44.84499" lon="5.39624">
        <ele>1585.95</ele>
        <time>2017-10-17T09:21:13.000Z</time>
      </trkpt>
      <trkpt lat="44.84499" lon="5.39623">
        <ele>1586.55</ele>
        <time>2017-10-17T09:21:35.000Z</time>
      </trkpt>
      <trkpt lat="44.845" lon="5.39618">
        <ele>1588.71</ele>
        <time>2017-10-17T09:25:37.000Z</time>
      </trkpt>
      <trkpt lat="44.84515" lon="5.39591">
        <ele>1598.24</ele>
        <time>2017-10-17T09:25:47.000Z</time>
      </trkpt>
      <trkpt lat="44.84529" lon="5.39572">
        <ele>1602.77</ele>
        <time>2017-10-17T09:25:57.000Z</time>
      </trkpt>
      <trkpt lat="44.84537" lon="5.39561">
        <ele>1605.56</ele>
        <time>2017-10-17T09:26:07.000Z</time>
      </trkpt>
      <trkpt lat="44.84545" lon="5.39562">
        <ele>1604.03</ele>
        <time>2017-10-17T09:26:17.000Z</time>
      </trkpt>
      <trkpt lat="44.84546" lon="5.39563">
        <ele>1603.63</ele>
        <time>2017-10-17T09:26:27.000Z</time>
      </trkpt>
      <trkpt lat="44.84547" lon="5.39562">
        <ele>1603.73</ele>
        <time>2017-10-17T09:26:37.000Z</time>
      </trkpt>
      <trkpt lat="44.84555" lon="5.3955">
        <ele>1607.62</ele>
        <time>2017-10-17T09:26:47.000Z</time>
      </trkpt>
      <trkpt lat="44.8456" lon="5.39542">
        <ele>1610.35</ele>
        <time>2017-10-17T09:26:57.000Z</time>
      </trkpt>
      <trkpt lat="44.84565" lon="5.39535">
        <ele>1613.07</ele>
        <time>2017-10-17T09:27:07.000Z</time>
      </trkpt>
      <trkpt lat="44.84566" lon="5.39526">
        <ele>1616.46</ele>
        <time>2017-10-17T09:27:17.000Z</time>
      </trkpt>
      <trkpt lat="44.84568" lon="5.39533">
        <ele>1613.49</ele>
        <time>2017-10-17T09:27:27.000Z</time>
      </trkpt>
      <trkpt lat="44.8458" lon="5.39515">
        <ele>1620.56</ele>
        <time>2017-10-17T09:27:37.000Z</time>
      </trkpt>
      <trkpt lat="44.8458" lon="5.39553">
        <ele>1603.61</ele>
        <time>2017-10-17T09:27:47.000Z</time>
      </trkpt>
      <trkpt lat="44.84571" lon="5.39529">
        <ele>1615.1</ele>
        <time>2017-10-17T09:27:57.000Z</time>
      </trkpt>
      <trkpt lat="44.84571" lon="5.39532">
        <ele>1613.93</ele>
        <time>2017-10-17T09:28:07.000Z</time>
      </trkpt>
      <trkpt lat="44.84572" lon="5.39533">
        <ele>1613.41</ele>
        <time>2017-10-17T09:28:24.000Z</time>
      </trkpt>
      <trkpt lat="44.84574" lon="5.39531">
        <ele>1614.16</ele>
        <time>2017-10-17T09:29:09.000Z</time>
      </trkpt>
      <trkpt lat="44.84582" lon="5.39518">
        <ele>1619.25</ele>
        <time>2017-10-17T09:29:19.000Z</time>
      </trkpt>
      <trkpt lat="44.84592" lon="5.39514">
        <ele>1620.7</ele>
        <time>2017-10-17T09:29:29.000Z</time>
      </trkpt>
      <trkpt lat="44.8459" lon="5.395">
        <ele>1625</ele>
        <time>2017-10-17T09:29:39.000Z</time>
      </trkpt>
      <trkpt lat="44.84598" lon="5.39504">
        <ele>1623.48</ele>
        <time>2017-10-17T09:29:49.000Z</time>
      </trkpt>
      <trkpt lat="44.84608" lon="5.395">
        <ele>1623.75</ele>
        <time>2017-10-17T09:29:59.000Z</time>
      </trkpt>
      <trkpt lat="44.84598" lon="5.39502">
        <ele>1624.11</ele>
        <time>2017-10-17T09:30:09.000Z</time>
      </trkpt>
      <trkpt lat="44.846" lon="5.39496">
        <ele>1625.68</ele>
        <time>2017-10-17T09:30:19.000Z</time>
      </trkpt>
      <trkpt lat="44.846" lon="5.39495">
        <ele>1625.93</ele>
        <time>2017-10-17T09:30:29.000Z</time>
      </trkpt>
      <trkpt lat="44.84599" lon="5.39499">
        <ele>1624.91</ele>
        <time>2017-10-17T09:30:54.000Z</time>
      </trkpt>
      <trkpt lat="44.84604" lon="5.3948">
        <ele>1628.91</ele>
        <time>2017-10-17T09:31:04.000Z</time>
      </trkpt>
      <trkpt lat="44.8461" lon="5.39467">
        <ele>1631.09</ele>
        <time>2017-10-17T09:31:14.000Z</time>
      </trkpt>
      <trkpt lat="44.8461" lon="5.3946">
        <ele>1632.18</ele>
        <time>2017-10-17T09:31:24.000Z</time>
      </trkpt>
      <trkpt lat="44.84602" lon="5.39463">
        <ele>1631.97</ele>
        <time>2017-10-17T09:31:34.000Z</time>
      </trkpt>
      <trkpt lat="44.84595" lon="5.39467">
        <ele>1631.37</ele>
        <time>2017-10-17T09:31:44.000Z</time>
      </trkpt>
      <trkpt lat="44.84591" lon="5.39452">
        <ele>1632.72</ele>
        <time>2017-10-17T09:31:54.000Z</time>
      </trkpt>
      <trkpt lat="44.84587" lon="5.3945">
        <ele>1632.43</ele>
        <time>2017-10-17T09:32:04.000Z</time>
      </trkpt>
      <trkpt lat="44.84582" lon="5.39445">
        <ele>1631.8</ele>
        <time>2017-10-17T09:32:14.000Z</time>
      </trkpt>
      <trkpt lat="44.84585" lon="5.39442">
        <ele>1632.39</ele>
        <time>2017-10-17T09:32:24.000Z</time>
      </trkpt>
      <trkpt lat="44.84574" lon="5.39444">
        <ele>1630.31</ele>
        <time>2017-10-17T09:32:34.000Z</time>
      </trkpt>
      <trkpt lat="44.84581" lon="5.39434">
        <ele>1631.48</ele>
        <time>2017-10-17T09:32:44.000Z</time>
      </trkpt>
      <trkpt lat="44.84583" lon="5.39438">
        <ele>1632.09</ele>
        <time>2017-10-17T09:32:54.000Z</time>
      </trkpt>
      <trkpt lat="44.84583" lon="5.39426">
        <ele>1631.59</ele>
        <time>2017-10-17T09:33:04.000Z</time>
      </trkpt>
      <trkpt lat="44.84587" lon="5.3943">
        <ele>1632.53</ele>
        <time>2017-10-17T09:33:14.000Z</time>
      </trkpt>
      <trkpt lat="44.84594" lon="5.39438">
        <ele>1633.54</ele>
        <time>2017-10-17T09:33:24.000Z</time>
      </trkpt>
      <trkpt lat="44.84591" lon="5.3943">
        <ele>1633.17</ele>
        <time>2017-10-17T09:33:34.000Z</time>
      </trkpt>
      <trkpt lat="44.84593" lon="5.39425">
        <ele>1633.27</ele>
        <time>2017-10-17T09:34:53.000Z</time>
      </trkpt>
      <trkpt lat="44.84597" lon="5.39417">
        <ele>1633.31</ele>
        <time>2017-10-17T09:35:03.000Z</time>
      </trkpt>
      <trkpt lat="44.84595" lon="5.39416">
        <ele>1632.99</ele>
        <time>2017-10-17T09:35:13.000Z</time>
      </trkpt>
      <trkpt lat="44.84591" lon="5.39426">
        <ele>1632.97</ele>
        <time>2017-10-17T09:35:23.000Z</time>
      </trkpt>
      <trkpt lat="44.84593" lon="5.39427">
        <ele>1633.34</ele>
        <time>2017-10-17T09:35:33.000Z</time>
      </trkpt>
      <trkpt lat="44.84593" lon="5.39428">
        <ele>1633.35</ele>
        <time>2017-10-17T09:35:43.000Z</time>
      </trkpt>
      <trkpt lat="44.84594" lon="5.39427">
        <ele>1633.41</ele>
        <time>2017-10-17T09:36:12.000Z</time>
      </trkpt>
      <trkpt lat="44.84595" lon="5.39427">
        <ele>1633.61</ele>
        <time>2017-10-17T09:36:22.000Z</time>
      </trkpt>
      <trkpt lat="44.84593" lon="5.39428">
        <ele>1633.43</ele>
        <time>2017-10-17T09:41:12.000Z</time>
      </trkpt>
      <trkpt lat="44.84589" lon="5.39431">
        <ele>1632.81</ele>
        <time>2017-10-17T09:41:22.000Z</time>
      </trkpt>
      <trkpt lat="44.8459" lon="5.39432">
        <ele>1633.03</ele>
        <time>2017-10-17T09:41:44.000Z</time>
      </trkpt>
      <trkpt lat="44.84591" lon="5.39434">
        <ele>1633.16</ele>
        <time>2017-10-17T09:41:54.000Z</time>
      </trkpt>
      <trkpt lat="44.84593" lon="5.39434">
        <ele>1633.5</ele>
        <time>2017-10-17T09:42:33.000Z</time>
      </trkpt>
      <trkpt lat="44.84595" lon="5.39434">
        <ele>1633.68</ele>
        <time>2017-10-17T09:42:43.000Z</time>
      </trkpt>
      <trkpt lat="44.84594" lon="5.39434">
        <ele>1633.58</ele>
        <time>2017-10-17T09:43:57.000Z</time>
      </trkpt>
      <trkpt lat="44.84594" lon="5.39433">
        <ele>1633.53</ele>
        <time>2017-10-17T09:44:08.000Z</time>
      </trkpt>
      <trkpt lat="44.8459" lon="5.39435">
        <ele>1633.04</ele>
        <time>2017-10-17T09:44:18.000Z</time>
      </trkpt>
      <trkpt lat="44.84589" lon="5.39435">
        <ele>1632.89</ele>
        <time>2017-10-17T09:44:28.000Z</time>
      </trkpt>
      <trkpt lat="44.84586" lon="5.39436">
        <ele>1632.44</ele>
        <time>2017-10-17T09:44:38.000Z</time>
      </trkpt>
      <trkpt lat="44.84585" lon="5.39437">
        <ele>1632.41</ele>
        <time>2017-10-17T09:44:48.000Z</time>
      </trkpt>
      <trkpt lat="44.84585" lon="5.39432">
        <ele>1632.27</ele>
        <time>2017-10-17T09:44:58.000Z</time>
      </trkpt>
      <trkpt lat="44.84585" lon="5.3943">
        <ele>1632.1</ele>
        <time>2017-10-17T09:45:20.000Z</time>
      </trkpt>
      <trkpt lat="44.84583" lon="5.39431">
        <ele>1631.85</ele>
        <time>2017-10-17T09:45:30.000Z</time>
      </trkpt>
      <trkpt lat="44.84584" lon="5.39431">
        <ele>1632.03</ele>
        <time>2017-10-17T09:45:40.000Z</time>
      </trkpt>
      <trkpt lat="44.84585" lon="5.39432">
        <ele>1632.28</ele>
        <time>2017-10-17T09:47:34.000Z</time>
      </trkpt>
      <trkpt lat="44.84585" lon="5.39431">
        <ele>1632.14</ele>
        <time>2017-10-17T09:47:49.000Z</time>
      </trkpt>
      <trkpt lat="44.84583" lon="5.39431">
        <ele>1631.84</ele>
        <time>2017-10-17T09:48:49.000Z</time>
      </trkpt>
      <trkpt lat="44.84578" lon="5.3943">
        <ele>1630.85</ele>
        <time>2017-10-17T09:48:59.000Z</time>
      </trkpt>
      <trkpt lat="44.84579" lon="5.3943">
        <ele>1631.02</ele>
        <time>2017-10-17T09:49:12.000Z</time>
      </trkpt>
      <trkpt lat="44.8458" lon="5.39431">
        <ele>1631.21</ele>
        <time>2017-10-17T09:51:00.000Z</time>
      </trkpt>
      <trkpt lat="44.84588" lon="5.39431">
        <ele>1632.69</ele>
        <time>2017-10-17T09:51:10.000Z</time>
      </trkpt>
      <trkpt lat="44.84589" lon="5.3943">
        <ele>1632.81</ele>
        <time>2017-10-17T09:51:52.000Z</time>
      </trkpt>
      <trkpt lat="44.84586" lon="5.39429">
        <ele>1632.34</ele>
        <time>2017-10-17T09:52:02.000Z</time>
      </trkpt>
      <trkpt lat="44.84586" lon="5.39431">
        <ele>1632.42</ele>
        <time>2017-10-17T09:52:12.000Z</time>
      </trkpt>
      <trkpt lat="44.84588" lon="5.39432">
        <ele>1632.76</ele>
        <time>2017-10-17T09:52:22.000Z</time>
      </trkpt>
      <trkpt lat="44.84587" lon="5.39431">
        <ele>1632.62</ele>
        <time>2017-10-17T09:52:33.000Z</time>
      </trkpt>
      <trkpt lat="44.84588" lon="5.3943">
        <ele>1632.7</ele>
        <time>2017-10-17T09:53:04.000Z</time>
      </trkpt>
      <trkpt lat="44.84587" lon="5.3943">
        <ele>1632.58</ele>
        <time>2017-10-17T09:53:22.000Z</time>
      </trkpt>
      <trkpt lat="44.84587" lon="5.39432">
        <ele>1632.62</ele>
        <time>2017-10-17T09:53:32.000Z</time>
      </trkpt>
      <trkpt lat="44.84587" lon="5.39429">
        <ele>1632.56</ele>
        <time>2017-10-17T09:54:31.000Z</time>
      </trkpt>
      <trkpt lat="44.84585" lon="5.39415">
        <ele>1631.23</ele>
        <time>2017-10-17T09:54:41.000Z</time>
      </trkpt>
      <trkpt lat="44.84581" lon="5.39407">
        <ele>1629.19</ele>
        <time>2017-10-17T09:54:51.000Z</time>
      </trkpt>
      <trkpt lat="44.84579" lon="5.39407">
        <ele>1628.76</ele>
        <time>2017-10-17T09:55:02.000Z</time>
      </trkpt>
      <trkpt lat="44.84577" lon="5.39409">
        <ele>1628.54</ele>
        <time>2017-10-17T09:55:12.000Z</time>
      </trkpt>
      <trkpt lat="44.84578" lon="5.39406">
        <ele>1628.3</ele>
        <time>2017-10-17T09:55:43.000Z</time>
      </trkpt>
      <trkpt lat="44.84572" lon="5.39389">
        <ele>1622.96</ele>
        <time>2017-10-17T09:55:53.000Z</time>
      </trkpt>
      <trkpt lat="44.8457" lon="5.39389">
        <ele>1622.27</ele>
        <time>2017-10-17T09:56:03.000Z</time>
      </trkpt>
      <trkpt lat="44.84567" lon="5.39387">
        <ele>1621.1</ele>
        <time>2017-10-17T09:56:23.000Z</time>
      </trkpt>
      <trkpt lat="44.84564" lon="5.39382">
        <ele>1618.76</ele>
        <time>2017-10-17T09:56:33.000Z</time>
      </trkpt>
      <trkpt lat="44.8456" lon="5.39375">
        <ele>1615.03</ele>
        <time>2017-10-17T09:57:12.000Z</time>
      </trkpt>
      <trkpt lat="44.84558" lon="5.39354">
        <ele>1608.12</ele>
        <time>2017-10-17T09:57:22.000Z</time>
      </trkpt>
      <trkpt lat="44.84557" lon="5.39342">
        <ele>1603.82</ele>
        <time>2017-10-17T09:57:32.000Z</time>
      </trkpt>
      <trkpt lat="44.84565" lon="5.39338">
        <ele>1605.5</ele>
        <time>2017-10-17T09:57:42.000Z</time>
      </trkpt>
      <trkpt lat="44.84572" lon="5.39331">
        <ele>1605.87</ele>
        <time>2017-10-17T09:57:52.000Z</time>
      </trkpt>
      <trkpt lat="44.84577" lon="5.39323">
        <ele>1604.87</ele>
        <time>2017-10-17T09:58:02.000Z</time>
      </trkpt>
      <trkpt lat="44.84583" lon="5.39325">
        <ele>1607.07</ele>
        <time>2017-10-17T09:58:12.000Z</time>
      </trkpt>
      <trkpt lat="44.84589" lon="5.39315">
        <ele>1605.22</ele>
        <time>2017-10-17T09:58:22.000Z</time>
      </trkpt>
      <trkpt lat="44.84588" lon="5.39317">
        <ele>1605.47</ele>
        <time>2017-10-17T09:58:32.000Z</time>
      </trkpt>
      <trkpt lat="44.84588" lon="5.39318">
        <ele>1605.82</ele>
        <time>2017-10-17T09:58:54.000Z</time>
      </trkpt>
      <trkpt lat="44.84581" lon="5.3931">
        <ele>1601.48</ele>
        <time>2017-10-17T09:59:04.000Z</time>
      </trkpt>
      <trkpt lat="44.84575" lon="5.39281">
        <ele>1589.25</ele>
        <time>2017-10-17T09:59:14.000Z</time>
      </trkpt>
      <trkpt lat="44.84571" lon="5.39269">
        <ele>1584.3</ele>
        <time>2017-10-17T09:59:24.000Z</time>
      </trkpt>
      <trkpt lat="44.84571" lon="5.39263">
        <ele>1581.95</ele>
        <time>2017-10-17T09:59:34.000Z</time>
      </trkpt>
      <trkpt lat="44.84571" lon="5.39262">
        <ele>1581.49</ele>
        <time>2017-10-17T09:59:44.000Z</time>
      </trkpt>
      <trkpt lat="44.8457" lon="5.3926">
        <ele>1580.52</ele>
        <time>2017-10-17T10:00:27.000Z</time>
      </trkpt>
      <trkpt lat="44.84569" lon="5.39243">
        <ele>1574.1</ele>
        <time>2017-10-17T10:00:37.000Z</time>
      </trkpt>
      <trkpt lat="44.84561" lon="5.39233">
        <ele>1569.28</ele>
        <time>2017-10-17T10:00:47.000Z</time>
      </trkpt>
      <trkpt lat="44.84558" lon="5.39225">
        <ele>1566.04</ele>
        <time>2017-10-17T10:00:57.000Z</time>
      </trkpt>
      <trkpt lat="44.84556" lon="5.39216">
        <ele>1562.29</ele>
        <time>2017-10-17T10:01:07.000Z</time>
      </trkpt>
      <trkpt lat="44.84554" lon="5.39208">
        <ele>1558.67</ele>
        <time>2017-10-17T10:01:17.000Z</time>
      </trkpt>
      <trkpt lat="44.84549" lon="5.39205">
        <ele>1556.55</ele>
        <time>2017-10-17T10:01:27.000Z</time>
      </trkpt>
      <trkpt lat="44.84551" lon="5.392">
        <ele>1555.22</ele>
        <time>2017-10-17T10:01:37.000Z</time>
      </trkpt>
      <trkpt lat="44.8455" lon="5.39202">
        <ele>1555.61</ele>
        <time>2017-10-17T10:01:47.000Z</time>
      </trkpt>
      <trkpt lat="44.84548" lon="5.392">
        <ele>1554.74</ele>
        <time>2017-10-17T10:02:06.000Z</time>
      </trkpt>
      <trkpt lat="44.84538" lon="5.39192">
        <ele>1549.92</ele>
        <time>2017-10-17T10:02:16.000Z</time>
      </trkpt>
      <trkpt lat="44.84538" lon="5.39189">
        <ele>1548.62</ele>
        <time>2017-10-17T10:02:26.000Z</time>
      </trkpt>
      <trkpt lat="44.84537" lon="5.39188">
        <ele>1548.1</ele>
        <time>2017-10-17T10:02:36.000Z</time>
      </trkpt>
      <trkpt lat="44.84531" lon="5.39182">
        <ele>1544.6</ele>
        <time>2017-10-17T10:02:46.000Z</time>
      </trkpt>
      <trkpt lat="44.84527" lon="5.39178">
        <ele>1542.37</ele>
        <time>2017-10-17T10:02:56.000Z</time>
      </trkpt>
      <trkpt lat="44.84525" lon="5.39177">
        <ele>1541.81</ele>
        <time>2017-10-17T10:03:06.000Z</time>
      </trkpt>
      <trkpt lat="44.84519" lon="5.39176">
        <ele>1539.95</ele>
        <time>2017-10-17T10:03:16.000Z</time>
      </trkpt>
      <trkpt lat="44.84505" lon="5.39173">
        <ele>1535.23</ele>
        <time>2017-10-17T10:03:26.000Z</time>
      </trkpt>
      <trkpt lat="44.84495" lon="5.39167">
        <ele>1530.5</ele>
        <time>2017-10-17T10:03:36.000Z</time>
      </trkpt>
      <trkpt lat="44.84485" lon="5.39166">
        <ele>1526.64</ele>
        <time>2017-10-17T10:03:46.000Z</time>
      </trkpt>
      <trkpt lat="44.84476" lon="5.39166">
        <ele>1522.96</ele>
        <time>2017-10-17T10:03:56.000Z</time>
      </trkpt>
      <trkpt lat="44.84471" lon="5.39162">
        <ele>1520.16</ele>
        <time>2017-10-17T10:04:06.000Z</time>
      </trkpt>
      <trkpt lat="44.84468" lon="5.39165">
        <ele>1519.67</ele>
        <time>2017-10-17T10:04:16.000Z</time>
      </trkpt>
      <trkpt lat="44.84472" lon="5.39166">
        <ele>1521.42</ele>
        <time>2017-10-17T10:04:26.000Z</time>
      </trkpt>
      <trkpt lat="44.84469" lon="5.39166">
        <ele>1520.11</ele>
        <time>2017-10-17T10:04:36.000Z</time>
      </trkpt>
      <trkpt lat="44.84468" lon="5.39164">
        <ele>1519.54</ele>
        <time>2017-10-17T10:04:52.000Z</time>
      </trkpt>
      <trkpt lat="44.8446" lon="5.39149">
        <ele>1514.86</ele>
        <time>2017-10-17T10:05:02.000Z</time>
      </trkpt>
      <trkpt lat="44.8446" lon="5.39144">
        <ele>1514.46</ele>
        <time>2017-10-17T10:05:12.000Z</time>
      </trkpt>
      <trkpt lat="44.84459" lon="5.39142">
        <ele>1513.97</ele>
        <time>2017-10-17T10:05:37.000Z</time>
      </trkpt>
      <trkpt lat="44.84444" lon="5.39127">
        <ele>1509.12</ele>
        <time>2017-10-17T10:05:47.000Z</time>
      </trkpt>
      <trkpt lat="44.8444" lon="5.39124">
        <ele>1508.33</ele>
        <time>2017-10-17T10:05:57.000Z</time>
      </trkpt>
      <trkpt lat="44.84442" lon="5.39125">
        <ele>1508.78</ele>
        <time>2017-10-17T10:06:07.000Z</time>
      </trkpt>
      <trkpt lat="44.84442" lon="5.39127">
        <ele>1508.63</ele>
        <time>2017-10-17T10:06:17.000Z</time>
      </trkpt>
      <trkpt lat="44.84439" lon="5.39124">
        <ele>1508.06</ele>
        <time>2017-10-17T10:06:41.000Z</time>
      </trkpt>
      <trkpt lat="44.8443" lon="5.39104">
        <ele>1506.78</ele>
        <time>2017-10-17T10:06:51.000Z</time>
      </trkpt>
      <trkpt lat="44.84427" lon="5.39097">
        <ele>1506.22</ele>
        <time>2017-10-17T10:07:01.000Z</time>
      </trkpt>
      <trkpt lat="44.84424" lon="5.39098">
        <ele>1505.73</ele>
        <time>2017-10-17T10:07:11.000Z</time>
      </trkpt>
      <trkpt lat="44.84422" lon="5.39097">
        <ele>1505.29</ele>
        <time>2017-10-17T10:08:25.000Z</time>
      </trkpt>
      <trkpt lat="44.84422" lon="5.39093">
        <ele>1505.3</ele>
        <time>2017-10-17T10:08:36.000Z</time>
      </trkpt>
      <trkpt lat="44.84422" lon="5.39095">
        <ele>1505.31</ele>
        <time>2017-10-17T10:08:46.000Z</time>
      </trkpt>
      <trkpt lat="44.84422" lon="5.39097">
        <ele>1505.27</ele>
        <time>2017-10-17T10:12:26.000Z</time>
      </trkpt>
      <trkpt lat="44.8442" lon="5.39094">
        <ele>1504.81</ele>
        <time>2017-10-17T10:14:01.000Z</time>
      </trkpt>
      <trkpt lat="44.8441" lon="5.39079">
        <ele>1502.11</ele>
        <time>2017-10-17T10:14:11.000Z</time>
      </trkpt>
      <trkpt lat="44.84407" lon="5.39069">
        <ele>1500.77</ele>
        <time>2017-10-17T10:14:21.000Z</time>
      </trkpt>
      <trkpt lat="44.84397" lon="5.39062">
        <ele>1497.62</ele>
        <time>2017-10-17T10:14:31.000Z</time>
      </trkpt>
      <trkpt lat="44.84394" lon="5.39061">
        <ele>1496.53</ele>
        <time>2017-10-17T10:14:41.000Z</time>
      </trkpt>
      <trkpt lat="44.8439" lon="5.39055">
        <ele>1494.99</ele>
        <time>2017-10-17T10:14:51.000Z</time>
      </trkpt>
      <trkpt lat="44.84382" lon="5.39048">
        <ele>1492.23</ele>
        <time>2017-10-17T10:15:01.000Z</time>
      </trkpt>
      <trkpt lat="44.84381" lon="5.39039">
        <ele>1491.15</ele>
        <time>2017-10-17T10:15:11.000Z</time>
      </trkpt>
      <trkpt lat="44.84378" lon="5.39033">
        <ele>1489.77</ele>
        <time>2017-10-17T10:15:21.000Z</time>
      </trkpt>
      <trkpt lat="44.84376" lon="5.39022">
        <ele>1488.31</ele>
        <time>2017-10-17T10:15:31.000Z</time>
      </trkpt>
      <trkpt lat="44.84373" lon="5.39014">
        <ele>1486.6</ele>
        <time>2017-10-17T10:15:41.000Z</time>
      </trkpt>
      <trkpt lat="44.84374" lon="5.39006">
        <ele>1485.55</ele>
        <time>2017-10-17T10:15:51.000Z</time>
      </trkpt>
      <trkpt lat="44.84376" lon="5.39002">
        <ele>1485.09</ele>
        <time>2017-10-17T10:16:01.000Z</time>
      </trkpt>
      <trkpt lat="44.84375" lon="5.38997">
        <ele>1484.1</ele>
        <time>2017-10-17T10:16:16.000Z</time>
      </trkpt>
      <trkpt lat="44.84373" lon="5.38978">
        <ele>1479.29</ele>
        <time>2017-10-17T10:16:26.000Z</time>
      </trkpt>
      <trkpt lat="44.84375" lon="5.38965">
        <ele>1475.74</ele>
        <time>2017-10-17T10:16:36.000Z</time>
      </trkpt>
      <trkpt lat="44.84382" lon="5.38959">
        <ele>1474.24</ele>
        <time>2017-10-17T10:16:46.000Z</time>
      </trkpt>
      <trkpt lat="44.84379" lon="5.38952">
        <ele>1471.71</ele>
        <time>2017-10-17T10:16:56.000Z</time>
      </trkpt>
      <trkpt lat="44.84377" lon="5.38942">
        <ele>1468.21</ele>
        <time>2017-10-17T10:17:06.000Z</time>
      </trkpt>
      <trkpt lat="44.84373" lon="5.38936">
        <ele>1466.3</ele>
        <time>2017-10-17T10:17:16.000Z</time>
      </trkpt>
      <trkpt lat="44.84371" lon="5.38926">
        <ele>1462.92</ele>
        <time>2017-10-17T10:17:26.000Z</time>
      </trkpt>
      <trkpt lat="44.84364" lon="5.38918">
        <ele>1460.54</ele>
        <time>2017-10-17T10:17:36.000Z</time>
      </trkpt>
      <trkpt lat="44.84358" lon="5.38916">
        <ele>1459.92</ele>
        <time>2017-10-17T10:17:46.000Z</time>
      </trkpt>
      <trkpt lat="44.8436" lon="5.38906">
        <ele>1456.98</ele>
        <time>2017-10-17T10:17:56.000Z</time>
      </trkpt>
      <trkpt lat="44.8436" lon="5.38905">
        <ele>1456.58</ele>
        <time>2017-10-17T10:18:06.000Z</time>
      </trkpt>
      <trkpt lat="44.84353" lon="5.389">
        <ele>1455.05</ele>
        <time>2017-10-17T10:18:16.000Z</time>
      </trkpt>
      <trkpt lat="44.84348" lon="5.38894">
        <ele>1453.21</ele>
        <time>2017-10-17T10:18:26.000Z</time>
      </trkpt>
      <trkpt lat="44.84344" lon="5.38878">
        <ele>1448.15</ele>
        <time>2017-10-17T10:18:36.000Z</time>
      </trkpt>
      <trkpt lat="44.84339" lon="5.38877">
        <ele>1447.32</ele>
        <time>2017-10-17T10:18:46.000Z</time>
      </trkpt>
      <trkpt lat="44.8433" lon="5.38867">
        <ele>1443.86</ele>
        <time>2017-10-17T10:18:56.000Z</time>
      </trkpt>
      <trkpt lat="44.84326" lon="5.38856">
        <ele>1440.18</ele>
        <time>2017-10-17T10:19:06.000Z</time>
      </trkpt>
      <trkpt lat="44.84326" lon="5.38848">
        <ele>1437.7</ele>
        <time>2017-10-17T10:19:16.000Z</time>
      </trkpt>
      <trkpt lat="44.8432" lon="5.3884">
        <ele>1435</ele>
        <time>2017-10-17T10:19:26.000Z</time>
      </trkpt>
      <trkpt lat="44.84314" lon="5.38828">
        <ele>1431.55</ele>
        <time>2017-10-17T10:19:36.000Z</time>
      </trkpt>
      <trkpt lat="44.84308" lon="5.38819">
        <ele>1429.04</ele>
        <time>2017-10-17T10:19:46.000Z</time>
      </trkpt>
      <trkpt lat="44.84303" lon="5.38808">
        <ele>1426.25</ele>
        <time>2017-10-17T10:19:56.000Z</time>
      </trkpt>
      <trkpt lat="44.84301" lon="5.38795">
        <ele>1423.45</ele>
        <time>2017-10-17T10:20:06.000Z</time>
      </trkpt>
      <trkpt lat="44.84299" lon="5.38793">
        <ele>1423.24</ele>
        <time>2017-10-17T10:20:16.000Z</time>
      </trkpt>
      <trkpt lat="44.84293" lon="5.38786">
        <ele>1422.03</ele>
        <time>2017-10-17T10:20:26.000Z</time>
      </trkpt>
      <trkpt lat="44.84293" lon="5.38788">
        <ele>1422.36</ele>
        <time>2017-10-17T10:20:36.000Z</time>
      </trkpt>
      <trkpt lat="44.84291" lon="5.38787">
        <ele>1422.23</ele>
        <time>2017-10-17T10:20:46.000Z</time>
      </trkpt>
      <trkpt lat="44.8429" lon="5.38783">
        <ele>1421.7</ele>
        <time>2017-10-17T10:21:28.000Z</time>
      </trkpt>
      <trkpt lat="44.84286" lon="5.38775">
        <ele>1420.65</ele>
        <time>2017-10-17T10:21:38.000Z</time>
      </trkpt>
      <trkpt lat="44.84277" lon="5.38769">
        <ele>1420.34</ele>
        <time>2017-10-17T10:21:48.000Z</time>
      </trkpt>
      <trkpt lat="44.84268" lon="5.38759">
        <ele>1419.71</ele>
        <time>2017-10-17T10:21:58.000Z</time>
      </trkpt>
      <trkpt lat="44.84262" lon="5.38748">
        <ele>1418.85</ele>
        <time>2017-10-17T10:22:08.000Z</time>
      </trkpt>
      <trkpt lat="44.84255" lon="5.38741">
        <ele>1418.47</ele>
        <time>2017-10-17T10:22:18.000Z</time>
      </trkpt>
      <trkpt lat="44.84245" lon="5.38729">
        <ele>1417.55</ele>
        <time>2017-10-17T10:22:28.000Z</time>
      </trkpt>
      <trkpt lat="44.84237" lon="5.38721">
        <ele>1417.03</ele>
        <time>2017-10-17T10:22:38.000Z</time>
      </trkpt>
      <trkpt lat="44.84231" lon="5.38715">
        <ele>1416.68</ele>
        <time>2017-10-17T10:22:48.000Z</time>
      </trkpt>
      <trkpt lat="44.8423" lon="5.38717">
        <ele>1416.61</ele>
        <time>2017-10-17T10:22:58.000Z</time>
      </trkpt>
      <trkpt lat="44.8423" lon="5.38716">
        <ele>1416.61</ele>
        <time>2017-10-17T10:23:28.000Z</time>
      </trkpt>
      <trkpt lat="44.84228" lon="5.38713">
        <ele>1416.55</ele>
        <time>2017-10-17T10:25:44.000Z</time>
      </trkpt>
      <trkpt lat="44.8422" lon="5.38694">
        <ele>1417.1</ele>
        <time>2017-10-17T10:25:54.000Z</time>
      </trkpt>
      <trkpt lat="44.84215" lon="5.38681">
        <ele>1417.98</ele>
        <time>2017-10-17T10:26:04.000Z</time>
      </trkpt>
      <trkpt lat="44.84206" lon="5.38664">
        <ele>1419.45</ele>
        <time>2017-10-17T10:26:14.000Z</time>
      </trkpt>
      <trkpt lat="44.84204" lon="5.38654">
        <ele>1420.29</ele>
        <time>2017-10-17T10:26:24.000Z</time>
      </trkpt>
      <trkpt lat="44.84204" lon="5.38641">
        <ele>1421.26</ele>
        <time>2017-10-17T10:26:34.000Z</time>
      </trkpt>
      <trkpt lat="44.84199" lon="5.38643">
        <ele>1421.32</ele>
        <time>2017-10-17T10:26:44.000Z</time>
      </trkpt>
      <trkpt lat="44.842" lon="5.38646">
        <ele>1421.06</ele>
        <time>2017-10-17T10:26:54.000Z</time>
      </trkpt>
      <trkpt lat="44.842" lon="5.38647">
        <ele>1420.93</ele>
        <time>2017-10-17T10:27:04.000Z</time>
      </trkpt>
      <trkpt lat="44.84198" lon="5.38643">
        <ele>1421.36</ele>
        <time>2017-10-17T10:27:19.000Z</time>
      </trkpt>
      <trkpt lat="44.8419" lon="5.38623">
        <ele>1423.31</ele>
        <time>2017-10-17T10:27:29.000Z</time>
      </trkpt>
      <trkpt lat="44.8419" lon="5.38621">
        <ele>1423.49</ele>
        <time>2017-10-17T10:27:39.000Z</time>
      </trkpt>
      <trkpt lat="44.84186" lon="5.38615">
        <ele>1424.07</ele>
        <time>2017-10-17T10:27:49.000Z</time>
      </trkpt>
      <trkpt lat="44.84182" lon="5.38608">
        <ele>1424.71</ele>
        <time>2017-10-17T10:27:59.000Z</time>
      </trkpt>
      <trkpt lat="44.84178" lon="5.38602">
        <ele>1425.3</ele>
        <time>2017-10-17T10:28:09.000Z</time>
      </trkpt>
      <trkpt lat="44.84173" lon="5.38595">
        <ele>1425.98</ele>
        <time>2017-10-17T10:28:19.000Z</time>
      </trkpt>
      <trkpt lat="44.84168" lon="5.38586">
        <ele>1426.78</ele>
        <time>2017-10-17T10:28:29.000Z</time>
      </trkpt>
      <trkpt lat="44.84162" lon="5.38575">
        <ele>1427.64</ele>
        <time>2017-10-17T10:28:39.000Z</time>
      </trkpt>
      <trkpt lat="44.84153" lon="5.38568">
        <ele>1428.38</ele>
        <time>2017-10-17T10:28:49.000Z</time>
      </trkpt>
      <trkpt lat="44.84149" lon="5.38559">
        <ele>1428.98</ele>
        <time>2017-10-17T10:28:59.000Z</time>
      </trkpt>
      <trkpt lat="44.84145" lon="5.38554">
        <ele>1429.43</ele>
        <time>2017-10-17T10:29:09.000Z</time>
      </trkpt>
      <trkpt lat="44.8414" lon="5.38546">
        <ele>1430.07</ele>
        <time>2017-10-17T10:29:19.000Z</time>
      </trkpt>
      <trkpt lat="44.84138" lon="5.38544">
        <ele>1430.25</ele>
        <time>2017-10-17T10:29:29.000Z</time>
      </trkpt>
      <trkpt lat="44.84135" lon="5.38534">
        <ele>1430.99</ele>
        <time>2017-10-17T10:29:39.000Z</time>
      </trkpt>
      <trkpt lat="44.8413" lon="5.38524">
        <ele>1431.84</ele>
        <time>2017-10-17T10:29:49.000Z</time>
      </trkpt>
      <trkpt lat="44.8412" lon="5.3852">
        <ele>1432.76</ele>
        <time>2017-10-17T10:29:59.000Z</time>
      </trkpt>
      <trkpt lat="44.8411" lon="5.38509">
        <ele>1434.06</ele>
        <time>2017-10-17T10:30:09.000Z</time>
      </trkpt>
      <trkpt lat="44.84108" lon="5.38512">
        <ele>1433.92</ele>
        <time>2017-10-17T10:30:19.000Z</time>
      </trkpt>
      <trkpt lat="44.84102" lon="5.385">
        <ele>1435.09</ele>
        <time>2017-10-17T10:30:29.000Z</time>
      </trkpt>
      <trkpt lat="44.84093" lon="5.38487">
        <ele>1436.28</ele>
        <time>2017-10-17T10:30:39.000Z</time>
      </trkpt>
      <trkpt lat="44.8409" lon="5.3848">
        <ele>1436.72</ele>
        <time>2017-10-17T10:30:49.000Z</time>
      </trkpt>
      <trkpt lat="44.84087" lon="5.38475">
        <ele>1436.98</ele>
        <time>2017-10-17T10:30:59.000Z</time>
      </trkpt>
      <trkpt lat="44.84078" lon="5.38466">
        <ele>1437.34</ele>
        <time>2017-10-17T10:31:09.000Z</time>
      </trkpt>
      <trkpt lat="44.84076" lon="5.38462">
        <ele>1437.55</ele>
        <time>2017-10-17T10:31:19.000Z</time>
      </trkpt>
      <trkpt lat="44.84073" lon="5.38449">
        <ele>1438.29</ele>
        <time>2017-10-17T10:31:29.000Z</time>
      </trkpt>
      <trkpt lat="44.84069" lon="5.38441">
        <ele>1438.86</ele>
        <time>2017-10-17T10:31:39.000Z</time>
      </trkpt>
      <trkpt lat="44.84063" lon="5.38438">
        <ele>1439.19</ele>
        <time>2017-10-17T10:31:49.000Z</time>
      </trkpt>
      <trkpt lat="44.84061" lon="5.38432">
        <ele>1439.84</ele>
        <time>2017-10-17T10:31:59.000Z</time>
      </trkpt>
      <trkpt lat="44.84054" lon="5.38429">
        <ele>1440.4</ele>
        <time>2017-10-17T10:32:09.000Z</time>
      </trkpt>
      <trkpt lat="44.84052" lon="5.38427">
        <ele>1440.7</ele>
        <time>2017-10-17T10:32:19.000Z</time>
      </trkpt>
      <trkpt lat="44.84049" lon="5.38425">
        <ele>1441.09</ele>
        <time>2017-10-17T10:32:34.000Z</time>
      </trkpt>
      <trkpt lat="44.8404" lon="5.38412">
        <ele>1443.65</ele>
        <time>2017-10-17T10:32:44.000Z</time>
      </trkpt>
      <trkpt lat="44.84037" lon="5.38398">
        <ele>1446.49</ele>
        <time>2017-10-17T10:32:54.000Z</time>
      </trkpt>
      <trkpt lat="44.84033" lon="5.38392">
        <ele>1448.08</ele>
        <time>2017-10-17T10:33:04.000Z</time>
      </trkpt>
      <trkpt lat="44.84028" lon="5.3838">
        <ele>1451.1</ele>
        <time>2017-10-17T10:33:14.000Z</time>
      </trkpt>
      <trkpt lat="44.84023" lon="5.38372">
        <ele>1453.57</ele>
        <time>2017-10-17T10:33:24.000Z</time>
      </trkpt>
      <trkpt lat="44.8402" lon="5.38369">
        <ele>1454.63</ele>
        <time>2017-10-17T10:33:34.000Z</time>
      </trkpt>
      <trkpt lat="44.84013" lon="5.38354">
        <ele>1459.11</ele>
        <time>2017-10-17T10:33:44.000Z</time>
      </trkpt>
      <trkpt lat="44.84009" lon="5.38346">
        <ele>1461.22</ele>
        <time>2017-10-17T10:33:54.000Z</time>
      </trkpt>
      <trkpt lat="44.84005" lon="5.38339">
        <ele>1463.12</ele>
        <time>2017-10-17T10:34:04.000Z</time>
      </trkpt>
      <trkpt lat="44.84001" lon="5.38336">
        <ele>1464.29</ele>
        <time>2017-10-17T10:34:14.000Z</time>
      </trkpt>
      <trkpt lat="44.83997" lon="5.38324">
        <ele>1467.09</ele>
        <time>2017-10-17T10:34:24.000Z</time>
      </trkpt>
      <trkpt lat="44.83995" lon="5.38322">
        <ele>1467.54</ele>
        <time>2017-10-17T10:34:34.000Z</time>
      </trkpt>
      <trkpt lat="44.83989" lon="5.38312">
        <ele>1469.84</ele>
        <time>2017-10-17T10:34:44.000Z</time>
      </trkpt>
      <trkpt lat="44.83986" lon="5.3831">
        <ele>1470.45</ele>
        <time>2017-10-17T10:34:54.000Z</time>
      </trkpt>
      <trkpt lat="44.83983" lon="5.38304">
        <ele>1471.54</ele>
        <time>2017-10-17T10:35:04.000Z</time>
      </trkpt>
      <trkpt lat="44.8398" lon="5.38299">
        <ele>1472.42</ele>
        <time>2017-10-17T10:35:14.000Z</time>
      </trkpt>
      <trkpt lat="44.83974" lon="5.38293">
        <ele>1473.75</ele>
        <time>2017-10-17T10:35:24.000Z</time>
      </trkpt>
      <trkpt lat="44.83969" lon="5.38285">
        <ele>1475.1</ele>
        <time>2017-10-17T10:35:34.000Z</time>
      </trkpt>
      <trkpt lat="44.83966" lon="5.38281">
        <ele>1475.85</ele>
        <time>2017-10-17T10:35:44.000Z</time>
      </trkpt>
      <trkpt lat="44.83965" lon="5.38278">
        <ele>1476.32</ele>
        <time>2017-10-17T10:35:54.000Z</time>
      </trkpt>
      <trkpt lat="44.83962" lon="5.38272">
        <ele>1477.28</ele>
        <time>2017-10-17T10:36:04.000Z</time>
      </trkpt>
      <trkpt lat="44.8396" lon="5.38266">
        <ele>1478.17</ele>
        <time>2017-10-17T10:36:14.000Z</time>
      </trkpt>
      <trkpt lat="44.83954" lon="5.38257">
        <ele>1479.66</ele>
        <time>2017-10-17T10:36:24.000Z</time>
      </trkpt>
      <trkpt lat="44.83953" lon="5.38255">
        <ele>1479.85</ele>
        <time>2017-10-17T10:36:34.000Z</time>
      </trkpt>
      <trkpt lat="44.8395" lon="5.38251">
        <ele>1480.55</ele>
        <time>2017-10-17T10:36:44.000Z</time>
      </trkpt>
      <trkpt lat="44.83948" lon="5.38236">
        <ele>1482.3</ele>
        <time>2017-10-17T10:36:54.000Z</time>
      </trkpt>
      <trkpt lat="44.8394" lon="5.38232">
        <ele>1483.04</ele>
        <time>2017-10-17T10:37:04.000Z</time>
      </trkpt>
      <trkpt lat="44.83935" lon="5.38223">
        <ele>1484.03</ele>
        <time>2017-10-17T10:37:14.000Z</time>
      </trkpt>
      <trkpt lat="44.83934" lon="5.38217">
        <ele>1484.57</ele>
        <time>2017-10-17T10:37:24.000Z</time>
      </trkpt>
      <trkpt lat="44.83929" lon="5.38208">
        <ele>1485.43</ele>
        <time>2017-10-17T10:37:34.000Z</time>
      </trkpt>
      <trkpt lat="44.83924" lon="5.38199">
        <ele>1486.3</ele>
        <time>2017-10-17T10:37:44.000Z</time>
      </trkpt>
      <trkpt lat="44.83919" lon="5.38195">
        <ele>1487.01</ele>
        <time>2017-10-17T10:37:54.000Z</time>
      </trkpt>
      <trkpt lat="44.83918" lon="5.38193">
        <ele>1487.18</ele>
        <time>2017-10-17T10:38:04.000Z</time>
      </trkpt>
      <trkpt lat="44.83917" lon="5.38193">
        <ele>1487.26</ele>
        <time>2017-10-17T10:38:14.000Z</time>
      </trkpt>
      <trkpt lat="44.83917" lon="5.38192">
        <ele>1487.39</ele>
        <time>2017-10-17T10:38:47.000Z</time>
      </trkpt>
      <trkpt lat="44.83915" lon="5.38182">
        <ele>1488.21</ele>
        <time>2017-10-17T10:38:57.000Z</time>
      </trkpt>
      <trkpt lat="44.83916" lon="5.3818">
        <ele>1488.23</ele>
        <time>2017-10-17T10:39:07.000Z</time>
      </trkpt>
      <trkpt lat="44.83915" lon="5.38179">
        <ele>1488.36</ele>
        <time>2017-10-17T10:39:17.000Z</time>
      </trkpt>
      <trkpt lat="44.83912" lon="5.38177">
        <ele>1488.81</ele>
        <time>2017-10-17T10:39:27.000Z</time>
      </trkpt>
      <trkpt lat="44.83904" lon="5.38152">
        <ele>1491.43</ele>
        <time>2017-10-17T10:39:37.000Z</time>
      </trkpt>
      <trkpt lat="44.83895" lon="5.38144">
        <ele>1493.28</ele>
        <time>2017-10-17T10:39:47.000Z</time>
      </trkpt>
      <trkpt lat="44.83887" lon="5.38126">
        <ele>1495.22</ele>
        <time>2017-10-17T10:39:57.000Z</time>
      </trkpt>
      <trkpt lat="44.8388" lon="5.38116">
        <ele>1497.03</ele>
        <time>2017-10-17T10:40:07.000Z</time>
      </trkpt>
      <trkpt lat="44.83871" lon="5.38108">
        <ele>1499.13</ele>
        <time>2017-10-17T10:40:17.000Z</time>
      </trkpt>
      <trkpt lat="44.83864" lon="5.38111">
        <ele>1500.29</ele>
        <time>2017-10-17T10:40:27.000Z</time>
      </trkpt>
      <trkpt lat="44.83865" lon="5.38112">
        <ele>1500.09</ele>
        <time>2017-10-17T10:40:37.000Z</time>
      </trkpt>
      <trkpt lat="44.83871" lon="5.38108">
        <ele>1499.1</ele>
        <time>2017-10-17T10:40:47.000Z</time>
      </trkpt>
      <trkpt lat="44.83873" lon="5.38098">
        <ele>1499</ele>
        <time>2017-10-17T10:40:57.000Z</time>
      </trkpt>
      <trkpt lat="44.83869" lon="5.38098">
        <ele>1499.73</ele>
        <time>2017-10-17T10:41:07.000Z</time>
      </trkpt>
      <trkpt lat="44.83869" lon="5.38103">
        <ele>1499.56</ele>
        <time>2017-10-17T10:41:17.000Z</time>
      </trkpt>
      <trkpt lat="44.83869" lon="5.38102">
        <ele>1499.61</ele>
        <time>2017-10-17T10:41:28.000Z</time>
      </trkpt>
      <trkpt lat="44.83871" lon="5.38101">
        <ele>1499.36</ele>
        <time>2017-10-17T10:41:38.000Z</time>
      </trkpt>
      <trkpt lat="44.8387" lon="5.381">
        <ele>1499.59</ele>
        <time>2017-10-17T10:41:49.000Z</time>
      </trkpt>
      <trkpt lat="44.8387" lon="5.38098">
        <ele>1499.57</ele>
        <time>2017-10-17T10:41:59.000Z</time>
      </trkpt>
      <trkpt lat="44.8387" lon="5.38096">
        <ele>1499.75</ele>
        <time>2017-10-17T10:42:13.000Z</time>
      </trkpt>
      <trkpt lat="44.83869" lon="5.38093">
        <ele>1499.99</ele>
        <time>2017-10-17T10:42:23.000Z</time>
      </trkpt>
      <trkpt lat="44.83867" lon="5.3809">
        <ele>1500.55</ele>
        <time>2017-10-17T10:42:33.000Z</time>
      </trkpt>
      <trkpt lat="44.83864" lon="5.38078">
        <ele>1502.06</ele>
        <time>2017-10-17T10:42:43.000Z</time>
      </trkpt>
      <trkpt lat="44.83871" lon="5.38061">
        <ele>1502.59</ele>
        <time>2017-10-17T10:42:53.000Z</time>
      </trkpt>
      <trkpt lat="44.83875" lon="5.38043">
        <ele>1504.09</ele>
        <time>2017-10-17T10:43:03.000Z</time>
      </trkpt>
      <trkpt lat="44.83881" lon="5.38024">
        <ele>1505.75</ele>
        <time>2017-10-17T10:43:13.000Z</time>
      </trkpt>
      <trkpt lat="44.83886" lon="5.38009">
        <ele>1506.95</ele>
        <time>2017-10-17T10:43:23.000Z</time>
      </trkpt>
      <trkpt lat="44.83892" lon="5.37994">
        <ele>1507.64</ele>
        <time>2017-10-17T10:43:33.000Z</time>
      </trkpt>
      <trkpt lat="44.83894" lon="5.3798">
        <ele>1508.36</ele>
        <time>2017-10-17T10:43:43.000Z</time>
      </trkpt>
      <trkpt lat="44.83893" lon="5.37965">
        <ele>1509.2</ele>
        <time>2017-10-17T10:43:53.000Z</time>
      </trkpt>
      <trkpt lat="44.83884" lon="5.37958">
        <ele>1509.78</ele>
        <time>2017-10-17T10:44:03.000Z</time>
      </trkpt>
      <trkpt lat="44.83873" lon="5.37947">
        <ele>1510.15</ele>
        <time>2017-10-17T10:44:13.000Z</time>
      </trkpt>
      <trkpt lat="44.83861" lon="5.37944">
        <ele>1510.35</ele>
        <time>2017-10-17T10:44:23.000Z</time>
      </trkpt>
      <trkpt lat="44.8385" lon="5.37937">
        <ele>1510.5</ele>
        <time>2017-10-17T10:44:33.000Z</time>
      </trkpt>
      <trkpt lat="44.83844" lon="5.37926">
        <ele>1510.44</ele>
        <time>2017-10-17T10:44:43.000Z</time>
      </trkpt>
      <trkpt lat="44.83833" lon="5.37916">
        <ele>1510.99</ele>
        <time>2017-10-17T10:44:53.000Z</time>
      </trkpt>
      <trkpt lat="44.83827" lon="5.37907">
        <ele>1511.7</ele>
        <time>2017-10-17T10:45:03.000Z</time>
      </trkpt>
      <trkpt lat="44.83821" lon="5.37894">
        <ele>1512.87</ele>
        <time>2017-10-17T10:45:13.000Z</time>
      </trkpt>
      <trkpt lat="44.83812" lon="5.37884">
        <ele>1514.63</ele>
        <time>2017-10-17T10:45:23.000Z</time>
      </trkpt>
      <trkpt lat="44.83807" lon="5.37872">
        <ele>1515.71</ele>
        <time>2017-10-17T10:45:33.000Z</time>
      </trkpt>
      <trkpt lat="44.83805" lon="5.37866">
        <ele>1516.08</ele>
        <time>2017-10-17T10:45:43.000Z</time>
      </trkpt>
      <trkpt lat="44.83798" lon="5.37868">
        <ele>1517.26</ele>
        <time>2017-10-17T10:45:53.000Z</time>
      </trkpt>
      <trkpt lat="44.83785" lon="5.37868">
        <ele>1519.32</ele>
        <time>2017-10-17T10:46:03.000Z</time>
      </trkpt>
      <trkpt lat="44.83777" lon="5.37873">
        <ele>1520.63</ele>
        <time>2017-10-17T10:46:13.000Z</time>
      </trkpt>
      <trkpt lat="44.8377" lon="5.37878">
        <ele>1521.64</ele>
        <time>2017-10-17T10:46:23.000Z</time>
      </trkpt>
      <trkpt lat="44.83766" lon="5.37889">
        <ele>1522.18</ele>
        <time>2017-10-17T10:46:33.000Z</time>
      </trkpt>
      <trkpt lat="44.83765" lon="5.37888">
        <ele>1522.35</ele>
        <time>2017-10-17T10:46:43.000Z</time>
      </trkpt>
      <trkpt lat="44.83765" lon="5.37894">
        <ele>1522.31</ele>
        <time>2017-10-17T10:46:53.000Z</time>
      </trkpt>
      <trkpt lat="44.83764" lon="5.37894">
        <ele>1522.46</ele>
        <time>2017-10-17T10:47:03.000Z</time>
      </trkpt>
      <trkpt lat="44.83762" lon="5.3789">
        <ele>1522.66</ele>
        <time>2017-10-17T10:47:13.000Z</time>
      </trkpt>
      <trkpt lat="44.83756" lon="5.37884">
        <ele>1523.13</ele>
        <time>2017-10-17T10:47:23.000Z</time>
      </trkpt>
      <trkpt lat="44.83751" lon="5.37879">
        <ele>1523.39</ele>
        <time>2017-10-17T10:47:33.000Z</time>
      </trkpt>
      <trkpt lat="44.8375" lon="5.37879">
        <ele>1523.43</ele>
        <time>2017-10-17T10:47:51.000Z</time>
      </trkpt>
      <trkpt lat="44.83746" lon="5.3788">
        <ele>1523.56</ele>
        <time>2017-10-17T10:48:01.000Z</time>
      </trkpt>
      <trkpt lat="44.83745" lon="5.3788">
        <ele>1523.58</ele>
        <time>2017-10-17T10:48:14.000Z</time>
      </trkpt>
      <trkpt lat="44.83737" lon="5.37877">
        <ele>1523.49</ele>
        <time>2017-10-17T10:48:24.000Z</time>
      </trkpt>
      <trkpt lat="44.83729" lon="5.37871">
        <ele>1523.06</ele>
        <time>2017-10-17T10:48:34.000Z</time>
      </trkpt>
      <trkpt lat="44.8372" lon="5.37866">
        <ele>1522.35</ele>
        <time>2017-10-17T10:48:44.000Z</time>
      </trkpt>
      <trkpt lat="44.83711" lon="5.37863">
        <ele>1521.57</ele>
        <time>2017-10-17T10:48:54.000Z</time>
      </trkpt>
      <trkpt lat="44.83701" lon="5.37856">
        <ele>1520.56</ele>
        <time>2017-10-17T10:49:04.000Z</time>
      </trkpt>
      <trkpt lat="44.83691" lon="5.37853">
        <ele>1519.78</ele>
        <time>2017-10-17T10:49:14.000Z</time>
      </trkpt>
      <trkpt lat="44.83682" lon="5.37849">
        <ele>1519.28</ele>
        <time>2017-10-17T10:49:24.000Z</time>
      </trkpt>
      <trkpt lat="44.83672" lon="5.37841">
        <ele>1519</ele>
        <time>2017-10-17T10:49:34.000Z</time>
      </trkpt>
      <trkpt lat="44.83665" lon="5.37835">
        <ele>1519.17</ele>
        <time>2017-10-17T10:49:44.000Z</time>
      </trkpt>
      <trkpt lat="44.83658" lon="5.37835">
        <ele>1519.7</ele>
        <time>2017-10-17T10:49:54.000Z</time>
      </trkpt>
      <trkpt lat="44.83648" lon="5.37832">
        <ele>1520.7</ele>
        <time>2017-10-17T10:50:04.000Z</time>
      </trkpt>
      <trkpt lat="44.83652" lon="5.3783">
        <ele>1520.25</ele>
        <time>2017-10-17T10:50:14.000Z</time>
      </trkpt>
      <trkpt lat="44.83651" lon="5.37829">
        <ele>1520.36</ele>
        <time>2017-10-17T10:50:24.000Z</time>
      </trkpt>
      <trkpt lat="44.83642" lon="5.37828">
        <ele>1521.42</ele>
        <time>2017-10-17T10:50:34.000Z</time>
      </trkpt>
      <trkpt lat="44.83636" lon="5.37823">
        <ele>1522.29</ele>
        <time>2017-10-17T10:50:44.000Z</time>
      </trkpt>
      <trkpt lat="44.83636" lon="5.37821">
        <ele>1522.32</ele>
        <time>2017-10-17T10:50:54.000Z</time>
      </trkpt>
      <trkpt lat="44.8363" lon="5.37822">
        <ele>1523.24</ele>
        <time>2017-10-17T10:51:04.000Z</time>
      </trkpt>
      <trkpt lat="44.83625" lon="5.37818">
        <ele>1524.01</ele>
        <time>2017-10-17T10:51:14.000Z</time>
      </trkpt>
      <trkpt lat="44.8361" lon="5.37811">
        <ele>1526.14</ele>
        <time>2017-10-17T10:51:24.000Z</time>
      </trkpt>
      <trkpt lat="44.83603" lon="5.37808">
        <ele>1526.93</ele>
        <time>2017-10-17T10:51:34.000Z</time>
      </trkpt>
      <trkpt lat="44.836" lon="5.37813">
        <ele>1527.58</ele>
        <time>2017-10-17T10:51:44.000Z</time>
      </trkpt>
      <trkpt lat="44.83597" lon="5.37811">
        <ele>1527.92</ele>
        <time>2017-10-17T10:52:01.000Z</time>
      </trkpt>
      <trkpt lat="44.83577" lon="5.37802">
        <ele>1529.18</ele>
        <time>2017-10-17T10:52:11.000Z</time>
      </trkpt>
      <trkpt lat="44.83567" lon="5.378">
        <ele>1529.71</ele>
        <time>2017-10-17T10:52:21.000Z</time>
      </trkpt>
      <trkpt lat="44.83555" lon="5.37789">
        <ele>1529.78</ele>
        <time>2017-10-17T10:52:31.000Z</time>
      </trkpt>
      <trkpt lat="44.83547" lon="5.37791">
        <ele>1530.42</ele>
        <time>2017-10-17T10:52:41.000Z</time>
      </trkpt>
      <trkpt lat="44.8354" lon="5.37779">
        <ele>1530.21</ele>
        <time>2017-10-17T10:52:51.000Z</time>
      </trkpt>
      <trkpt lat="44.83529" lon="5.37773">
        <ele>1530.59</ele>
        <time>2017-10-17T10:53:01.000Z</time>
      </trkpt>
      <trkpt lat="44.83525" lon="5.37767">
        <ele>1530.53</ele>
        <time>2017-10-17T10:53:11.000Z</time>
      </trkpt>
      <trkpt lat="44.83524" lon="5.37761">
        <ele>1530.28</ele>
        <time>2017-10-17T10:53:21.000Z</time>
      </trkpt>
      <trkpt lat="44.83525" lon="5.3776">
        <ele>1530.12</ele>
        <time>2017-10-17T10:55:31.000Z</time>
      </trkpt>
      <trkpt lat="44.83525" lon="5.37755">
        <ele>1529.78</ele>
        <time>2017-10-17T10:55:41.000Z</time>
      </trkpt>
      <trkpt lat="44.83526" lon="5.37756">
        <ele>1529.76</ele>
        <time>2017-10-17T10:55:59.000Z</time>
      </trkpt>
      <trkpt lat="44.83526" lon="5.37754">
        <ele>1529.63</ele>
        <time>2017-10-17T11:21:01.000Z</time>
      </trkpt>
      <trkpt lat="44.83525" lon="5.37748">
        <ele>1529.18</ele>
        <time>2017-10-17T11:21:11.000Z</time>
      </trkpt>
      <trkpt lat="44.83525" lon="5.37745">
        <ele>1528.8</ele>
        <time>2017-10-17T11:21:25.000Z</time>
      </trkpt>
      <trkpt lat="44.83524" lon="5.3773">
        <ele>1527.12</ele>
        <time>2017-10-17T11:21:35.000Z</time>
      </trkpt>
      <trkpt lat="44.8352" lon="5.37726">
        <ele>1527.08</ele>
        <time>2017-10-17T11:21:45.000Z</time>
      </trkpt>
      <trkpt lat="44.83514" lon="5.37726">
        <ele>1527.61</ele>
        <time>2017-10-17T11:21:55.000Z</time>
      </trkpt>
      <trkpt lat="44.83512" lon="5.3772">
        <ele>1526.87</ele>
        <time>2017-10-17T11:22:05.000Z</time>
      </trkpt>
      <trkpt lat="44.83511" lon="5.37724">
        <ele>1527.58</ele>
        <time>2017-10-17T11:22:15.000Z</time>
      </trkpt>
      <trkpt lat="44.83511" lon="5.37726">
        <ele>1527.89</ele>
        <time>2017-10-17T11:23:04.000Z</time>
      </trkpt>
      <trkpt lat="44.83513" lon="5.37736">
        <ele>1529.05</ele>
        <time>2017-10-17T11:23:14.000Z</time>
      </trkpt>
      <trkpt lat="44.83513" lon="5.37738">
        <ele>1529.24</ele>
        <time>2017-10-17T11:23:24.000Z</time>
      </trkpt>
      <trkpt lat="44.83513" lon="5.37739">
        <ele>1529.35</ele>
        <time>2017-10-17T11:24:15.000Z</time>
      </trkpt>
      <trkpt lat="44.83514" lon="5.37741">
        <ele>1529.4</ele>
        <time>2017-10-17T11:24:53.000Z</time>
      </trkpt>
      <trkpt lat="44.83514" lon="5.37744">
        <ele>1529.76</ele>
        <time>2017-10-17T11:25:03.000Z</time>
      </trkpt>
      <trkpt lat="44.83515" lon="5.37744">
        <ele>1529.66</ele>
        <time>2017-10-17T11:25:33.000Z</time>
      </trkpt>
      <trkpt lat="44.83512" lon="5.37745">
        <ele>1530</ele>
        <time>2017-10-17T11:26:23.000Z</time>
      </trkpt>
      <trkpt lat="44.83515" lon="5.37751">
        <ele>1530.26</ele>
        <time>2017-10-17T11:26:33.000Z</time>
      </trkpt>
      <trkpt lat="44.83516" lon="5.37751">
        <ele>1530.2</ele>
        <time>2017-10-17T11:26:43.000Z</time>
      </trkpt>
      <trkpt lat="44.83529" lon="5.37739">
        <ele>1527.67</ele>
        <time>2017-10-17T11:26:53.000Z</time>
      </trkpt>
      <trkpt lat="44.83523" lon="5.37741">
        <ele>1528.61</ele>
        <time>2017-10-17T11:27:03.000Z</time>
      </trkpt>
      <trkpt lat="44.83523" lon="5.37746">
        <ele>1529.08</ele>
        <time>2017-10-17T11:27:13.000Z</time>
      </trkpt>
      <trkpt lat="44.83523" lon="5.37746">
        <ele>1529.19</ele>
        <time>2017-10-17T11:27:59.000Z</time>
      </trkpt>
      <trkpt lat="44.83521" lon="5.37748">
        <ele>1529.48</ele>
        <time>2017-10-17T11:28:25.000Z</time>
      </trkpt>
      <trkpt lat="44.83522" lon="5.37759">
        <ele>1530.29</ele>
        <time>2017-10-17T11:28:35.000Z</time>
      </trkpt>
      <trkpt lat="44.83521" lon="5.37769">
        <ele>1530.91</ele>
        <time>2017-10-17T11:28:45.000Z</time>
      </trkpt>
      <trkpt lat="44.83522" lon="5.37773">
        <ele>1531.06</ele>
        <time>2017-10-17T11:28:55.000Z</time>
      </trkpt>
      <trkpt lat="44.83523" lon="5.37772">
        <ele>1530.96</ele>
        <time>2017-10-17T11:29:05.000Z</time>
      </trkpt>
      <trkpt lat="44.83524" lon="5.37772">
        <ele>1530.87</ele>
        <time>2017-10-17T11:29:16.000Z</time>
      </trkpt>
      <trkpt lat="44.83525" lon="5.3777">
        <ele>1530.75</ele>
        <time>2017-10-17T11:29:26.000Z</time>
      </trkpt>
      <trkpt lat="44.83527" lon="5.37766">
        <ele>1530.4</ele>
        <time>2017-10-17T11:29:36.000Z</time>
      </trkpt>
      <trkpt lat="44.83531" lon="5.37761">
        <ele>1529.7</ele>
        <time>2017-10-17T11:29:46.000Z</time>
      </trkpt>
      <trkpt lat="44.8353" lon="5.37763">
        <ele>1529.83</ele>
        <time>2017-10-17T11:29:57.000Z</time>
      </trkpt>
      <trkpt lat="44.8353" lon="5.37764">
        <ele>1529.94</ele>
        <time>2017-10-17T11:30:35.000Z</time>
      </trkpt>
      <trkpt lat="44.8353" lon="5.37762">
        <ele>1529.85</ele>
        <time>2017-10-17T11:30:50.000Z</time>
      </trkpt>
      <trkpt lat="44.83532" lon="5.37763">
        <ele>1529.73</ele>
        <time>2017-10-17T11:31:08.000Z</time>
      </trkpt>
      <trkpt lat="44.83539" lon="5.37762">
        <ele>1528.95</ele>
        <time>2017-10-17T11:31:18.000Z</time>
      </trkpt>
      <trkpt lat="44.83543" lon="5.3776">
        <ele>1528.27</ele>
        <time>2017-10-17T11:31:28.000Z</time>
      </trkpt>
      <trkpt lat="44.83539" lon="5.37765">
        <ele>1529.24</ele>
        <time>2017-10-17T11:31:38.000Z</time>
      </trkpt>
      <trkpt lat="44.83536" lon="5.37762">
        <ele>1529.26</ele>
        <time>2017-10-17T11:31:48.000Z</time>
      </trkpt>
      <trkpt lat="44.83537" lon="5.37763">
        <ele>1529.33</ele>
        <time>2017-10-17T11:31:59.000Z</time>
      </trkpt>
      <trkpt lat="44.83536" lon="5.37767">
        <ele>1529.67</ele>
        <time>2017-10-17T11:32:09.000Z</time>
      </trkpt>
      <trkpt lat="44.83538" lon="5.37768">
        <ele>1529.55</ele>
        <time>2017-10-17T11:32:19.000Z</time>
      </trkpt>
      <trkpt lat="44.83539" lon="5.37767">
        <ele>1529.43</ele>
        <time>2017-10-17T11:32:29.000Z</time>
      </trkpt>
      <trkpt lat="44.83538" lon="5.37768">
        <ele>1529.56</ele>
        <time>2017-10-17T11:34:32.000Z</time>
      </trkpt>
      <trkpt lat="44.83537" lon="5.37768">
        <ele>1529.66</ele>
        <time>2017-10-17T11:35:10.000Z</time>
      </trkpt>
      <trkpt lat="44.83536" lon="5.37768">
        <ele>1529.74</ele>
        <time>2017-10-17T11:35:58.000Z</time>
      </trkpt>
      <trkpt lat="44.83535" lon="5.37767">
        <ele>1529.77</ele>
        <time>2017-10-17T11:36:28.000Z</time>
      </trkpt>
      <trkpt lat="44.83532" lon="5.37768">
        <ele>1530.1</ele>
        <time>2017-10-17T11:36:38.000Z</time>
      </trkpt>
      <trkpt lat="44.83531" lon="5.37769">
        <ele>1530.22</ele>
        <time>2017-10-17T11:36:51.000Z</time>
      </trkpt>
      <trkpt lat="44.8353" lon="5.37772">
        <ele>1530.45</ele>
        <time>2017-10-17T11:38:01.000Z</time>
      </trkpt>
      <trkpt lat="44.83525" lon="5.37779">
        <ele>1531.12</ele>
        <time>2017-10-17T11:38:11.000Z</time>
      </trkpt>
      <trkpt lat="44.83523" lon="5.37778">
        <ele>1531.16</ele>
        <time>2017-10-17T11:38:35.000Z</time>
      </trkpt>
      <trkpt lat="44.83521" lon="5.37778">
        <ele>1531.25</ele>
        <time>2017-10-17T11:38:45.000Z</time>
      </trkpt>
      <trkpt lat="44.83521" lon="5.37779">
        <ele>1531.29</ele>
        <time>2017-10-17T11:38:56.000Z</time>
      </trkpt>
      <trkpt lat="44.83521" lon="5.37781">
        <ele>1531.29</ele>
        <time>2017-10-17T11:39:16.000Z</time>
      </trkpt>
      <trkpt lat="44.83524" lon="5.37781">
        <ele>1531.22</ele>
        <time>2017-10-17T11:39:34.000Z</time>
      </trkpt>
      <trkpt lat="44.83525" lon="5.37776">
        <ele>1531.01</ele>
        <time>2017-10-17T11:39:44.000Z</time>
      </trkpt>
      <trkpt lat="44.83522" lon="5.37777">
        <ele>1531.2</ele>
        <time>2017-10-17T11:39:54.000Z</time>
      </trkpt>
      <trkpt lat="44.8352" lon="5.37778">
        <ele>1531.31</ele>
        <time>2017-10-17T11:40:04.000Z</time>
      </trkpt>
      <trkpt lat="44.83517" lon="5.37779">
        <ele>1531.43</ele>
        <time>2017-10-17T11:40:30.000Z</time>
      </trkpt>
      <trkpt lat="44.83513" lon="5.37778">
        <ele>1531.52</ele>
        <time>2017-10-17T11:40:40.000Z</time>
      </trkpt>
      <trkpt lat="44.83512" lon="5.3778">
        <ele>1531.56</ele>
        <time>2017-10-17T11:40:50.000Z</time>
      </trkpt>
      <trkpt lat="44.83511" lon="5.3778">
        <ele>1531.58</ele>
        <time>2017-10-17T11:41:00.000Z</time>
      </trkpt>
      <trkpt lat="44.83501" lon="5.37775">
        <ele>1531.69</ele>
        <time>2017-10-17T11:41:10.000Z</time>
      </trkpt>
      <trkpt lat="44.83493" lon="5.37774">
        <ele>1531.6</ele>
        <time>2017-10-17T11:41:20.000Z</time>
      </trkpt>
      <trkpt lat="44.8348" lon="5.37771">
        <ele>1531.03</ele>
        <time>2017-10-17T11:41:30.000Z</time>
      </trkpt>
      <trkpt lat="44.83478" lon="5.37763">
        <ele>1530.93</ele>
        <time>2017-10-17T11:41:40.000Z</time>
      </trkpt>
      <trkpt lat="44.83465" lon="5.37758">
        <ele>1530.03</ele>
        <time>2017-10-17T11:41:50.000Z</time>
      </trkpt>
      <trkpt lat="44.83457" lon="5.3776">
        <ele>1529.32</ele>
        <time>2017-10-17T11:42:00.000Z</time>
      </trkpt>
      <trkpt lat="44.83446" lon="5.37755">
        <ele>1528.51</ele>
        <time>2017-10-17T11:42:10.000Z</time>
      </trkpt>
      <trkpt lat="44.83438" lon="5.37753">
        <ele>1527.87</ele>
        <time>2017-10-17T11:42:20.000Z</time>
      </trkpt>
      <trkpt lat="44.83427" lon="5.37749">
        <ele>1527.31</ele>
        <time>2017-10-17T11:42:30.000Z</time>
      </trkpt>
      <trkpt lat="44.83421" lon="5.37747">
        <ele>1527.12</ele>
        <time>2017-10-17T11:42:40.000Z</time>
      </trkpt>
      <trkpt lat="44.83411" lon="5.37747">
        <ele>1527.06</ele>
        <time>2017-10-17T11:42:50.000Z</time>
      </trkpt>
      <trkpt lat="44.83401" lon="5.37742">
        <ele>1527.35</ele>
        <time>2017-10-17T11:43:00.000Z</time>
      </trkpt>
      <trkpt lat="44.83389" lon="5.37736">
        <ele>1527.93</ele>
        <time>2017-10-17T11:43:10.000Z</time>
      </trkpt>
      <trkpt lat="44.83377" lon="5.37732">
        <ele>1528.61</ele>
        <time>2017-10-17T11:43:20.000Z</time>
      </trkpt>
      <trkpt lat="44.8337" lon="5.37732">
        <ele>1529.02</ele>
        <time>2017-10-17T11:43:30.000Z</time>
      </trkpt>
      <trkpt lat="44.83363" lon="5.37727">
        <ele>1529.29</ele>
        <time>2017-10-17T11:43:40.000Z</time>
      </trkpt>
      <trkpt lat="44.83356" lon="5.3772">
        <ele>1529.44</ele>
        <time>2017-10-17T11:43:50.000Z</time>
      </trkpt>
      <trkpt lat="44.83347" lon="5.37719">
        <ele>1529.69</ele>
        <time>2017-10-17T11:44:00.000Z</time>
      </trkpt>
      <trkpt lat="44.83332" lon="5.37728">
        <ele>1530.02</ele>
        <time>2017-10-17T11:44:10.000Z</time>
      </trkpt>
      <trkpt lat="44.83322" lon="5.37717">
        <ele>1529.62</ele>
        <time>2017-10-17T11:44:20.000Z</time>
      </trkpt>
      <trkpt lat="44.83316" lon="5.37717">
        <ele>1529.45</ele>
        <time>2017-10-17T11:44:30.000Z</time>
      </trkpt>
      <trkpt lat="44.83303" lon="5.3772">
        <ele>1528.93</ele>
        <time>2017-10-17T11:44:40.000Z</time>
      </trkpt>
      <trkpt lat="44.83298" lon="5.37718">
        <ele>1528.65</ele>
        <time>2017-10-17T11:44:50.000Z</time>
      </trkpt>
      <trkpt lat="44.83285" lon="5.37724">
        <ele>1527.71</ele>
        <time>2017-10-17T11:45:00.000Z</time>
      </trkpt>
      <trkpt lat="44.83273" lon="5.37726">
        <ele>1526.72</ele>
        <time>2017-10-17T11:45:10.000Z</time>
      </trkpt>
      <trkpt lat="44.83269" lon="5.37723">
        <ele>1526.7</ele>
        <time>2017-10-17T11:45:20.000Z</time>
      </trkpt>
      <trkpt lat="44.8326" lon="5.37723">
        <ele>1526.1</ele>
        <time>2017-10-17T11:45:30.000Z</time>
      </trkpt>
      <trkpt lat="44.83249" lon="5.37719">
        <ele>1525.92</ele>
        <time>2017-10-17T11:45:40.000Z</time>
      </trkpt>
      <trkpt lat="44.83238" lon="5.37715">
        <ele>1525.86</ele>
        <time>2017-10-17T11:45:50.000Z</time>
      </trkpt>
      <trkpt lat="44.8323" lon="5.37718">
        <ele>1525.45</ele>
        <time>2017-10-17T11:46:00.000Z</time>
      </trkpt>
      <trkpt lat="44.8322" lon="5.37713">
        <ele>1525.6</ele>
        <time>2017-10-17T11:46:10.000Z</time>
      </trkpt>
      <trkpt lat="44.83208" lon="5.37705">
        <ele>1525.99</ele>
        <time>2017-10-17T11:46:20.000Z</time>
      </trkpt>
      <trkpt lat="44.83196" lon="5.37702">
        <ele>1525.96</ele>
        <time>2017-10-17T11:46:30.000Z</time>
      </trkpt>
      <trkpt lat="44.83183" lon="5.377">
        <ele>1525.8</ele>
        <time>2017-10-17T11:46:40.000Z</time>
      </trkpt>
      <trkpt lat="44.83168" lon="5.37697">
        <ele>1525.66</ele>
        <time>2017-10-17T11:46:50.000Z</time>
      </trkpt>
      <trkpt lat="44.83158" lon="5.37696">
        <ele>1525.59</ele>
        <time>2017-10-17T11:47:00.000Z</time>
      </trkpt>
      <trkpt lat="44.83147" lon="5.37696">
        <ele>1525.45</ele>
        <time>2017-10-17T11:47:10.000Z</time>
      </trkpt>
      <trkpt lat="44.83139" lon="5.37692">
        <ele>1526.02</ele>
        <time>2017-10-17T11:47:20.000Z</time>
      </trkpt>
      <trkpt lat="44.83128" lon="5.37688">
        <ele>1526.83</ele>
        <time>2017-10-17T11:47:30.000Z</time>
      </trkpt>
      <trkpt lat="44.83118" lon="5.37677">
        <ele>1528.86</ele>
        <time>2017-10-17T11:47:40.000Z</time>
      </trkpt>
      <trkpt lat="44.83107" lon="5.37671">
        <ele>1530.19</ele>
        <time>2017-10-17T11:47:50.000Z</time>
      </trkpt>
      <trkpt lat="44.831" lon="5.37664">
        <ele>1531.3</ele>
        <time>2017-10-17T11:48:00.000Z</time>
      </trkpt>
      <trkpt lat="44.83104" lon="5.37667">
        <ele>1530.8</ele>
        <time>2017-10-17T11:48:10.000Z</time>
      </trkpt>
      <trkpt lat="44.831" lon="5.3767">
        <ele>1530.48</ele>
        <time>2017-10-17T11:48:20.000Z</time>
      </trkpt>
      <trkpt lat="44.83098" lon="5.37669">
        <ele>1530.7</ele>
        <time>2017-10-17T11:48:30.000Z</time>
      </trkpt>
      <trkpt lat="44.83099" lon="5.37667">
        <ele>1530.95</ele>
        <time>2017-10-17T11:48:40.000Z</time>
      </trkpt>
      <trkpt lat="44.831" lon="5.37667">
        <ele>1530.94</ele>
        <time>2017-10-17T11:48:50.000Z</time>
      </trkpt>
      <trkpt lat="44.83101" lon="5.37669">
        <ele>1530.68</ele>
        <time>2017-10-17T11:49:00.000Z</time>
      </trkpt>
      <trkpt lat="44.83101" lon="5.3767">
        <ele>1530.5</ele>
        <time>2017-10-17T11:49:31.000Z</time>
      </trkpt>
      <trkpt lat="44.83095" lon="5.37675">
        <ele>1529.75</ele>
        <time>2017-10-17T11:49:44.000Z</time>
      </trkpt>
      <trkpt lat="44.83096" lon="5.37665">
        <ele>1531.28</ele>
        <time>2017-10-17T11:49:54.000Z</time>
      </trkpt>
      <trkpt lat="44.83092" lon="5.37658">
        <ele>1532.2</ele>
        <time>2017-10-17T11:50:04.000Z</time>
      </trkpt>
      <trkpt lat="44.83086" lon="5.37656">
        <ele>1532.5</ele>
        <time>2017-10-17T11:50:14.000Z</time>
      </trkpt>
      <trkpt lat="44.83083" lon="5.37649">
        <ele>1533.18</ele>
        <time>2017-10-17T11:50:24.000Z</time>
      </trkpt>
      <trkpt lat="44.83081" lon="5.3765">
        <ele>1533.06</ele>
        <time>2017-10-17T11:50:34.000Z</time>
      </trkpt>
      <trkpt lat="44.83081" lon="5.37651">
        <ele>1532.94</ele>
        <time>2017-10-17T11:50:58.000Z</time>
      </trkpt>
      <trkpt lat="44.83086" lon="5.37655">
        <ele>1532.55</ele>
        <time>2017-10-17T11:51:10.000Z</time>
      </trkpt>
      <trkpt lat="44.8309" lon="5.37657">
        <ele>1532.32</ele>
        <time>2017-10-17T11:51:20.000Z</time>
      </trkpt>
      <trkpt lat="44.83083" lon="5.37657">
        <ele>1532.36</ele>
        <time>2017-10-17T11:51:30.000Z</time>
      </trkpt>
      <trkpt lat="44.83085" lon="5.37654">
        <ele>1532.66</ele>
        <time>2017-10-17T11:51:40.000Z</time>
      </trkpt>
      <trkpt lat="44.83083" lon="5.37654">
        <ele>1532.63</ele>
        <time>2017-10-17T11:51:50.000Z</time>
      </trkpt>
      <trkpt lat="44.83068" lon="5.37649">
        <ele>1533.25</ele>
        <time>2017-10-17T11:52:00.000Z</time>
      </trkpt>
      <trkpt lat="44.83055" lon="5.37644">
        <ele>1534.08</ele>
        <time>2017-10-17T11:52:10.000Z</time>
      </trkpt>
      <trkpt lat="44.83046" lon="5.37642">
        <ele>1534.25</ele>
        <time>2017-10-17T11:52:20.000Z</time>
      </trkpt>
      <trkpt lat="44.8304" lon="5.37639">
        <ele>1534.58</ele>
        <time>2017-10-17T11:52:30.000Z</time>
      </trkpt>
      <trkpt lat="44.8303" lon="5.37637">
        <ele>1534.55</ele>
        <time>2017-10-17T11:52:40.000Z</time>
      </trkpt>
      <trkpt lat="44.83021" lon="5.37628">
        <ele>1535.39</ele>
        <time>2017-10-17T11:52:50.000Z</time>
      </trkpt>
      <trkpt lat="44.83012" lon="5.37621">
        <ele>1535.64</ele>
        <time>2017-10-17T11:53:00.000Z</time>
      </trkpt>
      <trkpt lat="44.83004" lon="5.37621">
        <ele>1534.42</ele>
        <time>2017-10-17T11:53:10.000Z</time>
      </trkpt>
      <trkpt lat="44.82997" lon="5.37609">
        <ele>1535.38</ele>
        <time>2017-10-17T11:53:20.000Z</time>
      </trkpt>
      <trkpt lat="44.82998" lon="5.37607">
        <ele>1535.85</ele>
        <time>2017-10-17T11:53:30.000Z</time>
      </trkpt>
      <trkpt lat="44.82997" lon="5.37604">
        <ele>1536.24</ele>
        <time>2017-10-17T11:53:42.000Z</time>
      </trkpt>
      <trkpt lat="44.82995" lon="5.37596">
        <ele>1537.01</ele>
        <time>2017-10-17T11:53:52.000Z</time>
      </trkpt>
      <trkpt lat="44.82992" lon="5.37593">
        <ele>1536.78</ele>
        <time>2017-10-17T11:54:13.000Z</time>
      </trkpt>
      <trkpt lat="44.82981" lon="5.37565">
        <ele>1538.29</ele>
        <time>2017-10-17T11:54:23.000Z</time>
      </trkpt>
      <trkpt lat="44.8297" lon="5.37549">
        <ele>1538.66</ele>
        <time>2017-10-17T11:54:33.000Z</time>
      </trkpt>
      <trkpt lat="44.82969" lon="5.37535">
        <ele>1539.95</ele>
        <time>2017-10-17T11:54:43.000Z</time>
      </trkpt>
      <trkpt lat="44.82967" lon="5.37531">
        <ele>1540.16</ele>
        <time>2017-10-17T11:54:53.000Z</time>
      </trkpt>
      <trkpt lat="44.82967" lon="5.37529">
        <ele>1540.33</ele>
        <time>2017-10-17T11:55:03.000Z</time>
      </trkpt>
      <trkpt lat="44.82967" lon="5.37528">
        <ele>1540.41</ele>
        <time>2017-10-17T11:55:33.000Z</time>
      </trkpt>
      <trkpt lat="44.82965" lon="5.37528">
        <ele>1540.4</ele>
        <time>2017-10-17T11:55:46.000Z</time>
      </trkpt>
      <trkpt lat="44.82961" lon="5.37519">
        <ele>1540.92</ele>
        <time>2017-10-17T11:55:56.000Z</time>
      </trkpt>
      <trkpt lat="44.82952" lon="5.37513">
        <ele>1541.43</ele>
        <time>2017-10-17T11:56:06.000Z</time>
      </trkpt>
      <trkpt lat="44.82943" lon="5.37501">
        <ele>1542.19</ele>
        <time>2017-10-17T11:56:16.000Z</time>
      </trkpt>
      <trkpt lat="44.82931" lon="5.37493">
        <ele>1542.46</ele>
        <time>2017-10-17T11:56:26.000Z</time>
      </trkpt>
      <trkpt lat="44.82923" lon="5.37473">
        <ele>1542.08</ele>
        <time>2017-10-17T11:56:36.000Z</time>
      </trkpt>
      <trkpt lat="44.82915" lon="5.37471">
        <ele>1541.82</ele>
        <time>2017-10-17T11:56:46.000Z</time>
      </trkpt>
      <trkpt lat="44.82907" lon="5.37458">
        <ele>1540.88</ele>
        <time>2017-10-17T11:56:56.000Z</time>
      </trkpt>
      <trkpt lat="44.82902" lon="5.37447">
        <ele>1539.91</ele>
        <time>2017-10-17T11:57:06.000Z</time>
      </trkpt>
      <trkpt lat="44.82904" lon="5.37456">
        <ele>1540.6</ele>
        <time>2017-10-17T11:57:16.000Z</time>
      </trkpt>
      <trkpt lat="44.82897" lon="5.37448">
        <ele>1539.76</ele>
        <time>2017-10-17T11:57:26.000Z</time>
      </trkpt>
      <trkpt lat="44.82887" lon="5.37444">
        <ele>1538.97</ele>
        <time>2017-10-17T11:57:36.000Z</time>
      </trkpt>
      <trkpt lat="44.82877" lon="5.37446">
        <ele>1538.02</ele>
        <time>2017-10-17T11:57:46.000Z</time>
      </trkpt>
      <trkpt lat="44.82867" lon="5.37435">
        <ele>1537.37</ele>
        <time>2017-10-17T11:57:56.000Z</time>
      </trkpt>
      <trkpt lat="44.82858" lon="5.37423">
        <ele>1537.21</ele>
        <time>2017-10-17T11:58:06.000Z</time>
      </trkpt>
      <trkpt lat="44.82852" lon="5.37416">
        <ele>1537.15</ele>
        <time>2017-10-17T11:58:16.000Z</time>
      </trkpt>
      <trkpt lat="44.82845" lon="5.37411">
        <ele>1537.14</ele>
        <time>2017-10-17T11:58:26.000Z</time>
      </trkpt>
      <trkpt lat="44.82838" lon="5.37409">
        <ele>1537.21</ele>
        <time>2017-10-17T11:58:36.000Z</time>
      </trkpt>
      <trkpt lat="44.82829" lon="5.37407">
        <ele>1537.48</ele>
        <time>2017-10-17T11:58:46.000Z</time>
      </trkpt>
      <trkpt lat="44.8282" lon="5.37398">
        <ele>1538</ele>
        <time>2017-10-17T11:58:56.000Z</time>
      </trkpt>
      <trkpt lat="44.82812" lon="5.37398">
        <ele>1538.64</ele>
        <time>2017-10-17T11:59:06.000Z</time>
      </trkpt>
      <trkpt lat="44.82801" lon="5.37385">
        <ele>1539.57</ele>
        <time>2017-10-17T11:59:16.000Z</time>
      </trkpt>
      <trkpt lat="44.82793" lon="5.3739">
        <ele>1540.44</ele>
        <time>2017-10-17T11:59:26.000Z</time>
      </trkpt>
      <trkpt lat="44.82786" lon="5.3739">
        <ele>1540.99</ele>
        <time>2017-10-17T11:59:36.000Z</time>
      </trkpt>
      <trkpt lat="44.82784" lon="5.3739">
        <ele>1541.09</ele>
        <time>2017-10-17T11:59:46.000Z</time>
      </trkpt>
      <trkpt lat="44.82777" lon="5.37386">
        <ele>1541.57</ele>
        <time>2017-10-17T11:59:56.000Z</time>
      </trkpt>
      <trkpt lat="44.82776" lon="5.37384">
        <ele>1541.61</ele>
        <time>2017-10-17T12:00:07.000Z</time>
      </trkpt>
      <trkpt lat="44.82775" lon="5.37384">
        <ele>1541.67</ele>
        <time>2017-10-17T12:00:17.000Z</time>
      </trkpt>
      <trkpt lat="44.82772" lon="5.37385">
        <ele>1541.75</ele>
        <time>2017-10-17T12:00:31.000Z</time>
      </trkpt>
      <trkpt lat="44.82758" lon="5.37378">
        <ele>1541.74</ele>
        <time>2017-10-17T12:00:41.000Z</time>
      </trkpt>
      <trkpt lat="44.82752" lon="5.37381">
        <ele>1541.19</ele>
        <time>2017-10-17T12:00:51.000Z</time>
      </trkpt>
      <trkpt lat="44.8275" lon="5.37379">
        <ele>1541.18</ele>
        <time>2017-10-17T12:01:13.000Z</time>
      </trkpt>
      <trkpt lat="44.82732" lon="5.37361">
        <ele>1539.59</ele>
        <time>2017-10-17T12:01:23.000Z</time>
      </trkpt>
      <trkpt lat="44.82727" lon="5.37359">
        <ele>1539.03</ele>
        <time>2017-10-17T12:01:33.000Z</time>
      </trkpt>
      <trkpt lat="44.82719" lon="5.37355">
        <ele>1538.02</ele>
        <time>2017-10-17T12:01:43.000Z</time>
      </trkpt>
      <trkpt lat="44.82702" lon="5.37351">
        <ele>1535.39</ele>
        <time>2017-10-17T12:01:53.000Z</time>
      </trkpt>
      <trkpt lat="44.82695" lon="5.37352">
        <ele>1533.98</ele>
        <time>2017-10-17T12:02:03.000Z</time>
      </trkpt>
      <trkpt lat="44.8269" lon="5.37337">
        <ele>1534.39</ele>
        <time>2017-10-17T12:02:13.000Z</time>
      </trkpt>
      <trkpt lat="44.82685" lon="5.37325">
        <ele>1534.22</ele>
        <time>2017-10-17T12:02:23.000Z</time>
      </trkpt>
      <trkpt lat="44.82702" lon="5.37337">
        <ele>1536.52</ele>
        <time>2017-10-17T12:02:33.000Z</time>
      </trkpt>
      <trkpt lat="44.82688" lon="5.37326">
        <ele>1534.65</ele>
        <time>2017-10-17T12:02:43.000Z</time>
      </trkpt>
      <trkpt lat="44.82688" lon="5.37325">
        <ele>1534.82</ele>
        <time>2017-10-17T12:02:53.000Z</time>
      </trkpt>
      <trkpt lat="44.82687" lon="5.37323">
        <ele>1534.72</ele>
        <time>2017-10-17T12:03:03.000Z</time>
      </trkpt>
      <trkpt lat="44.82685" lon="5.37324">
        <ele>1534.3</ele>
        <time>2017-10-17T12:03:13.000Z</time>
      </trkpt>
      <trkpt lat="44.82684" lon="5.37327">
        <ele>1533.99</ele>
        <time>2017-10-17T12:03:23.000Z</time>
      </trkpt>
      <trkpt lat="44.82684" lon="5.37329">
        <ele>1533.87</ele>
        <time>2017-10-17T12:03:33.000Z</time>
      </trkpt>
      <trkpt lat="44.82683" lon="5.3733">
        <ele>1533.56</ele>
        <time>2017-10-17T12:03:55.000Z</time>
      </trkpt>
      <trkpt lat="44.82686" lon="5.3733">
        <ele>1534.17</ele>
        <time>2017-10-17T12:04:05.000Z</time>
      </trkpt>
      <trkpt lat="44.82687" lon="5.3733">
        <ele>1534.29</ele>
        <time>2017-10-17T12:04:16.000Z</time>
      </trkpt>
      <trkpt lat="44.82687" lon="5.37329">
        <ele>1534.49</ele>
        <time>2017-10-17T12:04:26.000Z</time>
      </trkpt>
      <trkpt lat="44.82686" lon="5.37327">
        <ele>1534.36</ele>
        <time>2017-10-17T12:06:59.000Z</time>
      </trkpt>
      <trkpt lat="44.82679" lon="5.3732">
        <ele>1533.26</ele>
        <time>2017-10-17T12:07:09.000Z</time>
      </trkpt>
      <trkpt lat="44.82669" lon="5.37318">
        <ele>1531.12</ele>
        <time>2017-10-17T12:07:19.000Z</time>
      </trkpt>
      <trkpt lat="44.82659" lon="5.37317">
        <ele>1528.3</ele>
        <time>2017-10-17T12:07:29.000Z</time>
      </trkpt>
      <trkpt lat="44.82655" lon="5.37308">
        <ele>1527.81</ele>
        <time>2017-10-17T12:07:39.000Z</time>
      </trkpt>
      <trkpt lat="44.82642" lon="5.37303">
        <ele>1524.46</ele>
        <time>2017-10-17T12:07:49.000Z</time>
      </trkpt>
      <trkpt lat="44.82635" lon="5.37294">
        <ele>1523.02</ele>
        <time>2017-10-17T12:07:59.000Z</time>
      </trkpt>
      <trkpt lat="44.82624" lon="5.37287">
        <ele>1520.83</ele>
        <time>2017-10-17T12:08:09.000Z</time>
      </trkpt>
      <trkpt lat="44.82619" lon="5.37286">
        <ele>1519.19</ele>
        <time>2017-10-17T12:08:19.000Z</time>
      </trkpt>
      <trkpt lat="44.82617" lon="5.37286">
        <ele>1518.62</ele>
        <time>2017-10-17T12:08:29.000Z</time>
      </trkpt>
      <trkpt lat="44.82616" lon="5.37282">
        <ele>1519.08</ele>
        <time>2017-10-17T12:08:39.000Z</time>
      </trkpt>
      <trkpt lat="44.8262" lon="5.37263">
        <ele>1522.86</ele>
        <time>2017-10-17T12:08:49.000Z</time>
      </trkpt>
      <trkpt lat="44.82621" lon="5.37247">
        <ele>1523.88</ele>
        <time>2017-10-17T12:08:59.000Z</time>
      </trkpt>
      <trkpt lat="44.82615" lon="5.37243">
        <ele>1523.13</ele>
        <time>2017-10-17T12:09:09.000Z</time>
      </trkpt>
      <trkpt lat="44.82613" lon="5.37244">
        <ele>1522.78</ele>
        <time>2017-10-17T12:09:19.000Z</time>
      </trkpt>
      <trkpt lat="44.82614" lon="5.37241">
        <ele>1522.93</ele>
        <time>2017-10-17T12:09:29.000Z</time>
      </trkpt>
      <trkpt lat="44.82614" lon="5.37236">
        <ele>1522.95</ele>
        <time>2017-10-17T12:09:39.000Z</time>
      </trkpt>
      <trkpt lat="44.82609" lon="5.37219">
        <ele>1521.88</ele>
        <time>2017-10-17T12:09:49.000Z</time>
      </trkpt>
      <trkpt lat="44.82605" lon="5.3721">
        <ele>1520.87</ele>
        <time>2017-10-17T12:09:59.000Z</time>
      </trkpt>
      <trkpt lat="44.82603" lon="5.37201">
        <ele>1520.07</ele>
        <time>2017-10-17T12:10:09.000Z</time>
      </trkpt>
      <trkpt lat="44.82597" lon="5.37193">
        <ele>1518.83</ele>
        <time>2017-10-17T12:10:19.000Z</time>
      </trkpt>
      <trkpt lat="44.82588" lon="5.37185">
        <ele>1517.22</ele>
        <time>2017-10-17T12:10:29.000Z</time>
      </trkpt>
      <trkpt lat="44.82575" lon="5.37173">
        <ele>1513.99</ele>
        <time>2017-10-17T12:10:39.000Z</time>
      </trkpt>
      <trkpt lat="44.82569" lon="5.37162">
        <ele>1512.26</ele>
        <time>2017-10-17T12:10:49.000Z</time>
      </trkpt>
      <trkpt lat="44.82561" lon="5.37151">
        <ele>1509.99</ele>
        <time>2017-10-17T12:10:59.000Z</time>
      </trkpt>
      <trkpt lat="44.82552" lon="5.37144">
        <ele>1508.15</ele>
        <time>2017-10-17T12:11:09.000Z</time>
      </trkpt>
      <trkpt lat="44.82542" lon="5.37137">
        <ele>1506.68</ele>
        <time>2017-10-17T12:11:19.000Z</time>
      </trkpt>
      <trkpt lat="44.82537" lon="5.37132">
        <ele>1506.33</ele>
        <time>2017-10-17T12:11:29.000Z</time>
      </trkpt>
      <trkpt lat="44.82537" lon="5.37126">
        <ele>1506.86</ele>
        <time>2017-10-17T12:11:39.000Z</time>
      </trkpt>
      <trkpt lat="44.82526" lon="5.37125">
        <ele>1505.67</ele>
        <time>2017-10-17T12:11:49.000Z</time>
      </trkpt>
      <trkpt lat="44.82513" lon="5.37118">
        <ele>1505.61</ele>
        <time>2017-10-17T12:11:59.000Z</time>
      </trkpt>
      <trkpt lat="44.82504" lon="5.37105">
        <ele>1507.99</ele>
        <time>2017-10-17T12:12:09.000Z</time>
      </trkpt>
      <trkpt lat="44.82492" lon="5.37095">
        <ele>1509.09</ele>
        <time>2017-10-17T12:12:19.000Z</time>
      </trkpt>
      <trkpt lat="44.82483" lon="5.37093">
        <ele>1508.24</ele>
        <time>2017-10-17T12:12:29.000Z</time>
      </trkpt>
      <trkpt lat="44.82474" lon="5.37091">
        <ele>1507.36</ele>
        <time>2017-10-17T12:12:39.000Z</time>
      </trkpt>
      <trkpt lat="44.82472" lon="5.37089">
        <ele>1507.45</ele>
        <time>2017-10-17T12:13:15.000Z</time>
      </trkpt>
      <trkpt lat="44.82463" lon="5.3708">
        <ele>1507.77</ele>
        <time>2017-10-17T12:13:25.000Z</time>
      </trkpt>
      <trkpt lat="44.82453" lon="5.37068">
        <ele>1507.87</ele>
        <time>2017-10-17T12:13:35.000Z</time>
      </trkpt>
      <trkpt lat="44.82444" lon="5.37065">
        <ele>1507.12</ele>
        <time>2017-10-17T12:13:45.000Z</time>
      </trkpt>
      <trkpt lat="44.82435" lon="5.37065">
        <ele>1505.44</ele>
        <time>2017-10-17T12:13:55.000Z</time>
      </trkpt>
      <trkpt lat="44.82426" lon="5.3706">
        <ele>1504.92</ele>
        <time>2017-10-17T12:14:05.000Z</time>
      </trkpt>
      <trkpt lat="44.82419" lon="5.37059">
        <ele>1503.53</ele>
        <time>2017-10-17T12:14:15.000Z</time>
      </trkpt>
      <trkpt lat="44.82408" lon="5.37042">
        <ele>1506.24</ele>
        <time>2017-10-17T12:14:25.000Z</time>
      </trkpt>
      <trkpt lat="44.82398" lon="5.37033">
        <ele>1506.41</ele>
        <time>2017-10-17T12:14:35.000Z</time>
      </trkpt>
      <trkpt lat="44.82391" lon="5.37028">
        <ele>1506.2</ele>
        <time>2017-10-17T12:14:45.000Z</time>
      </trkpt>
      <trkpt lat="44.82383" lon="5.37022">
        <ele>1506.1</ele>
        <time>2017-10-17T12:14:55.000Z</time>
      </trkpt>
      <trkpt lat="44.82382" lon="5.37024">
        <ele>1505.35</ele>
        <time>2017-10-17T12:15:05.000Z</time>
      </trkpt>
      <trkpt lat="44.82381" lon="5.37024">
        <ele>1504.8</ele>
        <time>2017-10-17T12:16:22.000Z</time>
      </trkpt>
      <trkpt lat="44.82382" lon="5.37025">
        <ele>1505.08</ele>
        <time>2017-10-17T12:16:32.000Z</time>
      </trkpt>
      <trkpt lat="44.82382" lon="5.37023">
        <ele>1505.57</ele>
        <time>2017-10-17T12:18:36.000Z</time>
      </trkpt>
      <trkpt lat="44.82383" lon="5.37023">
        <ele>1505.87</ele>
        <time>2017-10-17T12:18:47.000Z</time>
      </trkpt>
      <trkpt lat="44.82384" lon="5.37022">
        <ele>1506.27</ele>
        <time>2017-10-17T12:20:21.000Z</time>
      </trkpt>
      <trkpt lat="44.82387" lon="5.37025">
        <ele>1506.28</ele>
        <time>2017-10-17T12:20:56.000Z</time>
      </trkpt>
      <trkpt lat="44.82397" lon="5.37033">
        <ele>1506.13</ele>
        <time>2017-10-17T12:21:06.000Z</time>
      </trkpt>
      <trkpt lat="44.82402" lon="5.37037">
        <ele>1506.1</ele>
        <time>2017-10-17T12:21:16.000Z</time>
      </trkpt>
      <trkpt lat="44.82404" lon="5.37035">
        <ele>1507.24</ele>
        <time>2017-10-17T12:21:26.000Z</time>
      </trkpt>
      <trkpt lat="44.82406" lon="5.37037">
        <ele>1507.16</ele>
        <time>2017-10-17T12:21:36.000Z</time>
      </trkpt>
      <trkpt lat="44.82407" lon="5.37038">
        <ele>1507.12</ele>
        <time>2017-10-17T12:21:49.000Z</time>
      </trkpt>
      <trkpt lat="44.82414" lon="5.37045">
        <ele>1506.62</ele>
        <time>2017-10-17T12:21:59.000Z</time>
      </trkpt>
      <trkpt lat="44.82424" lon="5.37047">
        <ele>1507.71</ele>
        <time>2017-10-17T12:22:09.000Z</time>
      </trkpt>
      <trkpt lat="44.82434" lon="5.37054">
        <ele>1507.61</ele>
        <time>2017-10-17T12:22:19.000Z</time>
      </trkpt>
      <trkpt lat="44.8244" lon="5.37059">
        <ele>1507.66</ele>
        <time>2017-10-17T12:22:29.000Z</time>
      </trkpt>
      <trkpt lat="44.82447" lon="5.37068">
        <ele>1507.05</ele>
        <time>2017-10-17T12:22:39.000Z</time>
      </trkpt>
      <trkpt lat="44.82459" lon="5.37074">
        <ele>1508.04</ele>
        <time>2017-10-17T12:22:49.000Z</time>
      </trkpt>
      <trkpt lat="44.82464" lon="5.37088">
        <ele>1506.32</ele>
        <time>2017-10-17T12:22:59.000Z</time>
      </trkpt>
      <trkpt lat="44.82469" lon="5.37092">
        <ele>1506.32</ele>
        <time>2017-10-17T12:23:09.000Z</time>
      </trkpt>
      <trkpt lat="44.82472" lon="5.37093">
        <ele>1506.47</ele>
        <time>2017-10-17T12:23:29.000Z</time>
      </trkpt>
      <trkpt lat="44.82478" lon="5.37097">
        <ele>1506.6</ele>
        <time>2017-10-17T12:23:39.000Z</time>
      </trkpt>
      <trkpt lat="44.82489" lon="5.371">
        <ele>1507.51</ele>
        <time>2017-10-17T12:23:49.000Z</time>
      </trkpt>
      <trkpt lat="44.82499" lon="5.37107">
        <ele>1507.02</ele>
        <time>2017-10-17T12:23:59.000Z</time>
      </trkpt>
      <trkpt lat="44.82509" lon="5.37114">
        <ele>1506.18</ele>
        <time>2017-10-17T12:24:09.000Z</time>
      </trkpt>
      <trkpt lat="44.82521" lon="5.37116">
        <ele>1506.92</ele>
        <time>2017-10-17T12:24:19.000Z</time>
      </trkpt>
      <trkpt lat="44.8253" lon="5.37122">
        <ele>1506.68</ele>
        <time>2017-10-17T12:24:29.000Z</time>
      </trkpt>
      <trkpt lat="44.8254" lon="5.3713">
        <ele>1506.77</ele>
        <time>2017-10-17T12:24:39.000Z</time>
      </trkpt>
      <trkpt lat="44.82546" lon="5.37139">
        <ele>1507.08</ele>
        <time>2017-10-17T12:24:49.000Z</time>
      </trkpt>
      <trkpt lat="44.82556" lon="5.37149">
        <ele>1508.79</ele>
        <time>2017-10-17T12:24:59.000Z</time>
      </trkpt>
      <trkpt lat="44.82565" lon="5.37156">
        <ele>1511.12</ele>
        <time>2017-10-17T12:25:09.000Z</time>
      </trkpt>
      <trkpt lat="44.82577" lon="5.37164">
        <ele>1513.81</ele>
        <time>2017-10-17T12:25:19.000Z</time>
      </trkpt>
      <trkpt lat="44.82583" lon="5.37171">
        <ele>1515.25</ele>
        <time>2017-10-17T12:25:29.000Z</time>
      </trkpt>
      <trkpt lat="44.82591" lon="5.37185">
        <ele>1517.49</ele>
        <time>2017-10-17T12:25:39.000Z</time>
      </trkpt>
      <trkpt lat="44.82597" lon="5.37198">
        <ele>1519.3</ele>
        <time>2017-10-17T12:25:49.000Z</time>
      </trkpt>
      <trkpt lat="44.82606" lon="5.37208">
        <ele>1520.86</ele>
        <time>2017-10-17T12:25:59.000Z</time>
      </trkpt>
      <trkpt lat="44.82611" lon="5.37212">
        <ele>1521.51</ele>
        <time>2017-10-17T12:26:09.000Z</time>
      </trkpt>
      <trkpt lat="44.82626" lon="5.37204">
        <ele>1520.6</ele>
        <time>2017-10-17T12:26:19.000Z</time>
      </trkpt>
      <trkpt lat="44.82628" lon="5.37229">
        <ele>1523.84</ele>
        <time>2017-10-17T12:26:29.000Z</time>
      </trkpt>
      <trkpt lat="44.82633" lon="5.37235">
        <ele>1524.52</ele>
        <time>2017-10-17T12:26:39.000Z</time>
      </trkpt>
      <trkpt lat="44.82641" lon="5.37245">
        <ele>1525.62</ele>
        <time>2017-10-17T12:26:49.000Z</time>
      </trkpt>
      <trkpt lat="44.82646" lon="5.37254">
        <ele>1526.46</ele>
        <time>2017-10-17T12:26:59.000Z</time>
      </trkpt>
      <trkpt lat="44.82654" lon="5.37257">
        <ele>1527.22</ele>
        <time>2017-10-17T12:27:09.000Z</time>
      </trkpt>
      <trkpt lat="44.82661" lon="5.37267">
        <ele>1528.58</ele>
        <time>2017-10-17T12:27:19.000Z</time>
      </trkpt>
      <trkpt lat="44.82665" lon="5.37279">
        <ele>1529.81</ele>
        <time>2017-10-17T12:27:29.000Z</time>
      </trkpt>
      <trkpt lat="44.82668" lon="5.37284">
        <ele>1530.62</ele>
        <time>2017-10-17T12:27:39.000Z</time>
      </trkpt>
      <trkpt lat="44.82669" lon="5.37286">
        <ele>1530.95</ele>
        <time>2017-10-17T12:27:49.000Z</time>
      </trkpt>
      <trkpt lat="44.82671" lon="5.37291">
        <ele>1531.41</ele>
        <time>2017-10-17T12:28:01.000Z</time>
      </trkpt>
      <trkpt lat="44.82684" lon="5.37302">
        <ele>1533.74</ele>
        <time>2017-10-17T12:28:11.000Z</time>
      </trkpt>
      <trkpt lat="44.82694" lon="5.37309">
        <ele>1535.17</ele>
        <time>2017-10-17T12:28:21.000Z</time>
      </trkpt>
      <trkpt lat="44.82698" lon="5.37314">
        <ele>1535.79</ele>
        <time>2017-10-17T12:28:31.000Z</time>
      </trkpt>
      <trkpt lat="44.82701" lon="5.37331">
        <ele>1536.52</ele>
        <time>2017-10-17T12:28:41.000Z</time>
      </trkpt>
      <trkpt lat="44.82713" lon="5.37336">
        <ele>1537.82</ele>
        <time>2017-10-17T12:28:51.000Z</time>
      </trkpt>
      <trkpt lat="44.82721" lon="5.37353">
        <ele>1538.41</ele>
        <time>2017-10-17T12:29:01.000Z</time>
      </trkpt>
      <trkpt lat="44.82727" lon="5.3736">
        <ele>1538.96</ele>
        <time>2017-10-17T12:29:11.000Z</time>
      </trkpt>
      <trkpt lat="44.82733" lon="5.3736">
        <ele>1539.63</ele>
        <time>2017-10-17T12:29:21.000Z</time>
      </trkpt>
      <trkpt lat="44.82732" lon="5.37361">
        <ele>1539.52</ele>
        <time>2017-10-17T12:29:31.000Z</time>
      </trkpt>
      <trkpt lat="44.82731" lon="5.37362">
        <ele>1539.43</ele>
        <time>2017-10-17T12:29:45.000Z</time>
      </trkpt>
      <trkpt lat="44.82732" lon="5.37361">
        <ele>1539.58</ele>
        <time>2017-10-17T12:29:55.000Z</time>
      </trkpt>
      <trkpt lat="44.82732" lon="5.37363">
        <ele>1539.56</ele>
        <time>2017-10-17T12:30:05.000Z</time>
      </trkpt>
      <trkpt lat="44.82735" lon="5.37364">
        <ele>1539.82</ele>
        <time>2017-10-17T12:30:33.000Z</time>
      </trkpt>
      <trkpt lat="44.82751" lon="5.3738">
        <ele>1541.21</ele>
        <time>2017-10-17T12:30:43.000Z</time>
      </trkpt>
      <trkpt lat="44.82757" lon="5.37384">
        <ele>1541.48</ele>
        <time>2017-10-17T12:30:53.000Z</time>
      </trkpt>
      <trkpt lat="44.82758" lon="5.37385">
        <ele>1541.49</ele>
        <time>2017-10-17T12:31:40.000Z</time>
      </trkpt>
      <trkpt lat="44.82773" lon="5.3739">
        <ele>1541.57</ele>
        <time>2017-10-17T12:31:50.000Z</time>
      </trkpt>
      <trkpt lat="44.82781" lon="5.37392">
        <ele>1541.22</ele>
        <time>2017-10-17T12:32:00.000Z</time>
      </trkpt>
      <trkpt lat="44.82785" lon="5.37391">
        <ele>1541.05</ele>
        <time>2017-10-17T12:32:10.000Z</time>
      </trkpt>
      <trkpt lat="44.82793" lon="5.37389">
        <ele>1540.46</ele>
        <time>2017-10-17T12:32:20.000Z</time>
      </trkpt>
      <trkpt lat="44.82803" lon="5.37389">
        <ele>1539.47</ele>
        <time>2017-10-17T12:32:30.000Z</time>
      </trkpt>
      <trkpt lat="44.82811" lon="5.37394">
        <ele>1538.74</ele>
        <time>2017-10-17T12:32:40.000Z</time>
      </trkpt>
      <trkpt lat="44.82817" lon="5.37402">
        <ele>1538.25</ele>
        <time>2017-10-17T12:32:50.000Z</time>
      </trkpt>
      <trkpt lat="44.82827" lon="5.37405">
        <ele>1537.55</ele>
        <time>2017-10-17T12:33:00.000Z</time>
      </trkpt>
      <trkpt lat="44.82832" lon="5.37409">
        <ele>1537.32</ele>
        <time>2017-10-17T12:33:10.000Z</time>
      </trkpt>
      <trkpt lat="44.82842" lon="5.37409">
        <ele>1537.15</ele>
        <time>2017-10-17T12:33:20.000Z</time>
      </trkpt>
      <trkpt lat="44.82853" lon="5.3742">
        <ele>1537.12</ele>
        <time>2017-10-17T12:33:30.000Z</time>
      </trkpt>
      <trkpt lat="44.82859" lon="5.37435">
        <ele>1536.77</ele>
        <time>2017-10-17T12:33:40.000Z</time>
      </trkpt>
      <trkpt lat="44.82873" lon="5.37436">
        <ele>1537.83</ele>
        <time>2017-10-17T12:33:50.000Z</time>
      </trkpt>
      <trkpt lat="44.8288" lon="5.3744">
        <ele>1538.33</ele>
        <time>2017-10-17T12:34:00.000Z</time>
      </trkpt>
      <trkpt lat="44.82883" lon="5.37445">
        <ele>1538.65</ele>
        <time>2017-10-17T12:34:10.000Z</time>
      </trkpt>
      <trkpt lat="44.82887" lon="5.37448">
        <ele>1539.03</ele>
        <time>2017-10-17T12:34:23.000Z</time>
      </trkpt>
      <trkpt lat="44.82898" lon="5.37456">
        <ele>1540.17</ele>
        <time>2017-10-17T12:34:33.000Z</time>
      </trkpt>
      <trkpt lat="44.82903" lon="5.37459">
        <ele>1540.65</ele>
        <time>2017-10-17T12:34:43.000Z</time>
      </trkpt>
      <trkpt lat="44.82917" lon="5.37473">
        <ele>1541.99</ele>
        <time>2017-10-17T12:34:53.000Z</time>
      </trkpt>
      <trkpt lat="44.82926" lon="5.3748">
        <ele>1542.36</ele>
        <time>2017-10-17T12:35:03.000Z</time>
      </trkpt>
      <trkpt lat="44.82934" lon="5.37491">
        <ele>1542.49</ele>
        <time>2017-10-17T12:35:13.000Z</time>
      </trkpt>
      <trkpt lat="44.82941" lon="5.37494">
        <ele>1542.36</ele>
        <time>2017-10-17T12:35:23.000Z</time>
      </trkpt>
      <trkpt lat="44.82942" lon="5.37499">
        <ele>1542.28</ele>
        <time>2017-10-17T12:35:33.000Z</time>
      </trkpt>
      <trkpt lat="44.82945" lon="5.37512">
        <ele>1541.45</ele>
        <time>2017-10-17T12:35:43.000Z</time>
      </trkpt>
      <trkpt lat="44.82946" lon="5.37512">
        <ele>1541.46</ele>
        <time>2017-10-17T12:35:53.000Z</time>
      </trkpt>
      <trkpt lat="44.82948" lon="5.37515">
        <ele>1541.25</ele>
        <time>2017-10-17T12:36:10.000Z</time>
      </trkpt>
      <trkpt lat="44.82957" lon="5.37521">
        <ele>1540.83</ele>
        <time>2017-10-17T12:36:20.000Z</time>
      </trkpt>
      <trkpt lat="44.82968" lon="5.37531">
        <ele>1540.21</ele>
        <time>2017-10-17T12:36:30.000Z</time>
      </trkpt>
      <trkpt lat="44.82975" lon="5.37539">
        <ele>1539.88</ele>
        <time>2017-10-17T12:36:40.000Z</time>
      </trkpt>
      <trkpt lat="44.82978" lon="5.37548">
        <ele>1539.48</ele>
        <time>2017-10-17T12:36:50.000Z</time>
      </trkpt>
      <trkpt lat="44.82983" lon="5.37557">
        <ele>1539.25</ele>
        <time>2017-10-17T12:37:00.000Z</time>
      </trkpt>
      <trkpt lat="44.82988" lon="5.37566">
        <ele>1539.11</ele>
        <time>2017-10-17T12:37:10.000Z</time>
      </trkpt>
      <trkpt lat="44.82996" lon="5.3758">
        <ele>1538.9</ele>
        <time>2017-10-17T12:37:20.000Z</time>
      </trkpt>
      <trkpt lat="44.83001" lon="5.37591">
        <ele>1538.3</ele>
        <time>2017-10-17T12:37:30.000Z</time>
      </trkpt>
      <trkpt lat="44.83006" lon="5.37602">
        <ele>1537.67</ele>
        <time>2017-10-17T12:37:40.000Z</time>
      </trkpt>
      <trkpt lat="44.83009" lon="5.3761">
        <ele>1537.05</ele>
        <time>2017-10-17T12:37:50.000Z</time>
      </trkpt>
      <trkpt lat="44.83008" lon="5.37611">
        <ele>1536.85</ele>
        <time>2017-10-17T12:38:02.000Z</time>
      </trkpt>
      <trkpt lat="44.83009" lon="5.37609">
        <ele>1537.23</ele>
        <time>2017-10-17T12:38:15.000Z</time>
      </trkpt>
      <trkpt lat="44.83018" lon="5.37625">
        <ele>1535.61</ele>
        <time>2017-10-17T12:38:25.000Z</time>
      </trkpt>
      <trkpt lat="44.83029" lon="5.3763">
        <ele>1535.56</ele>
        <time>2017-10-17T12:38:35.000Z</time>
      </trkpt>
      <trkpt lat="44.83041" lon="5.37634">
        <ele>1535.29</ele>
        <time>2017-10-17T12:38:45.000Z</time>
      </trkpt>
      <trkpt lat="44.83054" lon="5.37648">
        <ele>1533.53</ele>
        <time>2017-10-17T12:38:55.000Z</time>
      </trkpt>
      <trkpt lat="44.83068" lon="5.37645">
        <ele>1533.68</ele>
        <time>2017-10-17T12:39:05.000Z</time>
      </trkpt>
      <trkpt lat="44.83077" lon="5.37648">
        <ele>1533.28</ele>
        <time>2017-10-17T12:39:15.000Z</time>
      </trkpt>
      <trkpt lat="44.83088" lon="5.37656">
        <ele>1532.45</ele>
        <time>2017-10-17T12:39:25.000Z</time>
      </trkpt>
      <trkpt lat="44.83093" lon="5.37663">
        <ele>1531.53</ele>
        <time>2017-10-17T12:39:35.000Z</time>
      </trkpt>
      <trkpt lat="44.831" lon="5.37671">
        <ele>1530.3</ele>
        <time>2017-10-17T12:39:45.000Z</time>
      </trkpt>
      <trkpt lat="44.831" lon="5.37673">
        <ele>1530.12</ele>
        <time>2017-10-17T12:39:57.000Z</time>
      </trkpt>
      <trkpt lat="44.83101" lon="5.37674">
        <ele>1529.81</ele>
        <time>2017-10-17T12:41:30.000Z</time>
      </trkpt>
      <trkpt lat="44.83108" lon="5.37677">
        <ele>1529.27</ele>
        <time>2017-10-17T12:41:40.000Z</time>
      </trkpt>
      <trkpt lat="44.8312" lon="5.37675">
        <ele>1529.04</ele>
        <time>2017-10-17T12:41:50.000Z</time>
      </trkpt>
      <trkpt lat="44.83133" lon="5.3768">
        <ele>1527.84</ele>
        <time>2017-10-17T12:42:00.000Z</time>
      </trkpt>
      <trkpt lat="44.8314" lon="5.37681">
        <ele>1527.41</ele>
        <time>2017-10-17T12:42:10.000Z</time>
      </trkpt>
      <trkpt lat="44.83148" lon="5.37687">
        <ele>1526.49</ele>
        <time>2017-10-17T12:42:20.000Z</time>
      </trkpt>
      <trkpt lat="44.83158" lon="5.37691">
        <ele>1525.99</ele>
        <time>2017-10-17T12:42:30.000Z</time>
      </trkpt>
      <trkpt lat="44.83169" lon="5.3769">
        <ele>1526.18</ele>
        <time>2017-10-17T12:42:40.000Z</time>
      </trkpt>
      <trkpt lat="44.83179" lon="5.37692">
        <ele>1526.2</ele>
        <time>2017-10-17T12:42:50.000Z</time>
      </trkpt>
      <trkpt lat="44.83187" lon="5.37696">
        <ele>1526.14</ele>
        <time>2017-10-17T12:43:00.000Z</time>
      </trkpt>
      <trkpt lat="44.83194" lon="5.37696">
        <ele>1526.26</ele>
        <time>2017-10-17T12:43:10.000Z</time>
      </trkpt>
      <trkpt lat="44.83201" lon="5.37697">
        <ele>1526.38</ele>
        <time>2017-10-17T12:43:20.000Z</time>
      </trkpt>
      <trkpt lat="44.83208" lon="5.37696">
        <ele>1526.57</ele>
        <time>2017-10-17T12:43:30.000Z</time>
      </trkpt>
      <trkpt lat="44.83218" lon="5.3771">
        <ele>1525.86</ele>
        <time>2017-10-17T12:43:40.000Z</time>
      </trkpt>
      <trkpt lat="44.83228" lon="5.37706">
        <ele>1526.35</ele>
        <time>2017-10-17T12:43:50.000Z</time>
      </trkpt>
      <trkpt lat="44.83235" lon="5.37709">
        <ele>1526.24</ele>
        <time>2017-10-17T12:44:00.000Z</time>
      </trkpt>
      <trkpt lat="44.83244" lon="5.37713">
        <ele>1526.19</ele>
        <time>2017-10-17T12:44:10.000Z</time>
      </trkpt>
      <trkpt lat="44.83257" lon="5.37715">
        <ele>1526.49</ele>
        <time>2017-10-17T12:44:20.000Z</time>
      </trkpt>
      <trkpt lat="44.83264" lon="5.37717">
        <ele>1526.73</ele>
        <time>2017-10-17T12:44:30.000Z</time>
      </trkpt>
      <trkpt lat="44.83274" lon="5.37716">
        <ele>1527.29</ele>
        <time>2017-10-17T12:44:40.000Z</time>
      </trkpt>
      <trkpt lat="44.83283" lon="5.37719">
        <ele>1527.69</ele>
        <time>2017-10-17T12:44:50.000Z</time>
      </trkpt>
      <trkpt lat="44.83293" lon="5.37722">
        <ele>1528.25</ele>
        <time>2017-10-17T12:45:00.000Z</time>
      </trkpt>
      <trkpt lat="44.83301" lon="5.37722">
        <ele>1528.75</ele>
        <time>2017-10-17T12:45:10.000Z</time>
      </trkpt>
      <trkpt lat="44.83306" lon="5.37722">
        <ele>1529.05</ele>
        <time>2017-10-17T12:45:20.000Z</time>
      </trkpt>
      <trkpt lat="44.83318" lon="5.37725">
        <ele>1529.6</ele>
        <time>2017-10-17T12:45:30.000Z</time>
      </trkpt>
      <trkpt lat="44.83329" lon="5.37725">
        <ele>1529.96</ele>
        <time>2017-10-17T12:45:40.000Z</time>
      </trkpt>
      <trkpt lat="44.83339" lon="5.37723">
        <ele>1529.97</ele>
        <time>2017-10-17T12:45:50.000Z</time>
      </trkpt>
      <trkpt lat="44.83349" lon="5.37728">
        <ele>1529.88</ele>
        <time>2017-10-17T12:46:00.000Z</time>
      </trkpt>
      <trkpt lat="44.83355" lon="5.37736">
        <ele>1529.62</ele>
        <time>2017-10-17T12:46:10.000Z</time>
      </trkpt>
      <trkpt lat="44.83369" lon="5.3774">
        <ele>1528.95</ele>
        <time>2017-10-17T12:46:20.000Z</time>
      </trkpt>
      <trkpt lat="44.83379" lon="5.37745">
        <ele>1528.19</ele>
        <time>2017-10-17T12:46:30.000Z</time>
      </trkpt>
      <trkpt lat="44.83385" lon="5.37744">
        <ele>1527.93</ele>
        <time>2017-10-17T12:46:40.000Z</time>
      </trkpt>
      <trkpt lat="44.83394" lon="5.37745">
        <ele>1527.51</ele>
        <time>2017-10-17T12:46:50.000Z</time>
      </trkpt>
      <trkpt lat="44.83406" lon="5.37741">
        <ele>1527.24</ele>
        <time>2017-10-17T12:47:00.000Z</time>
      </trkpt>
      <trkpt lat="44.83416" lon="5.37748">
        <ele>1527.04</ele>
        <time>2017-10-17T12:47:10.000Z</time>
      </trkpt>
      <trkpt lat="44.83427" lon="5.37751">
        <ele>1527.26</ele>
        <time>2017-10-17T12:47:20.000Z</time>
      </trkpt>
      <trkpt lat="44.83437" lon="5.37754">
        <ele>1527.81</ele>
        <time>2017-10-17T12:47:30.000Z</time>
      </trkpt>
      <trkpt lat="44.83449" lon="5.37757">
        <ele>1528.67</ele>
        <time>2017-10-17T12:47:40.000Z</time>
      </trkpt>
      <trkpt lat="44.83457" lon="5.37764">
        <ele>1529.26</ele>
        <time>2017-10-17T12:47:50.000Z</time>
      </trkpt>
      <trkpt lat="44.83467" lon="5.3777">
        <ele>1530.02</ele>
        <time>2017-10-17T12:48:00.000Z</time>
      </trkpt>
      <trkpt lat="44.83476" lon="5.37775">
        <ele>1530.62</ele>
        <time>2017-10-17T12:48:10.000Z</time>
      </trkpt>
      <trkpt lat="44.83485" lon="5.37777">
        <ele>1531.18</ele>
        <time>2017-10-17T12:48:20.000Z</time>
      </trkpt>
      <trkpt lat="44.83496" lon="5.37778">
        <ele>1531.62</ele>
        <time>2017-10-17T12:48:30.000Z</time>
      </trkpt>
      <trkpt lat="44.83506" lon="5.37783">
        <ele>1531.61</ele>
        <time>2017-10-17T12:48:40.000Z</time>
      </trkpt>
      <trkpt lat="44.83517" lon="5.37784">
        <ele>1531.46</ele>
        <time>2017-10-17T12:48:50.000Z</time>
      </trkpt>
      <trkpt lat="44.83525" lon="5.37786">
        <ele>1531.25</ele>
        <time>2017-10-17T12:49:00.000Z</time>
      </trkpt>
      <trkpt lat="44.83523" lon="5.37779">
        <ele>1531.17</ele>
        <time>2017-10-17T12:49:10.000Z</time>
      </trkpt>
      <trkpt lat="44.83524" lon="5.37785">
        <ele>1531.26</ele>
        <time>2017-10-17T12:49:20.000Z</time>
      </trkpt>
      <trkpt lat="44.83534" lon="5.37786">
        <ele>1530.9</ele>
        <time>2017-10-17T12:49:30.000Z</time>
      </trkpt>
      <trkpt lat="44.83543" lon="5.37789">
        <ele>1530.55</ele>
        <time>2017-10-17T12:49:40.000Z</time>
      </trkpt>
      <trkpt lat="44.83544" lon="5.37788">
        <ele>1530.42</ele>
        <time>2017-10-17T12:49:50.000Z</time>
      </trkpt>
      <trkpt lat="44.83547" lon="5.3779">
        <ele>1530.36</ele>
        <time>2017-10-17T12:50:00.000Z</time>
      </trkpt>
      <trkpt lat="44.83551" lon="5.37787">
        <ele>1529.91</ele>
        <time>2017-10-17T12:50:10.000Z</time>
      </trkpt>
      <trkpt lat="44.83561" lon="5.37793">
        <ele>1529.65</ele>
        <time>2017-10-17T12:50:20.000Z</time>
      </trkpt>
      <trkpt lat="44.83565" lon="5.37795">
        <ele>1529.53</ele>
        <time>2017-10-17T12:50:30.000Z</time>
      </trkpt>
      <trkpt lat="44.83564" lon="5.37796">
        <ele>1529.66</ele>
        <time>2017-10-17T12:50:40.000Z</time>
      </trkpt>
      <trkpt lat="44.83566" lon="5.37798">
        <ele>1529.66</ele>
        <time>2017-10-17T12:50:58.000Z</time>
      </trkpt>
      <trkpt lat="44.83587" lon="5.37802">
        <ele>1528.36</ele>
        <time>2017-10-17T12:51:08.000Z</time>
      </trkpt>
      <trkpt lat="44.83603" lon="5.37807">
        <ele>1526.88</ele>
        <time>2017-10-17T12:51:18.000Z</time>
      </trkpt>
      <trkpt lat="44.83612" lon="5.37812">
        <ele>1525.79</ele>
        <time>2017-10-17T12:51:28.000Z</time>
      </trkpt>
      <trkpt lat="44.83623" lon="5.37822">
        <ele>1524.41</ele>
        <time>2017-10-17T12:51:38.000Z</time>
      </trkpt>
      <trkpt lat="44.83638" lon="5.37827">
        <ele>1522.07</ele>
        <time>2017-10-17T12:51:48.000Z</time>
      </trkpt>
      <trkpt lat="44.83649" lon="5.37832">
        <ele>1520.66</ele>
        <time>2017-10-17T12:51:58.000Z</time>
      </trkpt>
      <trkpt lat="44.8366" lon="5.37838">
        <ele>1519.59</ele>
        <time>2017-10-17T12:52:08.000Z</time>
      </trkpt>
      <trkpt lat="44.83673" lon="5.3784">
        <ele>1518.96</ele>
        <time>2017-10-17T12:52:18.000Z</time>
      </trkpt>
      <trkpt lat="44.83685" lon="5.37849">
        <ele>1519.37</ele>
        <time>2017-10-17T12:52:28.000Z</time>
      </trkpt>
      <trkpt lat="44.83695" lon="5.37854">
        <ele>1520.07</ele>
        <time>2017-10-17T12:52:38.000Z</time>
      </trkpt>
      <trkpt lat="44.83707" lon="5.37864">
        <ele>1521.28</ele>
        <time>2017-10-17T12:52:48.000Z</time>
      </trkpt>
      <trkpt lat="44.83724" lon="5.37869">
        <ele>1522.69</ele>
        <time>2017-10-17T12:52:58.000Z</time>
      </trkpt>
      <trkpt lat="44.83736" lon="5.37875">
        <ele>1523.42</ele>
        <time>2017-10-17T12:53:08.000Z</time>
      </trkpt>
      <trkpt lat="44.83747" lon="5.3788">
        <ele>1523.53</ele>
        <time>2017-10-17T12:53:18.000Z</time>
      </trkpt>
      <trkpt lat="44.83759" lon="5.37888">
        <ele>1522.91</ele>
        <time>2017-10-17T12:53:28.000Z</time>
      </trkpt>
      <trkpt lat="44.83771" lon="5.37898">
        <ele>1521.44</ele>
        <time>2017-10-17T12:53:38.000Z</time>
      </trkpt>
      <trkpt lat="44.83784" lon="5.37907">
        <ele>1519.13</ele>
        <time>2017-10-17T12:53:48.000Z</time>
      </trkpt>
      <trkpt lat="44.83792" lon="5.3792">
        <ele>1517.47</ele>
        <time>2017-10-17T12:53:58.000Z</time>
      </trkpt>
      <trkpt lat="44.838" lon="5.37933">
        <ele>1515.98</ele>
        <time>2017-10-17T12:54:08.000Z</time>
      </trkpt>
      <trkpt lat="44.83812" lon="5.37939">
        <ele>1514.02</ele>
        <time>2017-10-17T12:54:18.000Z</time>
      </trkpt>
      <trkpt lat="44.8382" lon="5.37944">
        <ele>1512.88</ele>
        <time>2017-10-17T12:54:28.000Z</time>
      </trkpt>
      <trkpt lat="44.83823" lon="5.37952">
        <ele>1512.67</ele>
        <time>2017-10-17T12:54:38.000Z</time>
      </trkpt>
      <trkpt lat="44.83824" lon="5.37953">
        <ele>1512.61</ele>
        <time>2017-10-17T12:54:49.000Z</time>
      </trkpt>
      <trkpt lat="44.83827" lon="5.37969">
        <ele>1512.59</ele>
        <time>2017-10-17T12:54:59.000Z</time>
      </trkpt>
      <trkpt lat="44.83829" lon="5.37979">
        <ele>1512.49</ele>
        <time>2017-10-17T12:55:09.000Z</time>
      </trkpt>
      <trkpt lat="44.8383" lon="5.37988">
        <ele>1512.4</ele>
        <time>2017-10-17T12:55:19.000Z</time>
      </trkpt>
      <trkpt lat="44.8383" lon="5.38">
        <ele>1512.16</ele>
        <time>2017-10-17T12:55:29.000Z</time>
      </trkpt>
      <trkpt lat="44.83833" lon="5.38012">
        <ele>1511.52</ele>
        <time>2017-10-17T12:55:39.000Z</time>
      </trkpt>
      <trkpt lat="44.83838" lon="5.38023">
        <ele>1510.49</ele>
        <time>2017-10-17T12:55:49.000Z</time>
      </trkpt>
      <trkpt lat="44.83844" lon="5.38035">
        <ele>1509</ele>
        <time>2017-10-17T12:55:59.000Z</time>
      </trkpt>
      <trkpt lat="44.83847" lon="5.38049">
        <ele>1507.37</ele>
        <time>2017-10-17T12:56:09.000Z</time>
      </trkpt>
      <trkpt lat="44.83853" lon="5.38063">
        <ele>1505.27</ele>
        <time>2017-10-17T12:56:19.000Z</time>
      </trkpt>
      <trkpt lat="44.83859" lon="5.38075">
        <ele>1503.08</ele>
        <time>2017-10-17T12:56:29.000Z</time>
      </trkpt>
      <trkpt lat="44.83866" lon="5.38086">
        <ele>1501.02</ele>
        <time>2017-10-17T12:56:39.000Z</time>
      </trkpt>
      <trkpt lat="44.83873" lon="5.38099">
        <ele>1498.9</ele>
        <time>2017-10-17T12:56:49.000Z</time>
      </trkpt>
      <trkpt lat="44.83878" lon="5.38115">
        <ele>1497.48</ele>
        <time>2017-10-17T12:56:59.000Z</time>
      </trkpt>
      <trkpt lat="44.83885" lon="5.38127">
        <ele>1495.63</ele>
        <time>2017-10-17T12:57:09.000Z</time>
      </trkpt>
      <trkpt lat="44.83892" lon="5.38139">
        <ele>1493.93</ele>
        <time>2017-10-17T12:57:19.000Z</time>
      </trkpt>
      <trkpt lat="44.83899" lon="5.38153">
        <ele>1492.22</ele>
        <time>2017-10-17T12:57:29.000Z</time>
      </trkpt>
      <trkpt lat="44.83907" lon="5.38162">
        <ele>1490.52</ele>
        <time>2017-10-17T12:57:39.000Z</time>
      </trkpt>
      <trkpt lat="44.83912" lon="5.38174">
        <ele>1489.06</ele>
        <time>2017-10-17T12:57:49.000Z</time>
      </trkpt>
      <trkpt lat="44.83918" lon="5.38187">
        <ele>1487.58</ele>
        <time>2017-10-17T12:57:59.000Z</time>
      </trkpt>
      <trkpt lat="44.83924" lon="5.38197">
        <ele>1486.46</ele>
        <time>2017-10-17T12:58:09.000Z</time>
      </trkpt>
      <trkpt lat="44.83931" lon="5.38204">
        <ele>1485.62</ele>
        <time>2017-10-17T12:58:19.000Z</time>
      </trkpt>
      <trkpt lat="44.83937" lon="5.38217">
        <ele>1484.41</ele>
        <time>2017-10-17T12:58:29.000Z</time>
      </trkpt>
      <trkpt lat="44.8394" lon="5.38227">
        <ele>1483.53</ele>
        <time>2017-10-17T12:58:39.000Z</time>
      </trkpt>
      <trkpt lat="44.8394" lon="5.38232">
        <ele>1483.02</ele>
        <time>2017-10-17T12:58:59.000Z</time>
      </trkpt>
      <trkpt lat="44.83944" lon="5.3825">
        <ele>1480.89</ele>
        <time>2017-10-17T12:59:09.000Z</time>
      </trkpt>
      <trkpt lat="44.83948" lon="5.38252">
        <ele>1480.53</ele>
        <time>2017-10-17T12:59:19.000Z</time>
      </trkpt>
      <trkpt lat="44.83946" lon="5.38249">
        <ele>1481</ele>
        <time>2017-10-17T12:59:29.000Z</time>
      </trkpt>
      <trkpt lat="44.83947" lon="5.38253">
        <ele>1480.47</ele>
        <time>2017-10-17T12:59:39.000Z</time>
      </trkpt>
      <trkpt lat="44.83951" lon="5.38255">
        <ele>1479.97</ele>
        <time>2017-10-17T12:59:49.000Z</time>
      </trkpt>
      <trkpt lat="44.83962" lon="5.38282">
        <ele>1475.7</ele>
        <time>2017-10-17T12:59:59.000Z</time>
      </trkpt>
      <trkpt lat="44.83971" lon="5.38299">
        <ele>1472.81</ele>
        <time>2017-10-17T13:00:09.000Z</time>
      </trkpt>
      <trkpt lat="44.83982" lon="5.38317">
        <ele>1469.41</ele>
        <time>2017-10-17T13:00:19.000Z</time>
      </trkpt>
      <trkpt lat="44.83995" lon="5.38323">
        <ele>1467.36</ele>
        <time>2017-10-17T13:00:29.000Z</time>
      </trkpt>
      <trkpt lat="44.84006" lon="5.38337">
        <ele>1463.63</ele>
        <time>2017-10-17T13:00:39.000Z</time>
      </trkpt>
      <trkpt lat="44.84012" lon="5.38351">
        <ele>1459.81</ele>
        <time>2017-10-17T13:00:49.000Z</time>
      </trkpt>
      <trkpt lat="44.84017" lon="5.38363">
        <ele>1456.38</ele>
        <time>2017-10-17T13:00:59.000Z</time>
      </trkpt>
      <trkpt lat="44.84026" lon="5.3837">
        <ele>1453.57</ele>
        <time>2017-10-17T13:01:09.000Z</time>
      </trkpt>
      <trkpt lat="44.84025" lon="5.38371">
        <ele>1453.38</ele>
        <time>2017-10-17T13:01:19.000Z</time>
      </trkpt>
      <trkpt lat="44.84025" lon="5.38375">
        <ele>1452.65</ele>
        <time>2017-10-17T13:01:30.000Z</time>
      </trkpt>
      <trkpt lat="44.84028" lon="5.38394">
        <ele>1448.35</ele>
        <time>2017-10-17T13:01:40.000Z</time>
      </trkpt>
      <trkpt lat="44.8404" lon="5.38406">
        <ele>1444.81</ele>
        <time>2017-10-17T13:01:50.000Z</time>
      </trkpt>
      <trkpt lat="44.84048" lon="5.38422">
        <ele>1441.56</ele>
        <time>2017-10-17T13:02:00.000Z</time>
      </trkpt>
      <trkpt lat="44.84059" lon="5.38436">
        <ele>1439.47</ele>
        <time>2017-10-17T13:02:10.000Z</time>
      </trkpt>
      <trkpt lat="44.84069" lon="5.38452">
        <ele>1438.05</ele>
        <time>2017-10-17T13:02:20.000Z</time>
      </trkpt>
      <trkpt lat="44.84085" lon="5.38455">
        <ele>1437.98</ele>
        <time>2017-10-17T13:02:30.000Z</time>
      </trkpt>
      <trkpt lat="44.8409" lon="5.38466">
        <ele>1437.44</ele>
        <time>2017-10-17T13:02:40.000Z</time>
      </trkpt>
      <trkpt lat="44.84098" lon="5.3848">
        <ele>1436.57</ele>
        <time>2017-10-17T13:02:50.000Z</time>
      </trkpt>
      <trkpt lat="44.84107" lon="5.38491">
        <ele>1435.58</ele>
        <time>2017-10-17T13:03:00.000Z</time>
      </trkpt>
      <trkpt lat="44.84115" lon="5.38497">
        <ele>1434.72</ele>
        <time>2017-10-17T13:03:10.000Z</time>
      </trkpt>
      <trkpt lat="44.84119" lon="5.38511">
        <ele>1433.39</ele>
        <time>2017-10-17T13:03:20.000Z</time>
      </trkpt>
      <trkpt lat="44.84131" lon="5.38526">
        <ele>1431.66</ele>
        <time>2017-10-17T13:03:30.000Z</time>
      </trkpt>
      <trkpt lat="44.84133" lon="5.38539">
        <ele>1430.79</ele>
        <time>2017-10-17T13:03:40.000Z</time>
      </trkpt>
      <trkpt lat="44.84144" lon="5.38545">
        <ele>1429.92</ele>
        <time>2017-10-17T13:03:50.000Z</time>
      </trkpt>
      <trkpt lat="44.84149" lon="5.38559">
        <ele>1428.98</ele>
        <time>2017-10-17T13:04:00.000Z</time>
      </trkpt>
      <trkpt lat="44.84156" lon="5.38566">
        <ele>1428.35</ele>
        <time>2017-10-17T13:04:10.000Z</time>
      </trkpt>
      <trkpt lat="44.84162" lon="5.38576">
        <ele>1427.62</ele>
        <time>2017-10-17T13:04:20.000Z</time>
      </trkpt>
      <trkpt lat="44.8417" lon="5.38586">
        <ele>1426.76</ele>
        <time>2017-10-17T13:04:30.000Z</time>
      </trkpt>
      <trkpt lat="44.84178" lon="5.38596">
        <ele>1425.75</ele>
        <time>2017-10-17T13:04:40.000Z</time>
      </trkpt>
      <trkpt lat="44.84183" lon="5.3861">
        <ele>1424.6</ele>
        <time>2017-10-17T13:04:50.000Z</time>
      </trkpt>
      <trkpt lat="44.84185" lon="5.38622">
        <ele>1423.52</ele>
        <time>2017-10-17T13:05:00.000Z</time>
      </trkpt>
      <trkpt lat="44.84193" lon="5.38634">
        <ele>1422.24</ele>
        <time>2017-10-17T13:05:10.000Z</time>
      </trkpt>
      <trkpt lat="44.84199" lon="5.38646">
        <ele>1421.1</ele>
        <time>2017-10-17T13:05:20.000Z</time>
      </trkpt>
      <trkpt lat="44.84208" lon="5.38656">
        <ele>1419.95</ele>
        <time>2017-10-17T13:05:30.000Z</time>
      </trkpt>
      <trkpt lat="44.84215" lon="5.38668">
        <ele>1418.83</ele>
        <time>2017-10-17T13:05:40.000Z</time>
      </trkpt>
      <trkpt lat="44.8422" lon="5.38685">
        <ele>1417.61</ele>
        <time>2017-10-17T13:05:50.000Z</time>
      </trkpt>
      <trkpt lat="44.84225" lon="5.38699">
        <ele>1416.88</ele>
        <time>2017-10-17T13:06:00.000Z</time>
      </trkpt>
      <trkpt lat="44.84228" lon="5.38703">
        <ele>1416.82</ele>
        <time>2017-10-17T13:06:10.000Z</time>
      </trkpt>
      <trkpt lat="44.84227" lon="5.38703">
        <ele>1416.78</ele>
        <time>2017-10-17T13:06:20.000Z</time>
      </trkpt>
      <trkpt lat="44.84226" lon="5.3871">
        <ele>1416.53</ele>
        <time>2017-10-17T13:07:10.000Z</time>
      </trkpt>
      <trkpt lat="44.84227" lon="5.38717">
        <ele>1416.42</ele>
        <time>2017-10-17T13:07:20.000Z</time>
      </trkpt>
      <trkpt lat="44.84227" lon="5.38716">
        <ele>1416.48</ele>
        <time>2017-10-17T13:07:31.000Z</time>
      </trkpt>
      <trkpt lat="44.84225" lon="5.38718">
        <ele>1416.31</ele>
        <time>2017-10-17T13:08:35.000Z</time>
      </trkpt>
      <trkpt lat="44.84221" lon="5.38729">
        <ele>1415.61</ele>
        <time>2017-10-17T13:08:45.000Z</time>
      </trkpt>
      <trkpt lat="44.84213" lon="5.38738">
        <ele>1414.34</ele>
        <time>2017-10-17T13:08:55.000Z</time>
      </trkpt>
      <trkpt lat="44.84207" lon="5.38749">
        <ele>1413.23</ele>
        <time>2017-10-17T13:09:05.000Z</time>
      </trkpt>
      <trkpt lat="44.842" lon="5.38748">
        <ele>1411.82</ele>
        <time>2017-10-17T13:09:15.000Z</time>
      </trkpt>
      <trkpt lat="44.84195" lon="5.38761">
        <ele>1411.06</ele>
        <time>2017-10-17T13:09:25.000Z</time>
      </trkpt>
      <trkpt lat="44.84186" lon="5.38764">
        <ele>1409.53</ele>
        <time>2017-10-17T13:09:35.000Z</time>
      </trkpt>
      <trkpt lat="44.8418" lon="5.38766">
        <ele>1408.49</ele>
        <time>2017-10-17T13:09:45.000Z</time>
      </trkpt>
      <trkpt lat="44.84177" lon="5.3877">
        <ele>1408.2</ele>
        <time>2017-10-17T13:09:55.000Z</time>
      </trkpt>
      <trkpt lat="44.84174" lon="5.38774">
        <ele>1407.96</ele>
        <time>2017-10-17T13:10:05.000Z</time>
      </trkpt>
      <trkpt lat="44.84172" lon="5.38771">
        <ele>1407.49</ele>
        <time>2017-10-17T13:10:15.000Z</time>
      </trkpt>
      <trkpt lat="44.84162" lon="5.38768">
        <ele>1405.8</ele>
        <time>2017-10-17T13:10:25.000Z</time>
      </trkpt>
      <trkpt lat="44.8414" lon="5.38759">
        <ele>1403.05</ele>
        <time>2017-10-17T13:10:35.000Z</time>
      </trkpt>
      <trkpt lat="44.84126" lon="5.3876">
        <ele>1401.79</ele>
        <time>2017-10-17T13:10:45.000Z</time>
      </trkpt>
      <trkpt lat="44.84118" lon="5.38759">
        <ele>1400.92</ele>
        <time>2017-10-17T13:10:55.000Z</time>
      </trkpt>
      <trkpt lat="44.84119" lon="5.38763">
        <ele>1401.31</ele>
        <time>2017-10-17T13:11:05.000Z</time>
      </trkpt>
      <trkpt lat="44.84114" lon="5.38759">
        <ele>1400.53</ele>
        <time>2017-10-17T13:11:23.000Z</time>
      </trkpt>
      <trkpt lat="44.8409" lon="5.38764">
        <ele>1398.26</ele>
        <time>2017-10-17T13:11:33.000Z</time>
      </trkpt>
      <trkpt lat="44.84078" lon="5.3876">
        <ele>1395.94</ele>
        <time>2017-10-17T13:11:43.000Z</time>
      </trkpt>
      <trkpt lat="44.84065" lon="5.38765">
        <ele>1394.14</ele>
        <time>2017-10-17T13:11:53.000Z</time>
      </trkpt>
      <trkpt lat="44.84053" lon="5.38754">
        <ele>1390.2</ele>
        <time>2017-10-17T13:12:03.000Z</time>
      </trkpt>
      <trkpt lat="44.84039" lon="5.38749">
        <ele>1386.53</ele>
        <time>2017-10-17T13:12:13.000Z</time>
      </trkpt>
      <trkpt lat="44.84025" lon="5.38742">
        <ele>1382.97</ele>
        <time>2017-10-17T13:12:23.000Z</time>
      </trkpt>
      <trkpt lat="44.84018" lon="5.38737">
        <ele>1381.3</ele>
        <time>2017-10-17T13:12:33.000Z</time>
      </trkpt>
      <trkpt lat="44.84008" lon="5.38738">
        <ele>1379.43</ele>
        <time>2017-10-17T13:12:43.000Z</time>
      </trkpt>
      <trkpt lat="44.83999" lon="5.38744">
        <ele>1378.42</ele>
        <time>2017-10-17T13:12:53.000Z</time>
      </trkpt>
      <trkpt lat="44.83992" lon="5.38739">
        <ele>1377.4</ele>
        <time>2017-10-17T13:13:03.000Z</time>
      </trkpt>
      <trkpt lat="44.83981" lon="5.38737">
        <ele>1376.19</ele>
        <time>2017-10-17T13:13:13.000Z</time>
      </trkpt>
      <trkpt lat="44.83969" lon="5.38737">
        <ele>1375.34</ele>
        <time>2017-10-17T13:13:23.000Z</time>
      </trkpt>
      <trkpt lat="44.83961" lon="5.38748">
        <ele>1375.62</ele>
        <time>2017-10-17T13:13:33.000Z</time>
      </trkpt>
      <trkpt lat="44.8395" lon="5.38747">
        <ele>1375.06</ele>
        <time>2017-10-17T13:13:43.000Z</time>
      </trkpt>
      <trkpt lat="44.83944" lon="5.38747">
        <ele>1374.85</ele>
        <time>2017-10-17T13:13:53.000Z</time>
      </trkpt>
      <trkpt lat="44.83933" lon="5.38744">
        <ele>1374.16</ele>
        <time>2017-10-17T13:14:03.000Z</time>
      </trkpt>
      <trkpt lat="44.8392" lon="5.38737">
        <ele>1372.96</ele>
        <time>2017-10-17T13:14:13.000Z</time>
      </trkpt>
      <trkpt lat="44.83907" lon="5.38732">
        <ele>1371.95</ele>
        <time>2017-10-17T13:14:23.000Z</time>
      </trkpt>
      <trkpt lat="44.83894" lon="5.38732">
        <ele>1371.5</ele>
        <time>2017-10-17T13:14:33.000Z</time>
      </trkpt>
      <trkpt lat="44.83886" lon="5.38731">
        <ele>1371.11</ele>
        <time>2017-10-17T13:14:43.000Z</time>
      </trkpt>
      <trkpt lat="44.83871" lon="5.38732">
        <ele>1370.71</ele>
        <time>2017-10-17T13:14:53.000Z</time>
      </trkpt>
      <trkpt lat="44.83861" lon="5.38732">
        <ele>1370.39</ele>
        <time>2017-10-17T13:15:03.000Z</time>
      </trkpt>
      <trkpt lat="44.83849" lon="5.38736">
        <ele>1370.1</ele>
        <time>2017-10-17T13:15:13.000Z</time>
      </trkpt>
      <trkpt lat="44.83839" lon="5.3873">
        <ele>1369.34</ele>
        <time>2017-10-17T13:15:23.000Z</time>
      </trkpt>
      <trkpt lat="44.83827" lon="5.3873">
        <ele>1368.59</ele>
        <time>2017-10-17T13:15:33.000Z</time>
      </trkpt>
      <trkpt lat="44.83816" lon="5.38731">
        <ele>1367.77</ele>
        <time>2017-10-17T13:15:43.000Z</time>
      </trkpt>
      <trkpt lat="44.83807" lon="5.3873">
        <ele>1366.92</ele>
        <time>2017-10-17T13:15:53.000Z</time>
      </trkpt>
      <trkpt lat="44.83794" lon="5.38727">
        <ele>1365.79</ele>
        <time>2017-10-17T13:16:03.000Z</time>
      </trkpt>
      <trkpt lat="44.83781" lon="5.38724">
        <ele>1364.72</ele>
        <time>2017-10-17T13:16:13.000Z</time>
      </trkpt>
      <trkpt lat="44.8377" lon="5.38724">
        <ele>1363.82</ele>
        <time>2017-10-17T13:16:23.000Z</time>
      </trkpt>
      <trkpt lat="44.83759" lon="5.38725">
        <ele>1362.92</ele>
        <time>2017-10-17T13:16:33.000Z</time>
      </trkpt>
      <trkpt lat="44.83749" lon="5.38726">
        <ele>1362.35</ele>
        <time>2017-10-17T13:16:43.000Z</time>
      </trkpt>
      <trkpt lat="44.83741" lon="5.38728">
        <ele>1361.94</ele>
        <time>2017-10-17T13:16:53.000Z</time>
      </trkpt>
      <trkpt lat="44.83729" lon="5.38728">
        <ele>1361.55</ele>
        <time>2017-10-17T13:17:03.000Z</time>
      </trkpt>
      <trkpt lat="44.83726" lon="5.38728">
        <ele>1361.53</ele>
        <time>2017-10-17T13:17:13.000Z</time>
      </trkpt>
      <trkpt lat="44.83722" lon="5.38729">
        <ele>1361.39</ele>
        <time>2017-10-17T13:17:23.000Z</time>
      </trkpt>
      <trkpt lat="44.83704" lon="5.38735">
        <ele>1361</ele>
        <time>2017-10-17T13:17:33.000Z</time>
      </trkpt>
      <trkpt lat="44.8369" lon="5.38734">
        <ele>1360.94</ele>
        <time>2017-10-17T13:17:43.000Z</time>
      </trkpt>
      <trkpt lat="44.83677" lon="5.38729">
        <ele>1360.91</ele>
        <time>2017-10-17T13:17:53.000Z</time>
      </trkpt>
      <trkpt lat="44.83668" lon="5.38737">
        <ele>1360.49</ele>
        <time>2017-10-17T13:18:03.000Z</time>
      </trkpt>
      <trkpt lat="44.83655" lon="5.3874">
        <ele>1360.08</ele>
        <time>2017-10-17T13:18:13.000Z</time>
      </trkpt>
      <trkpt lat="44.83643" lon="5.38736">
        <ele>1359.95</ele>
        <time>2017-10-17T13:18:23.000Z</time>
      </trkpt>
      <trkpt lat="44.83629" lon="5.38733">
        <ele>1359.77</ele>
        <time>2017-10-17T13:18:33.000Z</time>
      </trkpt>
      <trkpt lat="44.83622" lon="5.38738">
        <ele>1359.35</ele>
        <time>2017-10-17T13:18:43.000Z</time>
      </trkpt>
      <trkpt lat="44.83611" lon="5.3874">
        <ele>1358.74</ele>
        <time>2017-10-17T13:18:53.000Z</time>
      </trkpt>
      <trkpt lat="44.83601" lon="5.3874">
        <ele>1358.36</ele>
        <time>2017-10-17T13:19:03.000Z</time>
      </trkpt>
      <trkpt lat="44.83602" lon="5.38744">
        <ele>1358.03</ele>
        <time>2017-10-17T13:19:13.000Z</time>
      </trkpt>
      <trkpt lat="44.83604" lon="5.3874">
        <ele>1358.44</ele>
        <time>2017-10-17T13:19:23.000Z</time>
      </trkpt>
      <trkpt lat="44.83604" lon="5.38742">
        <ele>1358.32</ele>
        <time>2017-10-17T13:19:33.000Z</time>
      </trkpt>
      <trkpt lat="44.836" lon="5.3874">
        <ele>1358.24</ele>
        <time>2017-10-17T13:21:31.000Z</time>
      </trkpt>
      <trkpt lat="44.83586" lon="5.38738">
        <ele>1357.59</ele>
        <time>2017-10-17T13:21:41.000Z</time>
      </trkpt>
      <trkpt lat="44.83575" lon="5.38735">
        <ele>1356.99</ele>
        <time>2017-10-17T13:21:51.000Z</time>
      </trkpt>
      <trkpt lat="44.83564" lon="5.3874">
        <ele>1355.39</ele>
        <time>2017-10-17T13:22:01.000Z</time>
      </trkpt>
      <trkpt lat="44.8355" lon="5.3874">
        <ele>1353.74</ele>
        <time>2017-10-17T13:22:11.000Z</time>
      </trkpt>
      <trkpt lat="44.83543" lon="5.38741">
        <ele>1352.68</ele>
        <time>2017-10-17T13:22:21.000Z</time>
      </trkpt>
      <trkpt lat="44.83535" lon="5.38743">
        <ele>1351.41</ele>
        <time>2017-10-17T13:22:31.000Z</time>
      </trkpt>
      <trkpt lat="44.83527" lon="5.38745">
        <ele>1350.07</ele>
        <time>2017-10-17T13:22:41.000Z</time>
      </trkpt>
      <trkpt lat="44.83516" lon="5.38749">
        <ele>1348.04</ele>
        <time>2017-10-17T13:22:51.000Z</time>
      </trkpt>
      <trkpt lat="44.83511" lon="5.38746">
        <ele>1347.96</ele>
        <time>2017-10-17T13:23:01.000Z</time>
      </trkpt>
      <trkpt lat="44.83503" lon="5.38749">
        <ele>1346.46</ele>
        <time>2017-10-17T13:23:11.000Z</time>
      </trkpt>
      <trkpt lat="44.835" lon="5.38747">
        <ele>1346.58</ele>
        <time>2017-10-17T13:23:21.000Z</time>
      </trkpt>
      <trkpt lat="44.83498" lon="5.38749">
        <ele>1345.94</ele>
        <time>2017-10-17T13:24:19.000Z</time>
      </trkpt>
      <trkpt lat="44.83487" lon="5.38769">
        <ele>1340.68</ele>
        <time>2017-10-17T13:24:29.000Z</time>
      </trkpt>
      <trkpt lat="44.8349" lon="5.38782">
        <ele>1338.29</ele>
        <time>2017-10-17T13:24:39.000Z</time>
      </trkpt>
      <trkpt lat="44.83493" lon="5.38787">
        <ele>1337.62</ele>
        <time>2017-10-17T13:24:49.000Z</time>
      </trkpt>
      <trkpt lat="44.835" lon="5.38797">
        <ele>1336.09</ele>
        <time>2017-10-17T13:24:59.000Z</time>
      </trkpt>
      <trkpt lat="44.83507" lon="5.38804">
        <ele>1335.36</ele>
        <time>2017-10-17T13:25:09.000Z</time>
      </trkpt>
      <trkpt lat="44.8352" lon="5.38805">
        <ele>1336.45</ele>
        <time>2017-10-17T13:25:19.000Z</time>
      </trkpt>
      <trkpt lat="44.83531" lon="5.38808">
        <ele>1337.21</ele>
        <time>2017-10-17T13:25:29.000Z</time>
      </trkpt>
      <trkpt lat="44.83541" lon="5.38819">
        <ele>1335.96</ele>
        <time>2017-10-17T13:25:39.000Z</time>
      </trkpt>
      <trkpt lat="44.83546" lon="5.38837">
        <ele>1332.13</ele>
        <time>2017-10-17T13:25:49.000Z</time>
      </trkpt>
      <trkpt lat="44.83554" lon="5.38838">
        <ele>1332.97</ele>
        <time>2017-10-17T13:25:59.000Z</time>
      </trkpt>
      <trkpt lat="44.83565" lon="5.38847">
        <ele>1332.59</ele>
        <time>2017-10-17T13:26:09.000Z</time>
      </trkpt>
      <trkpt lat="44.83574" lon="5.38857">
        <ele>1331.37</ele>
        <time>2017-10-17T13:26:19.000Z</time>
      </trkpt>
      <trkpt lat="44.83585" lon="5.38862">
        <ele>1332.31</ele>
        <time>2017-10-17T13:26:29.000Z</time>
      </trkpt>
      <trkpt lat="44.83597" lon="5.3886">
        <ele>1335.24</ele>
        <time>2017-10-17T13:26:39.000Z</time>
      </trkpt>
      <trkpt lat="44.83605" lon="5.38864">
        <ele>1335.67</ele>
        <time>2017-10-17T13:26:49.000Z</time>
      </trkpt>
      <trkpt lat="44.83615" lon="5.38866">
        <ele>1337.41</ele>
        <time>2017-10-17T13:26:59.000Z</time>
      </trkpt>
      <trkpt lat="44.83618" lon="5.38875">
        <ele>1335.26</ele>
        <time>2017-10-17T13:27:09.000Z</time>
      </trkpt>
      <trkpt lat="44.83624" lon="5.38878">
        <ele>1335.63</ele>
        <time>2017-10-17T13:27:19.000Z</time>
      </trkpt>
      <trkpt lat="44.83633" lon="5.38878">
        <ele>1337.46</ele>
        <time>2017-10-17T13:27:29.000Z</time>
      </trkpt>
      <trkpt lat="44.83642" lon="5.38889">
        <ele>1335.52</ele>
        <time>2017-10-17T13:27:39.000Z</time>
      </trkpt>
      <trkpt lat="44.83648" lon="5.38898">
        <ele>1333.81</ele>
        <time>2017-10-17T13:27:49.000Z</time>
      </trkpt>
      <trkpt lat="44.83654" lon="5.38903">
        <ele>1333.41</ele>
        <time>2017-10-17T13:27:59.000Z</time>
      </trkpt>
      <trkpt lat="44.83658" lon="5.38908">
        <ele>1332.93</ele>
        <time>2017-10-17T13:28:09.000Z</time>
      </trkpt>
      <trkpt lat="44.83657" lon="5.38912">
        <ele>1331.53</ele>
        <time>2017-10-17T13:28:19.000Z</time>
      </trkpt>
      <trkpt lat="44.8366" lon="5.38928">
        <ele>1329.07</ele>
        <time>2017-10-17T13:28:29.000Z</time>
      </trkpt>
      <trkpt lat="44.83661" lon="5.38946">
        <ele>1327.84</ele>
        <time>2017-10-17T13:28:39.000Z</time>
      </trkpt>
      <trkpt lat="44.83655" lon="5.38954">
        <ele>1325.92</ele>
        <time>2017-10-17T13:28:49.000Z</time>
      </trkpt>
      <trkpt lat="44.83651" lon="5.38956">
        <ele>1324.83</ele>
        <time>2017-10-17T13:28:59.000Z</time>
      </trkpt>
      <trkpt lat="44.83647" lon="5.38953">
        <ele>1324.12</ele>
        <time>2017-10-17T13:29:09.000Z</time>
      </trkpt>
      <trkpt lat="44.83651" lon="5.38957">
        <ele>1324.75</ele>
        <time>2017-10-17T13:29:19.000Z</time>
      </trkpt>
      <trkpt lat="44.83648" lon="5.3896">
        <ele>1323.73</ele>
        <time>2017-10-17T13:30:25.000Z</time>
      </trkpt>
      <trkpt lat="44.83644" lon="5.38989">
        <ele>1317.83</ele>
        <time>2017-10-17T13:30:35.000Z</time>
      </trkpt>
      <trkpt lat="44.83648" lon="5.38996">
        <ele>1316.15</ele>
        <time>2017-10-17T13:30:45.000Z</time>
      </trkpt>
      <trkpt lat="44.83649" lon="5.39019">
        <ele>1304.48</ele>
        <time>2017-10-17T13:30:55.000Z</time>
      </trkpt>
      <trkpt lat="44.83652" lon="5.39029">
        <ele>1298.93</ele>
        <time>2017-10-17T13:31:05.000Z</time>
      </trkpt>
      <trkpt lat="44.83654" lon="5.3903">
        <ele>1299.03</ele>
        <time>2017-10-17T13:31:15.000Z</time>
      </trkpt>
      <trkpt lat="44.83654" lon="5.39032">
        <ele>1297.93</ele>
        <time>2017-10-17T13:31:32.000Z</time>
      </trkpt>
      <trkpt lat="44.83656" lon="5.39041">
        <ele>1292.36</ele>
        <time>2017-10-17T13:32:16.000Z</time>
      </trkpt>
      <trkpt lat="44.83669" lon="5.39057">
        <ele>1288.73</ele>
        <time>2017-10-17T13:32:26.000Z</time>
      </trkpt>
      <trkpt lat="44.83673" lon="5.39064">
        <ele>1286.62</ele>
        <time>2017-10-17T13:32:36.000Z</time>
      </trkpt>
      <trkpt lat="44.83674" lon="5.39069">
        <ele>1283.57</ele>
        <time>2017-10-17T13:32:46.000Z</time>
      </trkpt>
      <trkpt lat="44.83674" lon="5.3907">
        <ele>1282.5</ele>
        <time>2017-10-17T13:32:59.000Z</time>
      </trkpt>
      <trkpt lat="44.83675" lon="5.39072">
        <ele>1282.19</ele>
        <time>2017-10-17T13:33:09.000Z</time>
      </trkpt>
      <trkpt lat="44.83682" lon="5.39073">
        <ele>1285.45</ele>
        <time>2017-10-17T13:38:01.000Z</time>
      </trkpt>
      <trkpt lat="44.83711" lon="5.39083">
        <ele>1296.15</ele>
        <time>2017-10-17T13:38:11.000Z</time>
      </trkpt>
      <trkpt lat="44.83715" lon="5.39084">
        <ele>1296.99</ele>
        <time>2017-10-17T13:38:21.000Z</time>
      </trkpt>
      <trkpt lat="44.83716" lon="5.39086">
        <ele>1296.86</ele>
        <time>2017-10-17T13:38:31.000Z</time>
      </trkpt>
      <trkpt lat="44.83717" lon="5.39087">
        <ele>1296.04</ele>
        <time>2017-10-17T13:38:53.000Z</time>
      </trkpt>
      <trkpt lat="44.83737" lon="5.39071">
        <ele>1317.73</ele>
        <time>2017-10-17T13:39:03.000Z</time>
      </trkpt>
      <trkpt lat="44.83746" lon="5.3908">
        <ele>1316.83</ele>
        <time>2017-10-17T13:39:13.000Z</time>
      </trkpt>
      <trkpt lat="44.83749" lon="5.3909">
        <ele>1310.93</ele>
        <time>2017-10-17T13:39:23.000Z</time>
      </trkpt>
      <trkpt lat="44.83758" lon="5.39096">
        <ele>1309.92</ele>
        <time>2017-10-17T13:39:33.000Z</time>
      </trkpt>
      <trkpt lat="44.83766" lon="5.39093">
        <ele>1317.49</ele>
        <time>2017-10-17T13:39:43.000Z</time>
      </trkpt>
      <trkpt lat="44.83761" lon="5.39122">
        <ele>1281.31</ele>
        <time>2017-10-17T13:39:53.000Z</time>
      </trkpt>
      <trkpt lat="44.83771" lon="5.39106">
        <ele>1306.63</ele>
        <time>2017-10-17T13:40:03.000Z</time>
      </trkpt>
      <trkpt lat="44.83779" lon="5.39111">
        <ele>1304.95</ele>
        <time>2017-10-17T13:40:13.000Z</time>
      </trkpt>
      <trkpt lat="44.83784" lon="5.39098">
        <ele>1323.31</ele>
        <time>2017-10-17T13:40:23.000Z</time>
      </trkpt>
      <trkpt lat="44.83785" lon="5.39097">
        <ele>1324.26</ele>
        <time>2017-10-17T13:40:33.000Z</time>
      </trkpt>
      <trkpt lat="44.83785" lon="5.39099">
        <ele>1322.41</ele>
        <time>2017-10-17T13:40:50.000Z</time>
      </trkpt>
      <trkpt lat="44.83785" lon="5.39101">
        <ele>1320.08</ele>
        <time>2017-10-17T13:41:00.000Z</time>
      </trkpt>
      <trkpt lat="44.8379" lon="5.39105">
        <ele>1318.39</ele>
        <time>2017-10-17T13:41:37.000Z</time>
      </trkpt>
      <trkpt lat="44.83824" lon="5.3911">
        <ele>1330.9</ele>
        <time>2017-10-17T13:41:47.000Z</time>
      </trkpt>
      <trkpt lat="44.83836" lon="5.3912">
        <ele>1323.77</ele>
        <time>2017-10-17T13:41:57.000Z</time>
      </trkpt>
      <trkpt lat="44.83847" lon="5.39132">
        <ele>1312.37</ele>
        <time>2017-10-17T13:42:07.000Z</time>
      </trkpt>
      <trkpt lat="44.83849" lon="5.39133">
        <ele>1312.97</ele>
        <time>2017-10-17T13:42:17.000Z</time>
      </trkpt>
      <trkpt lat="44.83848" lon="5.39141">
        <ele>1302.06</ele>
        <time>2017-10-17T13:42:27.000Z</time>
      </trkpt>
      <trkpt lat="44.83852" lon="5.39149">
        <ele>1293.18</ele>
        <time>2017-10-17T13:42:37.000Z</time>
      </trkpt>
      <trkpt lat="44.83853" lon="5.39145">
        <ele>1298.73</ele>
        <time>2017-10-17T13:42:47.000Z</time>
      </trkpt>
      <trkpt lat="44.83863" lon="5.39148">
        <ele>1299.66</ele>
        <time>2017-10-17T13:42:57.000Z</time>
      </trkpt>
      <trkpt lat="44.83863" lon="5.39159">
        <ele>1287.07</ele>
        <time>2017-10-17T13:43:07.000Z</time>
      </trkpt>
      <trkpt lat="44.83866" lon="5.39163">
        <ele>1284.67</ele>
        <time>2017-10-17T13:43:17.000Z</time>
      </trkpt>
      <trkpt lat="44.83872" lon="5.39169">
        <ele>1282.14</ele>
        <time>2017-10-17T13:43:27.000Z</time>
      </trkpt>
      <trkpt lat="44.83878" lon="5.39177">
        <ele>1278.65</ele>
        <time>2017-10-17T13:43:37.000Z</time>
      </trkpt>
      <trkpt lat="44.83882" lon="5.39181">
        <ele>1277.93</ele>
        <time>2017-10-17T13:43:47.000Z</time>
      </trkpt>
      <trkpt lat="44.83885" lon="5.39184">
        <ele>1277.76</ele>
        <time>2017-10-17T13:44:35.000Z</time>
      </trkpt>
      <trkpt lat="44.83897" lon="5.39207">
        <ele>1272.24</ele>
        <time>2017-10-17T13:44:45.000Z</time>
      </trkpt>
      <trkpt lat="44.83908" lon="5.39227">
        <ele>1271.06</ele>
        <time>2017-10-17T13:44:55.000Z</time>
      </trkpt>
      <trkpt lat="44.83915" lon="5.39245">
        <ele>1268.78</ele>
        <time>2017-10-17T13:45:05.000Z</time>
      </trkpt>
      <trkpt lat="44.83924" lon="5.39252">
        <ele>1270.87</ele>
        <time>2017-10-17T13:45:15.000Z</time>
      </trkpt>
      <trkpt lat="44.83928" lon="5.39258">
        <ele>1270.34</ele>
        <time>2017-10-17T13:45:25.000Z</time>
      </trkpt>
      <trkpt lat="44.83937" lon="5.39271">
        <ele>1269.87</ele>
        <time>2017-10-17T13:45:35.000Z</time>
      </trkpt>
      <trkpt lat="44.83943" lon="5.39291">
        <ele>1265.93</ele>
        <time>2017-10-17T13:45:45.000Z</time>
      </trkpt>
      <trkpt lat="44.83949" lon="5.39301">
        <ele>1265.68</ele>
        <time>2017-10-17T13:45:55.000Z</time>
      </trkpt>
      <trkpt lat="44.83952" lon="5.39309">
        <ele>1264.93</ele>
        <time>2017-10-17T13:46:05.000Z</time>
      </trkpt>
      <trkpt lat="44.83952" lon="5.39313">
        <ele>1264.03</ele>
        <time>2017-10-17T13:46:15.000Z</time>
      </trkpt>
      <trkpt lat="44.83952" lon="5.39314">
        <ele>1263.75</ele>
        <time>2017-10-17T13:46:51.000Z</time>
      </trkpt>
      <trkpt lat="44.83973" lon="5.39334">
        <ele>1270.56</ele>
        <time>2017-10-17T13:47:01.000Z</time>
      </trkpt>
      <trkpt lat="44.83981" lon="5.39346">
        <ele>1273.19</ele>
        <time>2017-10-17T13:47:11.000Z</time>
      </trkpt>
      <trkpt lat="44.83977" lon="5.39368">
        <ele>1271.44</ele>
        <time>2017-10-17T13:47:21.000Z</time>
      </trkpt>
      <trkpt lat="44.83971" lon="5.39377">
        <ele>1268.44</ele>
        <time>2017-10-17T13:47:31.000Z</time>
      </trkpt>
      <trkpt lat="44.83961" lon="5.3939">
        <ele>1263.49</ele>
        <time>2017-10-17T13:47:41.000Z</time>
      </trkpt>
      <trkpt lat="44.83953" lon="5.39408">
        <ele>1260.95</ele>
        <time>2017-10-17T13:47:51.000Z</time>
      </trkpt>
      <trkpt lat="44.8395" lon="5.39426">
        <ele>1261.3</ele>
        <time>2017-10-17T13:48:01.000Z</time>
      </trkpt>
      <trkpt lat="44.83942" lon="5.39432">
        <ele>1258.08</ele>
        <time>2017-10-17T13:48:11.000Z</time>
      </trkpt>
      <trkpt lat="44.83935" lon="5.39445">
        <ele>1257.5</ele>
        <time>2017-10-17T13:48:21.000Z</time>
      </trkpt>
      <trkpt lat="44.83926" lon="5.39455">
        <ele>1254.97</ele>
        <time>2017-10-17T13:48:31.000Z</time>
      </trkpt>
      <trkpt lat="44.8392" lon="5.39474">
        <ele>1257.94</ele>
        <time>2017-10-17T13:48:41.000Z</time>
      </trkpt>
      <trkpt lat="44.83915" lon="5.39484">
        <ele>1258.54</ele>
        <time>2017-10-17T13:48:51.000Z</time>
      </trkpt>
      <trkpt lat="44.83907" lon="5.39483">
        <ele>1254.04</ele>
        <time>2017-10-17T13:49:01.000Z</time>
      </trkpt>
      <trkpt lat="44.839" lon="5.39498">
        <ele>1255.23</ele>
        <time>2017-10-17T13:49:11.000Z</time>
      </trkpt>
      <trkpt lat="44.83888" lon="5.39503">
        <ele>1250.49</ele>
        <time>2017-10-17T13:49:21.000Z</time>
      </trkpt>
      <trkpt lat="44.83876" lon="5.39515">
        <ele>1247.27</ele>
        <time>2017-10-17T13:49:31.000Z</time>
      </trkpt>
      <trkpt lat="44.83867" lon="5.39525">
        <ele>1245.51</ele>
        <time>2017-10-17T13:49:41.000Z</time>
      </trkpt>
      <trkpt lat="44.83862" lon="5.39538">
        <ele>1246.19</ele>
        <time>2017-10-17T13:49:51.000Z</time>
      </trkpt>
      <trkpt lat="44.83855" lon="5.39552">
        <ele>1246.37</ele>
        <time>2017-10-17T13:50:01.000Z</time>
      </trkpt>
      <trkpt lat="44.83847" lon="5.39567">
        <ele>1246.32</ele>
        <time>2017-10-17T13:50:11.000Z</time>
      </trkpt>
      <trkpt lat="44.83842" lon="5.39582">
        <ele>1247.56</ele>
        <time>2017-10-17T13:50:21.000Z</time>
      </trkpt>
      <trkpt lat="44.83838" lon="5.39599">
        <ele>1248.79</ele>
        <time>2017-10-17T13:50:31.000Z</time>
      </trkpt>
      <trkpt lat="44.83829" lon="5.39612">
        <ele>1246.59</ele>
        <time>2017-10-17T13:50:41.000Z</time>
      </trkpt>
      <trkpt lat="44.83827" lon="5.39622">
        <ele>1247.25</ele>
        <time>2017-10-17T13:50:51.000Z</time>
      </trkpt>
      <trkpt lat="44.8382" lon="5.39629">
        <ele>1244.47</ele>
        <time>2017-10-17T13:51:01.000Z</time>
      </trkpt>
      <trkpt lat="44.83821" lon="5.39631">
        <ele>1245.61</ele>
        <time>2017-10-17T13:51:11.000Z</time>
      </trkpt>
      <trkpt lat="44.8382" lon="5.39633">
        <ele>1245.52</ele>
        <time>2017-10-17T13:51:51.000Z</time>
      </trkpt>
      <trkpt lat="44.83812" lon="5.39639">
        <ele>1242.03</ele>
        <time>2017-10-17T13:52:01.000Z</time>
      </trkpt>
      <trkpt lat="44.83808" lon="5.39645">
        <ele>1240.57</ele>
        <time>2017-10-17T13:52:11.000Z</time>
      </trkpt>
      <trkpt lat="44.83809" lon="5.39647">
        <ele>1241.15</ele>
        <time>2017-10-17T13:52:21.000Z</time>
      </trkpt>
      <trkpt lat="44.83808" lon="5.39645">
        <ele>1240.75</ele>
        <time>2017-10-17T13:52:32.000Z</time>
      </trkpt>
      <trkpt lat="44.83808" lon="5.39648">
        <ele>1241.28</ele>
        <time>2017-10-17T13:52:49.000Z</time>
      </trkpt>
      <trkpt lat="44.83813" lon="5.39679">
        <ele>1249.11</ele>
        <time>2017-10-17T13:52:59.000Z</time>
      </trkpt>
      <trkpt lat="44.83813" lon="5.39694">
        <ele>1252.06</ele>
        <time>2017-10-17T13:53:09.000Z</time>
      </trkpt>
      <trkpt lat="44.83804" lon="5.39712">
        <ele>1249.92</ele>
        <time>2017-10-17T13:53:19.000Z</time>
      </trkpt>
      <trkpt lat="44.83802" lon="5.39726">
        <ele>1251.07</ele>
        <time>2017-10-17T13:53:29.000Z</time>
      </trkpt>
      <trkpt lat="44.83804" lon="5.39742">
        <ele>1255.33</ele>
        <time>2017-10-17T13:53:39.000Z</time>
      </trkpt>
      <trkpt lat="44.838" lon="5.39766">
        <ele>1258.73</ele>
        <time>2017-10-17T13:53:48.000Z</time>
      </trkpt>
    </trkseg>
  </trk>
</gpx>